Time,TemperatureF,DewpointF,PressureIn,WindDirection,WindDirectionDegrees,WindSpeedMPH,WindSpeedGustMPH,Humidity,HourlyPrecipIn,Conditions,Clouds,dailyrainin,SoftwareType,DateUTC
2013-06-08 00:00:00,66.4,53.4,28.97,SE,130,0.0,0.0,63,0.00,,---,0.00,VWS V14.01,2013-06-08 04:00:00,
2013-06-08 00:01:00,66.2,53.2,28.97,SE,130,0.0,0.0,63,0.00,,---,0.00,VWS V14.01,2013-06-08 04:01:00,
2013-06-08 00:02:00,66.2,53.2,28.97,SE,130,0.0,0.0,63,0.00,,---,0.00,VWS V14.01,2013-06-08 04:02:00,
2013-06-08 00:03:00,66.2,53.2,28.97,SE,130,0.0,0.0,63,0.00,,---,0.00,VWS V14.01,2013-06-08 04:03:00,
2013-06-08 00:04:00,66.2,53.2,28.97,SE,130,0.0,0.0,63,0.00,,---,0.00,VWS V14.01,2013-06-08 04:04:00,
2013-06-08 00:05:00,66.2,53.2,28.97,SE,130,0.0,0.0,63,0.00,,---,0.00,VWS V14.01,2013-06-08 04:05:00,
2013-06-08 00:06:00,66.0,53.1,28.97,SE,130,0.0,0.0,63,0.00,,---,0.00,VWS V14.01,2013-06-08 04:06:00,
2013-06-08 00:07:00,66.0,53.1,28.97,SE,130,0.0,0.0,63,0.00,,---,0.00,VWS V14.01,2013-06-08 04:07:00,
2013-06-08 00:08:00,66.0,53.1,28.97,SSE,162,3.1,3.6,63,0.00,,---,0.00,VWS V14.01,2013-06-08 04:08:00,
2013-06-08 00:09:00,66.0,53.5,28.97,SSE,162,0.0,3.1,64,0.00,,---,0.00,VWS V14.01,2013-06-08 04:09:00,
2013-06-08 00:10:00,66.0,53.5,28.97,SSE,162,0.0,0.0,64,0.00,,---,0.00,VWS V14.01,2013-06-08 04:10:00,
2013-06-08 00:11:00,66.0,53.5,28.97,SSE,162,0.0,0.0,64,0.00,,---,0.00,VWS V14.01,2013-06-08 04:11:00,
2013-06-08 00:12:00,66.0,53.5,28.97,SSE,154,0.0,4.5,64,0.00,,---,0.00,VWS V14.01,2013-06-08 04:12:00,
2013-06-08 00:13:00,66.0,53.9,28.97,SSE,151,3.1,4.0,65,0.00,,---,0.00,VWS V14.01,2013-06-08 04:13:00,
2013-06-08 00:14:00,66.0,53.9,28.97,SSE,151,0.0,3.1,65,0.00,,---,0.00,VWS V14.01,2013-06-08 04:14:00,
2013-06-08 00:15:00,66.0,53.9,28.97,SSE,151,0.0,0.0,65,0.00,,---,0.00,VWS V14.01,2013-06-08 04:15:00,
2013-06-08 00:16:00,66.0,54.3,28.97,SSE,151,0.0,0.0,66,0.00,,---,0.00,VWS V14.01,2013-06-08 04:16:00,
2013-06-08 00:17:00,66.0,54.3,28.97,SSE,151,0.0,0.0,66,0.00,,---,0.00,VWS V14.01,2013-06-08 04:17:00,
2013-06-08 00:18:00,66.0,54.3,28.97,SSE,151,0.0,0.0,66,0.00,,---,0.00,VWS V14.01,2013-06-08 04:18:00,
2013-06-08 00:19:00,66.0,54.3,28.97,SSE,151,0.0,0.0,66,0.00,,---,0.00,VWS V14.01,2013-06-08 04:19:00,
2013-06-08 00:20:00,66.0,54.3,28.97,SSE,151,0.0,0.0,66,0.00,,---,0.00,VWS V14.01,2013-06-08 04:20:00,
2013-06-08 00:21:00,66.0,54.3,28.97,SSE,151,0.0,0.0,66,0.00,,---,0.00,VWS V14.01,2013-06-08 04:21:00,
2013-06-08 00:22:00,66.0,54.3,28.97,SSE,151,0.0,0.0,66,0.00,,---,0.00,VWS V14.01,2013-06-08 04:22:00,
2013-06-08 00:23:00,66.0,54.3,28.97,SSE,151,0.0,0.0,66,0.00,,---,0.00,VWS V14.01,2013-06-08 04:23:00,
2013-06-08 00:24:00,66.0,54.3,28.97,SSE,151,0.0,0.0,66,0.00,,---,0.00,VWS V14.01,2013-06-08 04:24:00,
2013-06-08 00:25:00,66.2,54.5,28.97,SSE,151,0.0,0.0,66,0.00,,---,0.00,VWS V14.01,2013-06-08 04:25:00,
2013-06-08 00:26:00,66.2,54.5,28.97,SSE,151,0.0,0.0,66,0.00,,---,0.00,VWS V14.01,2013-06-08 04:26:00,
2013-06-08 00:27:00,66.2,54.5,28.97,SSE,151,3.6,3.6,66,0.00,,---,0.00,VWS V14.01,2013-06-08 04:27:00,
2013-06-08 00:28:00,66.2,54.9,28.97,SSE,151,0.0,3.6,67,0.00,,---,0.00,VWS V14.01,2013-06-08 04:28:00,
2013-06-08 00:29:00,66.4,55.1,28.97,SSE,151,2.7,5.4,67,0.00,,---,0.00,VWS V14.01,2013-06-08 04:29:00,
2013-06-08 00:30:00,66.4,55.1,28.97,SSE,165,4.5,5.4,67,0.00,,---,0.00,VWS V14.01,2013-06-08 04:30:00,
2013-06-08 00:31:00,66.4,55.1,28.97,ESE,107,2.7,4.9,67,0.00,,---,0.00,VWS V14.01,2013-06-08 04:31:00,
2013-06-08 00:32:00,66.6,55.3,28.97,ESE,119,2.7,2.7,67,0.00,,---,0.00,VWS V14.01,2013-06-08 04:32:00,
2013-06-08 00:33:00,66.6,55.3,28.97,ESE,121,0.0,4.0,67,0.00,,---,0.00,VWS V14.01,2013-06-08 04:33:00,
2013-06-08 00:34:00,66.6,55.3,28.97,ESE,121,0.0,0.0,67,0.00,,---,0.00,VWS V14.01,2013-06-08 04:34:00,
2013-06-08 00:35:00,66.6,55.3,28.97,SE,145,5.4,5.4,67,0.00,,---,0.00,VWS V14.01,2013-06-08 04:35:00,
2013-06-08 00:36:00,66.6,54.9,28.97,SE,129,3.6,5.4,66,0.00,,---,0.00,VWS V14.01,2013-06-08 04:36:00,
2013-06-08 00:37:00,66.6,54.9,28.97,SE,145,4.5,4.5,66,0.00,,---,0.00,VWS V14.01,2013-06-08 04:37:00,
2013-06-08 00:38:00,66.6,54.9,28.97,SE,135,2.7,4.5,66,0.00,,---,0.00,VWS V14.01,2013-06-08 04:38:00,
2013-06-08 00:39:00,66.6,54.9,28.97,SE,136,3.6,4.5,66,0.00,,---,0.00,VWS V14.01,2013-06-08 04:39:00,
2013-06-08 00:40:00,66.6,54.9,28.97,SE,136,3.1,4.9,66,0.00,,---,0.00,VWS V14.01,2013-06-08 04:40:00,
2013-06-08 00:41:00,66.6,54.4,28.97,SSE,153,3.6,3.6,65,0.00,,---,0.00,VWS V14.01,2013-06-08 04:41:00,
2013-06-08 00:42:00,66.6,54.4,28.97,SE,134,4.0,4.5,65,0.00,,---,0.00,VWS V14.01,2013-06-08 04:42:00,
2013-06-08 00:43:00,66.6,54.4,28.97,SE,125,4.0,4.0,65,0.00,,---,0.00,VWS V14.01,2013-06-08 04:43:00,
2013-06-08 00:44:00,66.6,54.4,28.97,SE,138,0.0,4.0,65,0.00,,---,0.00,VWS V14.01,2013-06-08 04:44:00,
2013-06-08 00:45:00,66.6,54.4,28.97,SSE,148,3.6,3.6,65,0.00,,---,0.00,VWS V14.01,2013-06-08 04:45:00,
2013-06-08 00:46:00,66.6,54.4,28.97,SSE,148,0.0,3.6,65,0.00,,---,0.00,VWS V14.01,2013-06-08 04:46:00,
2013-06-08 00:47:00,66.6,54.4,28.97,SSE,148,0.0,0.0,65,0.00,,---,0.00,VWS V14.01,2013-06-08 04:47:00,
2013-06-08 00:48:00,66.4,54.3,28.97,SSE,147,0.0,4.0,65,0.00,,---,0.00,VWS V14.01,2013-06-08 04:48:00,
2013-06-08 00:49:00,66.4,54.3,28.97,SSE,147,3.1,3.6,65,0.00,,---,0.00,VWS V14.01,2013-06-08 04:49:00,
2013-06-08 00:50:00,66.4,54.3,28.97,SSE,147,0.0,3.1,65,0.00,,---,0.00,VWS V14.01,2013-06-08 04:50:00,
2013-06-08 00:51:00,66.4,54.3,28.97,SSE,147,0.0,0.0,65,0.00,,---,0.00,VWS V14.01,2013-06-08 04:51:00,
2013-06-08 00:52:00,66.4,54.3,28.97,SSE,147,0.0,0.0,65,0.00,,---,0.00,VWS V14.01,2013-06-08 04:52:00,
2013-06-08 00:53:00,66.4,54.3,28.97,SSE,147,0.0,0.0,65,0.00,,---,0.00,VWS V14.01,2013-06-08 04:53:00,
2013-06-08 00:54:00,66.2,54.1,28.97,SSE,147,0.0,0.0,65,0.00,,---,0.00,VWS V14.01,2013-06-08 04:54:00,
2013-06-08 00:55:00,66.2,54.1,28.97,SSE,147,0.0,0.0,65,0.00,,---,0.00,VWS V14.01,2013-06-08 04:55:00,
2013-06-08 00:56:00,66.2,54.1,28.97,SSE,147,0.0,0.0,65,0.00,,---,0.00,VWS V14.01,2013-06-08 04:56:00,
2013-06-08 00:57:00,66.2,54.1,29.00,SSE,147,0.0,0.0,65,0.00,,---,0.00,VWS V14.01,2013-06-08 04:57:00,
2013-06-08 00:58:00,66.2,54.1,29.00,SSE,147,0.0,0.0,65,0.00,,---,0.00,VWS V14.01,2013-06-08 04:58:00,
2013-06-08 00:59:00,66.2,54.1,29.00,SSE,147,0.0,0.0,65,0.00,,---,0.00,VWS V14.01,2013-06-08 04:59:00,
2013-06-08 01:00:00,66.2,54.1,29.00,SSE,147,2.7,3.6,65,0.00,,---,0.00,VWS V14.01,2013-06-08 05:00:00,
2013-06-08 01:01:00,66.2,54.5,29.00,SSE,147,0.0,2.7,66,0.00,,---,0.00,VWS V14.01,2013-06-08 05:01:00,
2013-06-08 01:02:00,66.2,54.5,29.00,SSE,147,0.0,2.7,66,0.00,,---,0.00,VWS V14.01,2013-06-08 05:02:00,
2013-06-08 01:03:00,66.2,54.5,29.00,SSE,147,0.0,0.0,66,0.00,,---,0.00,VWS V14.01,2013-06-08 05:03:00,
2013-06-08 01:04:00,66.2,54.5,29.00,ESE,118,0.0,4.0,66,0.00,,---,0.00,VWS V14.01,2013-06-08 05:04:00,
2013-06-08 01:05:00,66.2,54.5,29.00,ESE,118,0.0,0.0,66,0.00,,---,0.00,VWS V14.01,2013-06-08 05:05:00,
2013-06-08 01:06:00,66.2,54.9,29.00,ESE,118,0.0,0.0,67,0.00,,---,0.00,VWS V14.01,2013-06-08 05:06:00,
2013-06-08 01:07:00,66.2,54.9,29.00,ESE,118,0.0,2.7,67,0.00,,---,0.00,VWS V14.01,2013-06-08 05:07:00,
2013-06-08 01:08:00,66.2,54.9,29.00,ESE,118,0.0,2.7,67,0.00,,---,0.00,VWS V14.01,2013-06-08 05:08:00,
2013-06-08 01:09:00,66.2,54.9,29.00,ESE,118,0.0,0.0,67,0.00,,---,0.00,VWS V14.01,2013-06-08 05:09:00,
2013-06-08 01:10:00,66.2,54.9,29.00,ESE,118,0.0,0.0,67,0.00,,---,0.00,VWS V14.01,2013-06-08 05:10:00,
2013-06-08 01:11:00,66.2,54.9,29.00,ESE,118,0.0,0.0,67,0.00,,---,0.00,VWS V14.01,2013-06-08 05:11:00,
2013-06-08 01:12:00,66.2,54.9,29.00,ESE,118,0.0,0.0,67,0.00,,---,0.00,VWS V14.01,2013-06-08 05:12:00,
2013-06-08 01:13:00,66.2,54.9,29.00,SE,132,0.0,0.0,67,0.00,,---,0.00,VWS V14.01,2013-06-08 05:13:00,
2013-06-08 01:14:00,66.2,54.9,29.00,SE,132,0.0,3.6,67,0.00,,---,0.00,VWS V14.01,2013-06-08 05:14:00,
2013-06-08 01:15:00,58.5,46.8,28.85,SE,124,3.6,4.5,65,0.00,,---,0.00,VWS V14.01,2013-06-08 05:15:00,
2013-06-08 01:16:00,66.2,54.9,29.00,SE,141,2.7,4.5,67,0.00,,---,0.00,VWS V14.01,2013-06-08 05:16:00,
2013-06-08 01:17:00,66.2,54.9,29.00,SE,141,3.6,4.0,67,0.00,,---,0.00,VWS V14.01,2013-06-08 05:17:00,
2013-06-08 01:18:00,66.2,54.9,29.00,SE,141,3.1,3.6,67,0.00,,---,0.00,VWS V14.01,2013-06-08 05:18:00,
2013-06-08 01:19:00,66.2,54.9,29.00,SE,141,0.0,3.1,67,0.00,,---,0.00,VWS V14.01,2013-06-08 05:19:00,
2013-06-08 01:20:00,66.0,54.8,29.00,SE,141,0.0,0.0,67,0.00,,---,0.00,VWS V14.01,2013-06-08 05:20:00,
2013-06-08 01:21:00,66.0,54.8,29.00,SE,141,0.0,0.0,67,0.00,,---,0.00,VWS V14.01,2013-06-08 05:21:00,
2013-06-08 01:22:00,66.0,54.8,29.00,SE,141,0.0,0.0,67,0.00,,---,0.00,VWS V14.01,2013-06-08 05:22:00,
2013-06-08 01:23:00,66.0,54.8,29.00,SE,141,0.0,0.0,67,0.00,,---,0.00,VWS V14.01,2013-06-08 05:23:00,
2013-06-08 01:24:00,66.0,54.3,29.00,SE,141,0.0,0.0,66,0.00,,---,0.00,VWS V14.01,2013-06-08 05:24:00,
2013-06-08 01:25:00,66.0,54.8,29.00,SE,141,0.0,0.0,67,0.00,,---,0.00,VWS V14.01,2013-06-08 05:25:00,
2013-06-08 01:26:00,66.0,54.8,29.00,SE,141,0.0,0.0,67,0.00,,---,0.00,VWS V14.01,2013-06-08 05:26:00,
2013-06-08 01:27:00,66.0,54.8,29.00,SE,141,0.0,0.0,67,0.00,,---,0.00,VWS V14.01,2013-06-08 05:27:00,
2013-06-08 01:28:00,66.0,54.8,29.00,SE,141,0.0,4.5,67,0.00,,---,0.00,VWS V14.01,2013-06-08 05:28:00,
2013-06-08 01:29:00,66.0,54.8,29.00,SE,141,0.0,0.0,67,0.00,,---,0.00,VWS V14.01,2013-06-08 05:29:00,
2013-06-08 01:30:00,66.0,54.8,29.00,SE,141,3.1,4.5,67,0.00,,---,0.00,VWS V14.01,2013-06-08 05:30:00,
2013-06-08 01:31:00,66.2,54.9,29.00,SE,141,3.1,4.0,67,0.00,,---,0.00,VWS V14.01,2013-06-08 05:31:00,
2013-06-08 01:32:00,66.2,54.9,29.00,SE,141,4.5,4.5,67,0.00,,---,0.00,VWS V14.01,2013-06-08 05:32:00,
2013-06-08 01:33:00,66.2,54.9,29.00,ESE,120,2.7,4.9,67,0.00,,---,0.00,VWS V14.01,2013-06-08 05:33:00,
2013-06-08 01:34:00,66.2,54.9,29.00,SE,137,2.7,4.9,67,0.00,,---,0.00,VWS V14.01,2013-06-08 05:34:00,
2013-06-08 01:35:00,66.2,54.9,29.00,SE,137,0.0,2.7,67,0.00,,---,0.00,VWS V14.01,2013-06-08 05:35:00,
2013-06-08 01:36:00,66.2,54.9,29.00,SE,137,0.0,0.0,67,0.00,,---,0.00,VWS V14.01,2013-06-08 05:36:00,
2013-06-08 01:37:00,66.2,54.9,29.00,SE,143,4.0,4.5,67,0.00,,---,0.00,VWS V14.01,2013-06-08 05:37:00,
2013-06-08 01:38:00,66.2,54.9,29.00,SE,144,0.0,4.0,67,0.00,,---,0.00,VWS V14.01,2013-06-08 05:38:00,
2013-06-08 01:39:00,66.4,54.7,29.00,SE,144,0.0,2.7,66,0.00,,---,0.00,VWS V14.01,2013-06-08 05:39:00,
2013-06-08 01:40:00,57.7,46.5,28.85,East,100,0.0,0.0,66,0.00,,---,0.00,VWS V14.01,2013-06-08 05:40:00,
2013-06-08 01:41:00,66.4,54.7,29.00,SE,144,0.0,3.1,66,0.00,,---,0.00,VWS V14.01,2013-06-08 05:41:00,
2013-06-08 01:42:00,66.4,54.7,28.97,SE,144,0.0,0.0,66,0.00,,---,0.00,VWS V14.01,2013-06-08 05:42:00,
2013-06-08 01:43:00,66.4,54.7,28.97,SE,144,2.7,2.7,66,0.00,,---,0.00,VWS V14.01,2013-06-08 05:43:00,
2013-06-08 01:44:00,66.4,54.7,28.97,SE,144,0.0,2.7,66,0.00,,---,0.00,VWS V14.01,2013-06-08 05:44:00,
2013-06-08 01:45:00,66.4,54.7,28.97,SE,144,0.0,0.0,66,0.00,,---,0.00,VWS V14.01,2013-06-08 05:45:00,
2013-06-08 01:46:00,66.4,54.7,28.97,SE,144,0.0,0.0,66,0.00,,---,0.00,VWS V14.01,2013-06-08 05:46:00,
2013-06-08 01:47:00,66.4,54.7,28.97,ESE,103,0.0,0.0,66,0.00,,---,0.00,VWS V14.01,2013-06-08 05:47:00,
2013-06-08 01:48:00,66.4,54.7,28.97,SE,132,0.0,4.9,66,0.00,,---,0.00,VWS V14.01,2013-06-08 05:48:00,
2013-06-08 01:49:00,66.2,54.5,28.97,SE,132,0.0,0.0,66,0.00,,---,0.00,VWS V14.01,2013-06-08 05:49:00,
2013-06-08 01:50:00,66.2,54.5,28.97,SE,132,0.0,0.0,66,0.00,,---,0.00,VWS V14.01,2013-06-08 05:50:00,
2013-06-08 01:51:00,66.2,54.5,28.97,SE,132,0.0,0.0,66,0.00,,---,0.00,VWS V14.01,2013-06-08 05:51:00,
2013-06-08 01:52:00,66.2,54.5,28.97,SE,132,0.0,0.0,66,0.00,,---,0.00,VWS V14.01,2013-06-08 05:52:00,
2013-06-08 01:53:00,57.2,46.4,28.85,East,100,0.0,2.7,67,0.00,,---,0.00,VWS V14.01,2013-06-08 05:53:00,
2013-06-08 01:54:00,66.2,54.5,28.97,SE,132,0.0,0.0,66,0.00,,---,0.00,VWS V14.01,2013-06-08 05:54:00,
2013-06-08 01:55:00,66.2,54.5,28.97,SE,132,0.0,0.0,66,0.00,,---,0.00,VWS V14.01,2013-06-08 05:55:00,
2013-06-08 01:56:00,66.2,54.5,28.97,SE,132,0.0,0.0,66,0.00,,---,0.00,VWS V14.01,2013-06-08 05:56:00,
2013-06-08 01:57:00,66.2,54.5,29.00,SE,132,0.0,0.0,66,0.00,,---,0.00,VWS V14.01,2013-06-08 05:57:00,
2013-06-08 01:58:00,66.2,54.5,29.00,SE,132,0.0,4.9,66,0.00,,---,0.00,VWS V14.01,2013-06-08 05:58:00,
2013-06-08 01:59:00,66.2,54.5,29.00,SE,132,0.0,2.7,66,0.00,,---,0.00,VWS V14.01,2013-06-08 05:59:00,
2013-06-08 02:00:00,66.2,54.5,29.00,SE,132,0.0,0.0,66,0.00,,---,0.00,VWS V14.01,2013-06-08 06:00:00,
2013-06-08 02:01:00,66.4,54.7,29.00,SE,132,0.0,0.0,66,0.00,,---,0.00,VWS V14.01,2013-06-08 06:01:00,
2013-06-08 02:02:00,66.4,54.7,29.00,SE,132,0.0,0.0,66,0.00,,---,0.00,VWS V14.01,2013-06-08 06:02:00,
2013-06-08 02:03:00,66.4,54.7,29.00,SE,132,0.0,0.0,66,0.00,,---,0.00,VWS V14.01,2013-06-08 06:03:00,
2013-06-08 02:04:00,66.4,54.7,29.00,SE,132,0.0,0.0,66,0.00,,---,0.00,VWS V14.01,2013-06-08 06:04:00,
2013-06-08 02:05:00,66.4,54.7,29.00,SE,132,0.0,0.0,66,0.00,,---,0.00,VWS V14.01,2013-06-08 06:05:00,
2013-06-08 02:06:00,66.4,54.7,29.00,SE,132,0.0,0.0,66,0.00,,---,0.00,VWS V14.01,2013-06-08 06:06:00,
2013-06-08 02:07:00,66.4,54.7,29.00,SE,132,0.0,2.7,66,0.00,,---,0.00,VWS V14.01,2013-06-08 06:07:00,
2013-06-08 02:08:00,66.4,54.7,29.00,SE,132,0.0,3.1,66,0.00,,---,0.00,VWS V14.01,2013-06-08 06:08:00,
2013-06-08 02:09:00,66.4,54.7,29.00,SE,132,0.0,2.7,66,0.00,,---,0.00,VWS V14.01,2013-06-08 06:09:00,
2013-06-08 02:10:00,66.4,54.7,29.00,ESE,107,0.0,2.7,66,0.00,,---,0.00,VWS V14.01,2013-06-08 06:10:00,
2013-06-08 02:11:00,57.2,47.1,28.85,East,100,0.0,0.0,69,0.00,,---,0.00,VWS V14.01,2013-06-08 06:11:00,
2013-06-08 02:12:00,66.4,54.7,29.00,ESE,107,0.0,0.0,66,0.00,,---,0.00,VWS V14.01,2013-06-08 06:12:00,
2013-06-08 02:13:00,66.4,54.7,29.00,ESE,107,0.0,0.0,66,0.00,,---,0.00,VWS V14.01,2013-06-08 06:13:00,
2013-06-08 02:14:00,66.4,54.7,29.00,ESE,107,0.0,0.0,66,0.00,,---,0.00,VWS V14.01,2013-06-08 06:14:00,
2013-06-08 02:15:00,66.4,54.7,29.00,ESE,107,0.0,0.0,66,0.00,,---,0.00,VWS V14.01,2013-06-08 06:15:00,
2013-06-08 02:16:00,57.0,47.0,28.85,East,100,0.0,0.0,69,0.00,,---,0.00,VWS V14.01,2013-06-08 06:16:00,
2013-06-08 02:17:00,66.4,54.7,29.00,ESE,107,0.0,0.0,66,0.00,,---,0.00,VWS V14.01,2013-06-08 06:17:00,
2013-06-08 02:18:00,66.4,54.7,29.00,ESE,107,0.0,0.0,66,0.00,,---,0.00,VWS V14.01,2013-06-08 06:18:00,
2013-06-08 02:19:00,66.4,54.7,29.00,ESE,107,0.0,0.0,66,0.00,,---,0.00,VWS V14.01,2013-06-08 06:19:00,
2013-06-08 02:20:00,66.4,54.7,29.00,ESE,107,0.0,0.0,66,0.00,,---,0.00,VWS V14.01,2013-06-08 06:20:00,
2013-06-08 02:21:00,56.8,47.2,28.85,East,100,0.0,0.0,70,0.00,,---,0.00,VWS V14.01,2013-06-08 06:21:00,
2013-06-08 02:22:00,66.4,54.7,29.00,ESE,107,0.0,0.0,66,0.00,,---,0.00,VWS V14.01,2013-06-08 06:22:00,
2013-06-08 02:23:00,66.4,54.7,29.00,ESE,107,0.0,0.0,66,0.00,,---,0.00,VWS V14.01,2013-06-08 06:23:00,
2013-06-08 02:24:00,66.4,54.3,29.00,ESE,107,0.0,0.0,65,0.00,,---,0.00,VWS V14.01,2013-06-08 06:24:00,
2013-06-08 02:25:00,66.4,54.3,29.00,ESE,107,0.0,0.0,65,0.00,,---,0.00,VWS V14.01,2013-06-08 06:25:00,
2013-06-08 02:26:00,66.4,54.3,29.00,ESE,107,0.0,0.0,65,0.00,,---,0.00,VWS V14.01,2013-06-08 06:26:00,
2013-06-08 02:27:00,66.4,54.3,28.97,ESE,107,0.0,0.0,65,0.00,,---,0.00,VWS V14.01,2013-06-08 06:27:00,
2013-06-08 02:28:00,66.4,54.3,28.97,East,95,0.0,0.0,65,0.00,,---,0.00,VWS V14.01,2013-06-08 06:28:00,
2013-06-08 02:29:00,56.3,46.7,28.85,East,100,0.0,0.0,70,0.00,,---,0.00,VWS V14.01,2013-06-08 06:29:00,
2013-06-08 02:30:00,66.4,54.3,28.97,East,95,0.0,0.0,65,0.00,,---,0.00,VWS V14.01,2013-06-08 06:30:00,
2013-06-08 02:31:00,66.4,54.3,28.97,East,95,0.0,0.0,65,0.00,,---,0.00,VWS V14.01,2013-06-08 06:31:00,
2013-06-08 02:32:00,66.4,54.3,28.97,East,95,0.0,0.0,65,0.00,,---,0.00,VWS V14.01,2013-06-08 06:32:00,
2013-06-08 02:33:00,66.4,54.3,28.97,East,96,0.0,0.0,65,0.00,,---,0.00,VWS V14.01,2013-06-08 06:33:00,
2013-06-08 02:34:00,66.4,54.3,28.97,East,96,0.0,0.0,65,0.00,,---,0.00,VWS V14.01,2013-06-08 06:34:00,
2013-06-08 02:35:00,66.4,54.3,28.97,East,96,0.0,0.0,65,0.00,,---,0.00,VWS V14.01,2013-06-08 06:35:00,
2013-06-08 02:36:00,66.4,54.3,28.97,East,96,0.0,0.0,65,0.00,,---,0.00,VWS V14.01,2013-06-08 06:36:00,
2013-06-08 02:37:00,66.4,54.3,28.97,East,95,0.0,0.0,65,0.00,,---,0.00,VWS V14.01,2013-06-08 06:37:00,
2013-06-08 02:38:00,66.4,54.3,28.97,East,96,0.0,0.0,65,0.00,,---,0.00,VWS V14.01,2013-06-08 06:38:00,
2013-06-08 02:39:00,66.4,54.3,28.97,East,95,0.0,0.0,65,0.00,,---,0.00,VWS V14.01,2013-06-08 06:39:00,
2013-06-08 02:40:00,66.4,54.3,28.97,East,96,0.0,0.0,65,0.00,,---,0.00,VWS V14.01,2013-06-08 06:40:00,
2013-06-08 02:41:00,55.9,47.4,28.85,East,100,0.0,0.0,73,0.00,,---,0.00,VWS V14.01,2013-06-08 06:41:00,
2013-06-08 02:42:00,66.4,54.3,28.97,East,95,0.0,0.0,65,0.00,,---,0.00,VWS V14.01,2013-06-08 06:42:00,
2013-06-08 02:43:00,66.4,54.3,28.97,ESE,123,0.0,4.0,65,0.00,,---,0.00,VWS V14.01,2013-06-08 06:43:00,
2013-06-08 02:44:00,66.4,54.3,28.97,ESE,123,2.7,3.1,65,0.00,,---,0.00,VWS V14.01,2013-06-08 06:44:00,
2013-06-08 02:45:00,66.4,54.3,28.97,ESE,117,2.7,4.0,65,0.00,,---,0.00,VWS V14.01,2013-06-08 06:45:00,
2013-06-08 02:46:00,55.8,47.2,28.85,East,100,0.0,0.0,73,0.00,,---,0.00,VWS V14.01,2013-06-08 06:46:00,
2013-06-08 02:47:00,66.4,54.3,28.97,ESE,117,0.0,2.7,65,0.00,,---,0.00,VWS V14.01,2013-06-08 06:47:00,
2013-06-08 02:48:00,66.4,54.3,28.97,ESE,117,2.7,3.6,65,0.00,,---,0.00,VWS V14.01,2013-06-08 06:48:00,
2013-06-08 02:49:00,66.4,54.3,28.97,ESE,117,0.0,2.7,65,0.00,,---,0.00,VWS V14.01,2013-06-08 06:49:00,
2013-06-08 02:50:00,66.4,54.3,28.97,East,93,3.1,3.6,65,0.00,,---,0.00,VWS V14.01,2013-06-08 06:50:00,
2013-06-08 02:51:00,55.6,47.1,28.85,East,100,0.0,0.0,73,0.00,,---,0.00,VWS V14.01,2013-06-08 06:51:00,
2013-06-08 02:52:00,66.4,54.3,28.97,ENE,70,2.7,3.6,65,0.00,,---,0.00,VWS V14.01,2013-06-08 06:52:00,
2013-06-08 02:53:00,66.4,54.3,28.97,East,99,2.7,3.6,65,0.00,,---,0.00,VWS V14.01,2013-06-08 06:53:00,
2013-06-08 02:54:00,66.4,54.3,28.97,East,99,3.1,3.1,65,0.00,,---,0.00,VWS V14.01,2013-06-08 06:54:00,
2013-06-08 02:55:00,66.4,54.3,28.97,East,99,0.0,3.1,65,0.00,,---,0.00,VWS V14.01,2013-06-08 06:55:00,
2013-06-08 02:56:00,55.8,48.0,28.85,East,100,0.0,0.0,75,0.00,,---,0.00,VWS V14.01,2013-06-08 06:56:00,
2013-06-08 02:57:00,66.2,54.1,28.97,East,101,3.1,3.1,65,0.00,,---,0.00,VWS V14.01,2013-06-08 06:57:00,
2013-06-08 02:58:00,66.2,54.1,28.97,East,101,0.0,3.6,65,0.00,,---,0.00,VWS V14.01,2013-06-08 06:58:00,
2013-06-08 02:59:00,66.2,54.1,28.97,East,101,0.0,0.0,65,0.00,,---,0.00,VWS V14.01,2013-06-08 06:59:00,
2013-06-08 03:00:00,66.2,54.1,28.97,East,101,0.0,0.0,65,0.00,,---,0.00,VWS V14.01,2013-06-08 07:00:00,
2013-06-08 03:01:00,55.6,47.8,28.85,East,100,0.0,0.0,75,0.00,,---,0.00,VWS V14.01,2013-06-08 07:01:00,
2013-06-08 03:02:00,66.2,54.1,28.97,East,101,0.0,0.0,65,0.00,,---,0.00,VWS V14.01,2013-06-08 07:02:00,
2013-06-08 03:03:00,66.2,54.1,28.97,East,101,0.0,0.0,65,0.00,,---,0.00,VWS V14.01,2013-06-08 07:03:00,
2013-06-08 03:04:00,66.2,54.1,28.97,East,101,0.0,0.0,65,0.00,,---,0.00,VWS V14.01,2013-06-08 07:04:00,
2013-06-08 03:05:00,66.2,54.1,28.97,East,101,0.0,0.0,65,0.00,,---,0.00,VWS V14.01,2013-06-08 07:05:00,
2013-06-08 03:06:00,55.6,47.8,28.85,East,100,0.0,0.0,75,0.00,,---,0.00,VWS V14.01,2013-06-08 07:06:00,
2013-06-08 03:07:00,66.0,53.9,28.97,East,101,0.0,0.0,65,0.00,,---,0.00,VWS V14.01,2013-06-08 07:07:00,
2013-06-08 03:08:00,66.0,53.9,28.97,East,101,0.0,0.0,65,0.00,,---,0.00,VWS V14.01,2013-06-08 07:08:00,
2013-06-08 03:09:00,66.0,53.9,28.97,East,101,0.0,0.0,65,0.00,,---,0.00,VWS V14.01,2013-06-08 07:09:00,
2013-06-08 03:10:00,65.8,53.8,28.97,East,101,0.0,0.0,65,0.00,,---,0.00,VWS V14.01,2013-06-08 07:10:00,
2013-06-08 03:11:00,55.6,48.2,28.85,East,100,0.0,0.0,76,0.00,,---,0.00,VWS V14.01,2013-06-08 07:11:00,
2013-06-08 03:12:00,65.8,53.8,28.97,East,101,0.0,0.0,65,0.00,,---,0.00,VWS V14.01,2013-06-08 07:12:00,
2013-06-08 03:13:00,65.8,53.8,28.97,East,101,0.0,0.0,65,0.00,,---,0.00,VWS V14.01,2013-06-08 07:13:00,
2013-06-08 03:14:00,65.7,53.6,28.97,East,101,0.0,0.0,65,0.00,,---,0.00,VWS V14.01,2013-06-08 07:14:00,
2013-06-08 03:15:00,65.7,53.6,28.97,East,99,3.1,3.6,65,0.00,,---,0.00,VWS V14.01,2013-06-08 07:15:00,
2013-06-08 03:16:00,55.6,48.2,28.88,East,100,0.0,0.0,76,0.00,,---,0.00,VWS V14.01,2013-06-08 07:16:00,
2013-06-08 03:17:00,65.5,53.4,28.97,East,99,0.0,3.1,65,0.00,,---,0.00,VWS V14.01,2013-06-08 07:17:00,
2013-06-08 03:18:00,65.5,53.8,28.97,East,99,2.7,2.7,66,0.00,,---,0.00,VWS V14.01,2013-06-08 07:18:00,
2013-06-08 03:19:00,65.3,53.7,28.97,East,99,0.0,3.1,66,0.00,,---,0.00,VWS V14.01,2013-06-08 07:19:00,
2013-06-08 03:20:00,65.3,53.7,28.97,East,99,0.0,0.0,66,0.00,,---,0.00,VWS V14.01,2013-06-08 07:20:00,
2013-06-08 03:21:00,55.6,48.2,28.88,East,100,0.0,0.0,76,0.00,,---,0.00,VWS V14.01,2013-06-08 07:21:00,
2013-06-08 03:22:00,65.1,53.5,28.97,East,99,0.0,0.0,66,0.00,,---,0.00,VWS V14.01,2013-06-08 07:22:00,
2013-06-08 03:23:00,65.1,53.9,28.97,East,99,0.0,0.0,67,0.00,,---,0.00,VWS V14.01,2013-06-08 07:23:00,
2013-06-08 03:24:00,64.9,53.7,28.97,East,99,0.0,0.0,67,0.00,,---,0.00,VWS V14.01,2013-06-08 07:24:00,
2013-06-08 03:25:00,64.9,53.7,28.97,East,99,0.0,0.0,67,0.00,,---,0.00,VWS V14.01,2013-06-08 07:25:00,
2013-06-08 03:26:00,64.9,53.7,28.97,East,99,0.0,0.0,67,0.00,,---,0.00,VWS V14.01,2013-06-08 07:26:00,
2013-06-08 03:27:00,55.6,48.5,28.88,East,100,0.0,0.0,77,0.00,,---,0.00,VWS V14.01,2013-06-08 07:27:00,
2013-06-08 03:28:00,64.9,53.7,28.97,East,99,0.0,0.0,67,0.00,,---,0.00,VWS V14.01,2013-06-08 07:28:00,
2013-06-08 03:29:00,64.8,53.6,28.97,East,99,0.0,0.0,67,0.00,,---,0.00,VWS V14.01,2013-06-08 07:29:00,
2013-06-08 03:30:00,64.8,53.6,28.97,East,99,0.0,0.0,67,0.00,,---,0.00,VWS V14.01,2013-06-08 07:30:00,
2013-06-08 03:31:00,64.8,53.6,28.97,East,99,0.0,0.0,67,0.00,,---,0.00,VWS V14.01,2013-06-08 07:31:00,
2013-06-08 03:32:00,55.4,48.3,28.88,East,100,0.0,0.0,77,0.00,,---,0.00,VWS V14.01,2013-06-08 07:32:00,
2013-06-08 03:33:00,64.8,53.6,28.97,East,99,0.0,0.0,67,0.00,,---,0.00,VWS V14.01,2013-06-08 07:33:00,
2013-06-08 03:34:00,64.8,53.6,28.97,East,99,0.0,0.0,67,0.00,,---,0.00,VWS V14.01,2013-06-08 07:34:00,
2013-06-08 03:35:00,64.8,54.0,28.97,East,99,0.0,0.0,68,0.00,,---,0.00,VWS V14.01,2013-06-08 07:35:00,
2013-06-08 03:36:00,64.9,54.1,28.97,East,99,0.0,0.0,68,0.00,,---,0.00,VWS V14.01,2013-06-08 07:36:00,
2013-06-08 03:37:00,55.2,48.2,28.88,East,100,0.0,0.0,77,0.00,,---,0.00,VWS V14.01,2013-06-08 07:37:00,
2013-06-08 03:38:00,64.9,54.5,28.97,East,99,0.0,0.0,69,0.00,,---,0.00,VWS V14.01,2013-06-08 07:38:00,
2013-06-08 03:39:00,64.9,54.5,28.97,East,99,0.0,0.0,69,0.00,,---,0.00,VWS V14.01,2013-06-08 07:39:00,
2013-06-08 03:40:00,64.9,54.5,28.97,East,99,0.0,0.0,69,0.00,,---,0.00,VWS V14.01,2013-06-08 07:40:00,
2013-06-08 03:41:00,64.9,54.5,28.97,East,99,0.0,0.0,69,0.00,,---,0.00,VWS V14.01,2013-06-08 07:41:00,
2013-06-08 03:42:00,64.9,54.5,28.97,East,99,0.0,0.0,69,0.00,,---,0.00,VWS V14.01,2013-06-08 07:42:00,
2013-06-08 03:43:00,54.9,47.8,28.88,East,100,0.0,0.0,77,0.00,,---,0.00,VWS V14.01,2013-06-08 07:43:00,
2013-06-08 03:44:00,64.9,54.5,28.97,East,99,0.0,0.0,69,0.00,,---,0.00,VWS V14.01,2013-06-08 07:44:00,
2013-06-08 03:45:00,64.9,54.5,28.97,East,99,0.0,0.0,69,0.00,,---,0.00,VWS V14.01,2013-06-08 07:45:00,
2013-06-08 03:46:00,64.9,54.5,28.97,East,99,2.7,3.6,69,0.00,,---,0.00,VWS V14.01,2013-06-08 07:46:00,
2013-06-08 03:47:00,64.9,54.5,28.97,East,99,0.0,3.1,69,0.00,,---,0.00,VWS V14.01,2013-06-08 07:47:00,
2013-06-08 03:48:00,54.7,47.6,28.88,East,100,0.0,0.0,77,0.00,,---,0.00,VWS V14.01,2013-06-08 07:48:00,
2013-06-08 03:49:00,64.8,54.8,28.97,East,99,0.0,0.0,70,0.00,,---,0.00,VWS V14.01,2013-06-08 07:49:00,
2013-06-08 03:50:00,64.8,54.8,28.97,East,99,0.0,0.0,70,0.00,,---,0.00,VWS V14.01,2013-06-08 07:50:00,
2013-06-08 03:51:00,64.8,54.8,28.97,East,99,0.0,0.0,70,0.00,,---,0.00,VWS V14.01,2013-06-08 07:51:00,
2013-06-08 03:52:00,64.8,54.8,28.97,East,99,0.0,0.0,70,0.00,,---,0.00,VWS V14.01,2013-06-08 07:52:00,
2013-06-08 03:53:00,64.8,54.8,28.97,East,99,0.0,0.0,70,0.00,,---,0.00,VWS V14.01,2013-06-08 07:53:00,
2013-06-08 03:54:00,64.8,54.8,28.97,East,99,0.0,0.0,70,0.00,,---,0.00,VWS V14.01,2013-06-08 07:54:00,
2013-06-08 03:55:00,54.5,47.5,28.88,East,100,0.0,0.0,77,0.00,,---,0.00,VWS V14.01,2013-06-08 07:55:00,
2013-06-08 03:56:00,64.8,54.8,28.97,East,99,0.0,3.1,70,0.00,,---,0.00,VWS V14.01,2013-06-08 07:56:00,
2013-06-08 03:57:00,64.8,54.8,28.97,East,99,0.0,0.0,70,0.00,,---,0.00,VWS V14.01,2013-06-08 07:57:00,
2013-06-08 03:58:00,64.6,54.6,28.97,East,99,0.0,0.0,70,0.00,,---,0.00,VWS V14.01,2013-06-08 07:58:00,
2013-06-08 03:59:00,64.6,54.6,28.97,East,99,0.0,0.0,70,0.00,,---,0.00,VWS V14.01,2013-06-08 07:59:00,
2013-06-08 04:00:00,54.3,47.6,28.85,East,100,0.0,0.0,78,0.00,,---,0.00,VWS V14.01,2013-06-08 08:00:00,
2013-06-08 04:01:00,64.4,54.4,28.97,East,99,0.0,0.0,70,0.00,,---,0.00,VWS V14.01,2013-06-08 08:01:00,
2013-06-08 04:02:00,64.4,54.4,28.97,East,99,0.0,0.0,70,0.00,,---,0.00,VWS V14.01,2013-06-08 08:02:00,
2013-06-08 04:03:00,64.4,54.4,28.97,East,99,0.0,0.0,70,0.00,,---,0.00,VWS V14.01,2013-06-08 08:03:00,
2013-06-08 04:04:00,64.4,54.4,28.97,East,99,0.0,0.0,70,0.00,,---,0.00,VWS V14.01,2013-06-08 08:04:00,
2013-06-08 04:05:00,64.2,54.2,28.97,East,99,0.0,0.0,70,0.00,,---,0.00,VWS V14.01,2013-06-08 08:05:00,
2013-06-08 04:06:00,54.1,47.4,28.85,East,100,0.0,0.0,78,0.00,,---,0.00,VWS V14.01,2013-06-08 08:06:00,
2013-06-08 04:07:00,64.2,54.2,28.97,East,99,0.0,0.0,70,0.00,,---,0.00,VWS V14.01,2013-06-08 08:07:00,
2013-06-08 04:08:00,64.2,54.2,28.97,East,99,0.0,0.0,70,0.00,,---,0.00,VWS V14.01,2013-06-08 08:08:00,
2013-06-08 04:09:00,64.2,54.2,28.97,East,99,0.0,0.0,70,0.00,,---,0.00,VWS V14.01,2013-06-08 08:09:00,
2013-06-08 04:10:00,64.0,54.1,28.97,East,99,0.0,0.0,70,0.00,,---,0.00,VWS V14.01,2013-06-08 08:10:00,
2013-06-08 04:11:00,54.1,47.4,28.85,East,100,0.0,0.0,78,0.00,,---,0.00,VWS V14.01,2013-06-08 08:11:00,
2013-06-08 04:12:00,64.0,54.5,28.97,East,99,0.0,0.0,71,0.00,,---,0.00,VWS V14.01,2013-06-08 08:12:00,
2013-06-08 04:13:00,64.0,54.5,28.97,East,99,0.0,0.0,71,0.00,,---,0.00,VWS V14.01,2013-06-08 08:13:00,
2013-06-08 04:14:00,63.9,54.3,28.97,East,99,0.0,0.0,71,0.00,,---,0.00,VWS V14.01,2013-06-08 08:14:00,
2013-06-08 04:15:00,63.9,54.3,28.97,East,99,0.0,0.0,71,0.00,,---,0.00,VWS V14.01,2013-06-08 08:15:00,
2013-06-08 04:16:00,54.1,47.8,28.85,East,100,0.0,0.0,79,0.00,,---,0.00,VWS V14.01,2013-06-08 08:16:00,
2013-06-08 04:17:00,63.9,54.3,28.97,East,99,0.0,0.0,71,0.00,,---,0.00,VWS V14.01,2013-06-08 08:17:00,
2013-06-08 04:18:00,63.7,54.1,28.97,East,99,0.0,0.0,71,0.00,,---,0.00,VWS V14.01,2013-06-08 08:18:00,
2013-06-08 04:19:00,63.7,54.1,28.97,East,99,0.0,0.0,71,0.00,,---,0.00,VWS V14.01,2013-06-08 08:19:00,
2013-06-08 04:20:00,63.5,53.9,28.97,East,99,0.0,0.0,71,0.00,,---,0.00,VWS V14.01,2013-06-08 08:20:00,
2013-06-08 04:21:00,54.1,47.8,28.85,East,100,0.0,0.0,79,0.00,,---,0.00,VWS V14.01,2013-06-08 08:21:00,
2013-06-08 04:22:00,63.5,53.9,28.97,East,99,0.0,0.0,71,0.00,,---,0.00,VWS V14.01,2013-06-08 08:22:00,
2013-06-08 04:23:00,63.5,53.9,28.97,East,99,0.0,0.0,71,0.00,,---,0.00,VWS V14.01,2013-06-08 08:23:00,
2013-06-08 04:24:00,63.3,53.8,28.97,East,99,0.0,0.0,71,0.00,,---,0.00,VWS V14.01,2013-06-08 08:24:00,
2013-06-08 04:25:00,63.3,53.8,28.97,East,99,0.0,0.0,71,0.00,,---,0.00,VWS V14.01,2013-06-08 08:25:00,
2013-06-08 04:26:00,54.3,48.0,28.85,East,100,0.0,0.0,79,0.00,,---,0.00,VWS V14.01,2013-06-08 08:26:00,
2013-06-08 04:27:00,63.3,54.2,28.97,East,99,0.0,0.0,72,0.00,,---,0.00,VWS V14.01,2013-06-08 08:27:00,
2013-06-08 04:28:00,63.3,54.2,28.97,East,99,0.0,0.0,72,0.00,,---,0.00,VWS V14.01,2013-06-08 08:28:00,
2013-06-08 04:29:00,63.3,54.2,28.97,East,99,0.0,0.0,72,0.00,,---,0.00,VWS V14.01,2013-06-08 08:29:00,
2013-06-08 04:30:00,63.3,54.2,28.97,East,99,0.0,0.0,72,0.00,,---,0.00,VWS V14.01,2013-06-08 08:30:00,
2013-06-08 04:31:00,54.3,48.3,28.88,East,100,0.0,0.0,80,0.00,,---,0.00,VWS V14.01,2013-06-08 08:31:00,
2013-06-08 04:32:00,63.3,54.2,28.97,East,99,0.0,0.0,72,0.00,,---,0.00,VWS V14.01,2013-06-08 08:32:00,
2013-06-08 04:33:00,63.3,54.2,28.97,East,99,0.0,0.0,72,0.00,,---,0.00,VWS V14.01,2013-06-08 08:33:00,
2013-06-08 04:34:00,63.3,54.2,28.97,East,99,0.0,0.0,72,0.00,,---,0.00,VWS V14.01,2013-06-08 08:34:00,
2013-06-08 04:35:00,63.3,54.5,28.97,East,99,0.0,0.0,73,0.00,,---,0.00,VWS V14.01,2013-06-08 08:35:00,
2013-06-08 04:36:00,54.5,48.5,28.88,East,100,0.0,0.0,80,0.00,,---,0.00,VWS V14.01,2013-06-08 08:36:00,
2013-06-08 04:37:00,63.3,54.5,28.97,East,99,0.0,0.0,73,0.00,,---,0.00,VWS V14.01,2013-06-08 08:37:00,
2013-06-08 04:38:00,63.5,54.7,28.97,East,99,0.0,0.0,73,0.00,,---,0.00,VWS V14.01,2013-06-08 08:38:00,
2013-06-08 04:39:00,63.5,54.7,28.97,East,99,0.0,0.0,73,0.00,,---,0.00,VWS V14.01,2013-06-08 08:39:00,
2013-06-08 04:40:00,63.5,54.7,28.97,East,99,0.0,0.0,73,0.00,,---,0.00,VWS V14.01,2013-06-08 08:40:00,
2013-06-08 04:41:00,54.5,48.5,28.88,East,100,0.0,0.0,80,0.00,,---,0.00,VWS V14.01,2013-06-08 08:41:00,
2013-06-08 04:42:00,63.5,54.7,28.97,East,99,0.0,0.0,73,0.00,,---,0.00,VWS V14.01,2013-06-08 08:42:00,
2013-06-08 04:43:00,63.5,54.7,28.97,East,99,0.0,0.0,73,0.00,,---,0.00,VWS V14.01,2013-06-08 08:43:00,
2013-06-08 04:44:00,63.5,54.7,28.97,East,99,0.0,0.0,73,0.00,,---,0.00,VWS V14.01,2013-06-08 08:44:00,
2013-06-08 04:45:00,63.5,54.7,28.97,East,99,0.0,0.0,73,0.00,,---,0.00,VWS V14.01,2013-06-08 08:45:00,
2013-06-08 04:46:00,54.7,49.0,28.88,East,100,0.0,0.0,81,0.00,,---,0.00,VWS V14.01,2013-06-08 08:46:00,
2013-06-08 04:47:00,63.5,55.1,28.97,East,99,0.0,0.0,74,0.00,,---,0.00,VWS V14.01,2013-06-08 08:47:00,
2013-06-08 04:48:00,63.7,55.2,28.97,East,99,0.0,0.0,74,0.00,,---,0.00,VWS V14.01,2013-06-08 08:48:00,
2013-06-08 04:49:00,63.7,55.2,28.97,East,99,0.0,0.0,74,0.00,,---,0.00,VWS V14.01,2013-06-08 08:49:00,
2013-06-08 04:50:00,63.7,55.6,28.97,East,99,0.0,0.0,75,0.00,,---,0.00,VWS V14.01,2013-06-08 08:50:00,
2013-06-08 04:51:00,54.7,49.0,28.88,East,100,0.0,0.0,81,0.00,,---,0.00,VWS V14.01,2013-06-08 08:51:00,
2013-06-08 04:52:00,63.7,55.6,28.97,East,99,0.0,0.0,75,0.00,,---,0.00,VWS V14.01,2013-06-08 08:52:00,
2013-06-08 04:53:00,63.7,55.6,28.97,East,99,0.0,0.0,75,0.00,,---,0.00,VWS V14.01,2013-06-08 08:53:00,
2013-06-08 04:54:00,63.7,55.6,28.97,East,99,0.0,0.0,75,0.00,,---,0.00,VWS V14.01,2013-06-08 08:54:00,
2013-06-08 04:55:00,63.9,55.8,28.97,East,99,0.0,0.0,75,0.00,,---,0.00,VWS V14.01,2013-06-08 08:55:00,
2013-06-08 04:56:00,54.5,48.8,28.88,East,100,0.0,0.0,81,0.00,,---,0.00,VWS V14.01,2013-06-08 08:56:00,
2013-06-08 04:57:00,63.9,56.2,28.97,East,99,0.0,3.1,76,0.00,,---,0.00,VWS V14.01,2013-06-08 08:57:00,
2013-06-08 04:58:00,63.9,56.2,28.97,East,99,0.0,0.0,76,0.00,,---,0.00,VWS V14.01,2013-06-08 08:58:00,
2013-06-08 04:59:00,63.9,56.2,28.97,East,99,0.0,0.0,76,0.00,,---,0.00,VWS V14.01,2013-06-08 08:59:00,
2013-06-08 05:00:00,63.9,56.2,28.97,East,99,0.0,0.0,76,0.00,,---,0.00,VWS V14.01,2013-06-08 09:00:00,
2013-06-08 05:01:00,54.3,49.0,28.88,East,100,0.0,0.0,82,0.00,,---,0.00,VWS V14.01,2013-06-08 09:01:00,
2013-06-08 05:02:00,63.9,56.2,28.97,East,99,0.0,0.0,76,0.00,,---,0.00,VWS V14.01,2013-06-08 09:02:00,
2013-06-08 05:03:00,64.0,56.3,28.97,East,99,0.0,0.0,76,0.00,,---,0.00,VWS V14.01,2013-06-08 09:03:00,
2013-06-08 05:04:00,64.0,56.3,28.97,East,99,0.0,0.0,76,0.00,,---,0.00,VWS V14.01,2013-06-08 09:04:00,
2013-06-08 05:05:00,64.0,56.3,28.97,East,99,0.0,0.0,76,0.00,,---,0.00,VWS V14.01,2013-06-08 09:05:00,
2013-06-08 05:06:00,54.3,49.0,28.88,East,100,0.0,0.0,82,0.00,,---,0.00,VWS V14.01,2013-06-08 09:06:00,
2013-06-08 05:07:00,64.0,56.3,28.97,ESE,108,0.0,2.7,76,0.00,,---,0.00,VWS V14.01,2013-06-08 09:07:00,
2013-06-08 05:08:00,64.0,56.3,28.97,ESE,108,0.0,0.0,76,0.00,,---,0.00,VWS V14.01,2013-06-08 09:08:00,
2013-06-08 05:09:00,64.0,56.3,28.97,ESE,108,0.0,0.0,76,0.00,,---,0.00,VWS V14.01,2013-06-08 09:09:00,
2013-06-08 05:10:00,64.0,56.3,28.97,ESE,108,0.0,0.0,76,0.00,,---,0.00,VWS V14.01,2013-06-08 09:10:00,
2013-06-08 05:11:00,54.5,49.1,28.88,East,100,0.0,0.0,82,0.00,,---,0.00,VWS V14.01,2013-06-08 09:11:00,
2013-06-08 05:12:00,64.0,56.3,28.97,ESE,108,0.0,0.0,76,0.00,,---,0.00,VWS V14.01,2013-06-08 09:12:00,
2013-06-08 05:13:00,64.0,56.3,28.97,ESE,108,0.0,0.0,76,0.00,,---,0.00,VWS V14.01,2013-06-08 09:13:00,
2013-06-08 05:14:00,63.9,56.2,28.97,ESE,108,0.0,0.0,76,0.00,,---,0.00,VWS V14.01,2013-06-08 09:14:00,
2013-06-08 05:15:00,63.9,56.2,28.97,ESE,108,0.0,0.0,76,0.00,,---,0.00,VWS V14.01,2013-06-08 09:15:00,
2013-06-08 05:16:00,54.7,49.3,28.88,East,100,0.0,0.0,82,0.00,,---,0.00,VWS V14.01,2013-06-08 09:16:00,
2013-06-08 05:17:00,63.9,56.2,28.97,ESE,108,0.0,0.0,76,0.00,,---,0.00,VWS V14.01,2013-06-08 09:17:00,
2013-06-08 05:18:00,63.7,56.0,28.97,ESE,108,0.0,0.0,76,0.00,,---,0.00,VWS V14.01,2013-06-08 09:18:00,
2013-06-08 05:19:00,63.7,56.0,28.97,ESE,108,0.0,0.0,76,0.00,,---,0.00,VWS V14.01,2013-06-08 09:19:00,
2013-06-08 05:20:00,63.7,55.6,28.97,ESE,108,0.0,0.0,75,0.00,,---,0.00,VWS V14.01,2013-06-08 09:20:00,
2013-06-08 05:21:00,54.9,49.5,28.88,East,100,0.0,0.0,82,0.00,,---,0.00,VWS V14.01,2013-06-08 09:21:00,
2013-06-08 05:22:00,63.5,55.4,28.97,ESE,108,0.0,0.0,75,0.00,,---,0.00,VWS V14.01,2013-06-08 09:22:00,
2013-06-08 05:23:00,63.5,55.4,28.97,ESE,108,0.0,0.0,75,0.00,,---,0.00,VWS V14.01,2013-06-08 09:23:00,
2013-06-08 05:24:00,63.5,55.8,28.97,ESE,108,0.0,0.0,76,0.00,,---,0.00,VWS V14.01,2013-06-08 09:24:00,
2013-06-08 05:25:00,63.3,55.6,28.97,ESE,108,0.0,0.0,76,0.00,,---,0.00,VWS V14.01,2013-06-08 09:25:00,
2013-06-08 05:26:00,54.9,49.5,28.88,East,100,0.0,0.0,82,0.00,,---,0.00,VWS V14.01,2013-06-08 09:26:00,
2013-06-08 05:27:00,63.3,55.6,28.97,ESE,108,0.0,0.0,76,0.00,,---,0.00,VWS V14.01,2013-06-08 09:27:00,
2013-06-08 05:28:00,63.1,55.1,28.97,ESE,108,0.0,0.0,75,0.00,,---,0.00,VWS V14.01,2013-06-08 09:28:00,
2013-06-08 05:29:00,63.1,55.1,28.97,ESE,108,0.0,0.0,75,0.00,,---,0.00,VWS V14.01,2013-06-08 09:29:00,
2013-06-08 05:30:00,63.0,54.9,28.97,ESE,108,0.0,0.0,75,0.00,,---,0.00,VWS V14.01,2013-06-08 09:30:00,
2013-06-08 05:31:00,55.0,50.0,28.88,ESE,103,0.0,0.0,83,0.00,,---,0.00,VWS V14.01,2013-06-08 09:31:00,
2013-06-08 05:32:00,62.8,54.8,28.97,ESE,108,0.0,0.0,75,0.00,,---,0.00,VWS V14.01,2013-06-08 09:32:00,
2013-06-08 05:33:00,62.8,54.8,28.97,ESE,108,0.0,0.0,75,0.00,,---,0.00,VWS V14.01,2013-06-08 09:33:00,
2013-06-08 05:34:00,62.6,54.6,28.97,ESE,108,0.0,0.0,75,0.00,,---,0.00,VWS V14.01,2013-06-08 09:34:00,
2013-06-08 05:35:00,62.6,54.6,28.97,ESE,108,0.0,0.0,75,0.00,,---,0.00,VWS V14.01,2013-06-08 09:35:00,
2013-06-08 05:36:00,55.2,50.2,28.88,ESE,103,0.0,0.0,83,0.00,,---,0.00,VWS V14.01,2013-06-08 09:36:00,
2013-06-08 05:37:00,62.4,54.4,28.97,ESE,108,0.0,0.0,75,0.00,,---,0.00,VWS V14.01,2013-06-08 09:37:00,
2013-06-08 05:38:00,62.4,54.4,28.97,ESE,108,0.0,0.0,75,0.00,,---,0.00,VWS V14.01,2013-06-08 09:38:00,
2013-06-08 05:39:00,62.2,54.2,28.97,ESE,108,0.0,0.0,75,0.00,,---,0.00,VWS V14.01,2013-06-08 09:39:00,
2013-06-08 05:40:00,62.2,54.2,28.97,ESE,108,0.0,0.0,75,0.00,,---,0.00,VWS V14.01,2013-06-08 09:40:00,
2013-06-08 05:41:00,55.2,50.2,28.88,ESE,103,0.0,0.0,83,0.00,,---,0.00,VWS V14.01,2013-06-08 09:41:00,
2013-06-08 05:42:00,62.1,54.0,28.97,ESE,108,0.0,0.0,75,0.00,,---,0.00,VWS V14.01,2013-06-08 09:42:00,
2013-06-08 05:43:00,62.1,54.0,28.97,ESE,108,0.0,0.0,75,0.00,,---,0.00,VWS V14.01,2013-06-08 09:43:00,
2013-06-08 05:44:00,62.1,54.0,28.97,ESE,108,0.0,0.0,75,0.00,,---,0.00,VWS V14.01,2013-06-08 09:44:00,
2013-06-08 05:45:00,62.1,54.0,28.97,ESE,108,0.0,0.0,75,0.00,,---,0.00,VWS V14.01,2013-06-08 09:45:00,
2013-06-08 05:46:00,55.4,50.3,28.88,ESE,103,0.0,0.0,83,0.00,,---,0.00,VWS V14.01,2013-06-08 09:46:00,
2013-06-08 05:47:00,62.1,54.4,28.97,ESE,108,0.0,0.0,76,0.00,,---,0.00,VWS V14.01,2013-06-08 09:47:00,
2013-06-08 05:48:00,62.1,54.4,28.97,ESE,108,0.0,0.0,76,0.00,,---,0.00,VWS V14.01,2013-06-08 09:48:00,
2013-06-08 05:49:00,62.1,54.4,28.97,ESE,108,0.0,0.0,76,0.00,,---,0.00,VWS V14.01,2013-06-08 09:49:00,
2013-06-08 05:50:00,62.1,54.8,28.97,ESE,108,0.0,0.0,77,0.00,,---,0.00,VWS V14.01,2013-06-08 09:50:00,
2013-06-08 05:51:00,55.6,50.8,28.88,ESE,103,0.0,0.0,84,0.00,,---,0.00,VWS V14.01,2013-06-08 09:51:00,
2013-06-08 05:52:00,62.1,54.8,28.97,ESE,108,0.0,0.0,77,0.00,,---,0.00,VWS V14.01,2013-06-08 09:52:00,
2013-06-08 05:53:00,61.9,54.6,28.97,ESE,108,0.0,0.0,77,0.00,,---,0.00,VWS V14.01,2013-06-08 09:53:00,
2013-06-08 05:54:00,61.9,54.6,28.97,ESE,108,0.0,0.0,77,0.00,,---,0.00,VWS V14.01,2013-06-08 09:54:00,
2013-06-08 05:55:00,61.9,54.6,28.97,ESE,108,0.0,0.0,77,0.00,,---,0.00,VWS V14.01,2013-06-08 09:55:00,
2013-06-08 05:56:00,55.8,51.0,28.88,ESE,103,0.0,0.0,84,0.00,,---,0.00,VWS V14.01,2013-06-08 09:56:00,
2013-06-08 05:57:00,61.9,54.6,29.00,ESE,108,0.0,0.0,77,0.00,,---,0.00,VWS V14.01,2013-06-08 09:57:00,
2013-06-08 05:58:00,61.9,54.6,29.00,ESE,108,0.0,0.0,77,0.00,,---,0.00,VWS V14.01,2013-06-08 09:58:00,
2013-06-08 05:59:00,61.9,54.6,29.00,ESE,108,0.0,0.0,77,0.00,,---,0.00,VWS V14.01,2013-06-08 09:59:00,
2013-06-08 06:00:00,61.9,54.6,29.00,ESE,108,0.0,0.0,77,0.00,,---,0.00,VWS V14.01,2013-06-08 10:00:00,
2013-06-08 06:01:00,55.9,51.2,28.88,ESE,103,0.0,2.7,84,0.00,,---,0.00,VWS V14.01,2013-06-08 10:01:00,
2013-06-08 06:02:00,61.9,54.6,29.00,ESE,108,0.0,0.0,77,0.00,,---,0.00,VWS V14.01,2013-06-08 10:02:00,
2013-06-08 06:03:00,61.9,54.6,29.00,ESE,108,0.0,0.0,77,0.00,,---,0.00,VWS V14.01,2013-06-08 10:03:00,
2013-06-08 06:04:00,61.9,54.6,29.00,ESE,108,0.0,0.0,77,0.00,,---,0.00,VWS V14.01,2013-06-08 10:04:00,
2013-06-08 06:05:00,61.9,54.6,29.00,ESE,108,0.0,0.0,77,0.00,,---,0.00,VWS V14.01,2013-06-08 10:05:00,
2013-06-08 06:06:00,55.9,51.2,28.88,ESE,103,0.0,0.0,84,0.00,,---,0.00,VWS V14.01,2013-06-08 10:06:00,
2013-06-08 06:07:00,61.7,54.8,29.00,ESE,108,0.0,0.0,78,0.00,,---,0.00,VWS V14.01,2013-06-08 10:07:00,
2013-06-08 06:08:00,61.7,54.8,29.00,ESE,108,0.0,0.0,78,0.00,,---,0.00,VWS V14.01,2013-06-08 10:08:00,
2013-06-08 06:09:00,61.7,54.8,29.00,ESE,108,0.0,0.0,78,0.00,,---,0.00,VWS V14.01,2013-06-08 10:09:00,
2013-06-08 06:10:00,61.9,55.0,29.00,ESE,108,0.0,0.0,78,0.00,,---,0.00,VWS V14.01,2013-06-08 10:10:00,
2013-06-08 06:11:00,55.9,50.9,28.88,ESE,103,0.0,0.0,83,0.00,,---,0.00,VWS V14.01,2013-06-08 10:11:00,
2013-06-08 06:12:00,61.9,55.0,29.00,ESE,108,0.0,0.0,78,0.00,,---,0.00,VWS V14.01,2013-06-08 10:12:00,
2013-06-08 06:13:00,61.9,55.3,29.00,ESE,108,0.0,0.0,79,0.00,,---,0.00,VWS V14.01,2013-06-08 10:13:00,
2013-06-08 06:14:00,61.9,55.3,29.00,ESE,108,0.0,0.0,79,0.00,,---,0.00,VWS V14.01,2013-06-08 10:14:00,
2013-06-08 06:15:00,61.9,55.3,29.00,ESE,108,0.0,0.0,79,0.00,,---,0.00,VWS V14.01,2013-06-08 10:15:00,
2013-06-08 06:16:00,55.8,50.7,28.91,ESE,103,0.0,0.0,83,0.00,,---,0.00,VWS V14.01,2013-06-08 10:16:00,
2013-06-08 06:17:00,62.1,55.8,29.00,ESE,108,0.0,0.0,80,0.00,,---,0.00,VWS V14.01,2013-06-08 10:17:00,
2013-06-08 06:18:00,62.2,56.0,29.00,ESE,108,0.0,0.0,80,0.00,,---,0.00,VWS V14.01,2013-06-08 10:18:00,
2013-06-08 06:19:00,62.2,56.3,29.00,ESE,108,0.0,0.0,81,0.00,,---,0.00,VWS V14.01,2013-06-08 10:19:00,
2013-06-08 06:20:00,62.2,56.3,29.00,ESE,108,0.0,0.0,81,0.00,,---,0.00,VWS V14.01,2013-06-08 10:20:00,
2013-06-08 06:21:00,55.8,50.4,28.91,ESE,111,2.7,3.6,82,0.00,,---,0.00,VWS V14.01,2013-06-08 10:21:00,
2013-06-08 06:22:00,62.4,56.9,29.00,ESE,108,0.0,0.0,82,0.00,,---,0.00,VWS V14.01,2013-06-08 10:22:00,
2013-06-08 06:23:00,62.4,56.9,29.00,ESE,108,0.0,0.0,82,0.00,,---,0.00,VWS V14.01,2013-06-08 10:23:00,
2013-06-08 06:24:00,62.6,57.0,29.00,ESE,108,2.7,4.0,82,0.00,,---,0.00,VWS V14.01,2013-06-08 10:24:00,
2013-06-08 06:25:00,62.6,57.0,29.00,ESE,108,0.0,3.1,82,0.00,,---,0.00,VWS V14.01,2013-06-08 10:25:00,
2013-06-08 06:26:00,55.8,50.7,28.91,East,79,4.0,4.0,83,0.00,,---,0.00,VWS V14.01,2013-06-08 10:26:00,
2013-06-08 06:27:00,62.8,57.5,29.00,ESE,107,2.7,3.6,83,0.00,,---,0.00,VWS V14.01,2013-06-08 10:27:00,
2013-06-08 06:28:00,63.0,57.7,29.00,ESE,103,3.6,4.0,83,0.00,,---,0.00,VWS V14.01,2013-06-08 10:28:00,
2013-06-08 06:29:00,63.0,57.7,29.00,ESE,115,3.1,4.5,83,0.00,,---,0.00,VWS V14.01,2013-06-08 10:29:00,
2013-06-08 06:30:00,63.0,57.7,29.00,East,91,3.1,4.5,83,0.00,,---,0.00,VWS V14.01,2013-06-08 10:30:00,
2013-06-08 06:31:00,55.8,50.7,28.88,East,92,0.0,4.0,83,0.00,,---,0.00,VWS V14.01,2013-06-08 10:31:00,
2013-06-08 06:32:00,63.1,57.9,29.00,SE,137,4.9,4.9,83,0.00,,---,0.00,VWS V14.01,2013-06-08 10:32:00,
2013-06-08 06:33:00,63.1,57.9,29.00,East,92,4.5,4.9,83,0.00,,---,0.00,VWS V14.01,2013-06-08 10:33:00,
2013-06-08 06:34:00,63.1,57.9,29.00,ESE,107,0.0,5.4,83,0.00,,---,0.00,VWS V14.01,2013-06-08 10:34:00,
2013-06-08 06:35:00,63.1,57.9,29.00,ESE,107,0.0,2.7,83,0.00,,---,0.00,VWS V14.01,2013-06-08 10:35:00,
2013-06-08 06:36:00,55.8,50.4,28.88,ESE,110,0.0,0.0,82,0.00,,---,0.00,VWS V14.01,2013-06-08 10:36:00,
2013-06-08 06:37:00,63.1,57.6,29.00,ESE,107,0.0,0.0,82,0.00,,---,0.00,VWS V14.01,2013-06-08 10:37:00,
2013-06-08 06:38:00,63.3,57.7,29.00,East,97,4.5,4.5,82,0.00,,---,0.00,VWS V14.01,2013-06-08 10:38:00,
2013-06-08 06:39:00,63.3,57.7,29.00,ESE,110,3.6,4.5,82,0.00,,---,0.00,VWS V14.01,2013-06-08 10:39:00,
2013-06-08 06:40:00,63.3,57.7,29.00,ESE,110,0.0,3.6,82,0.00,,---,0.00,VWS V14.01,2013-06-08 10:40:00,
2013-06-08 06:41:00,55.8,50.4,28.88,ESE,111,2.7,3.1,82,0.00,,---,0.00,VWS V14.01,2013-06-08 10:41:00,
2013-06-08 06:42:00,63.5,57.6,29.00,East,101,4.0,4.0,81,0.00,,---,0.00,VWS V14.01,2013-06-08 10:42:00,
2013-06-08 06:43:00,63.5,57.6,29.00,ESE,104,3.1,4.0,81,0.00,,---,0.00,VWS V14.01,2013-06-08 10:43:00,
2013-06-08 06:44:00,63.5,57.6,29.00,ESE,104,2.7,3.6,81,0.00,,---,0.00,VWS V14.01,2013-06-08 10:44:00,
2013-06-08 06:45:00,63.5,57.2,29.00,ESE,104,0.0,3.6,80,0.00,,---,0.00,VWS V14.01,2013-06-08 10:45:00,
2013-06-08 06:46:00,55.8,50.4,28.91,ESE,113,0.0,3.6,82,0.00,,---,0.00,VWS V14.01,2013-06-08 10:46:00,
2013-06-08 06:47:00,63.7,57.4,29.00,ESE,104,0.0,0.0,80,0.00,,---,0.00,VWS V14.01,2013-06-08 10:47:00,
2013-06-08 06:48:00,63.7,57.4,29.00,ESE,104,3.1,3.1,80,0.00,,---,0.00,VWS V14.01,2013-06-08 10:48:00,
2013-06-08 06:49:00,63.7,57.4,29.00,SE,132,4.0,4.0,80,0.00,,---,0.00,VWS V14.01,2013-06-08 10:49:00,
2013-06-08 06:50:00,63.7,57.4,29.00,SE,129,3.1,4.5,80,0.00,,---,0.00,VWS V14.01,2013-06-08 10:50:00,
2013-06-08 06:51:00,55.8,50.4,28.91,SE,133,3.1,4.0,82,0.00,,---,0.00,VWS V14.01,2013-06-08 10:51:00,
2013-06-08 06:52:00,63.7,57.0,29.00,SE,129,2.7,3.1,79,0.00,,---,0.00,VWS V14.01,2013-06-08 10:52:00,
2013-06-08 06:53:00,63.9,57.2,29.00,ESE,112,3.6,4.5,79,0.00,,---,0.00,VWS V14.01,2013-06-08 10:53:00,
2013-06-08 06:54:00,63.9,57.2,29.00,ESE,110,4.0,4.9,79,0.00,,---,0.00,VWS V14.01,2013-06-08 10:54:00,
2013-06-08 06:55:00,63.9,57.2,29.00,ESE,110,4.0,4.9,79,0.00,,---,0.00,VWS V14.01,2013-06-08 10:55:00,
2013-06-08 06:56:00,55.8,50.4,28.91,ESE,120,3.1,4.0,82,0.00,,---,0.00,VWS V14.01,2013-06-08 10:56:00,
2013-06-08 06:57:00,63.9,57.2,29.00,ESE,112,0.0,3.6,79,0.00,,---,0.00,VWS V14.01,2013-06-08 10:57:00,
2013-06-08 06:58:00,64.0,57.0,29.00,ESE,112,0.0,0.0,78,0.00,,---,0.00,VWS V14.01,2013-06-08 10:58:00,
2013-06-08 06:59:00,64.0,57.0,29.00,ESE,112,0.0,0.0,78,0.00,,---,0.00,VWS V14.01,2013-06-08 10:59:00,
2013-06-08 07:00:00,64.0,57.0,29.00,ESE,112,0.0,0.0,78,0.00,,---,0.00,VWS V14.01,2013-06-08 11:00:00,
2013-06-08 07:01:00,55.9,50.9,28.91,East,93,0.0,3.1,83,0.00,,---,0.00,VWS V14.01,2013-06-08 11:01:00,
2013-06-08 07:02:00,64.2,57.2,29.00,ESE,117,0.0,0.0,78,0.00,,---,0.00,VWS V14.01,2013-06-08 11:02:00,
2013-06-08 07:03:00,64.2,57.2,29.00,SE,143,2.7,4.5,78,0.00,,---,0.00,VWS V14.01,2013-06-08 11:03:00,
2013-06-08 07:04:00,64.4,57.4,29.00,SE,143,0.0,3.1,78,0.00,,---,0.00,VWS V14.01,2013-06-08 11:04:00,
2013-06-08 07:05:00,64.4,57.4,29.00,SE,143,0.0,0.0,78,0.00,,---,0.00,VWS V14.01,2013-06-08 11:05:00,
2013-06-08 07:06:00,55.9,50.9,28.91,East,93,3.6,4.5,83,0.00,,---,0.00,VWS V14.01,2013-06-08 11:06:00,
2013-06-08 07:07:00,64.8,57.8,29.00,SE,140,4.9,4.9,78,0.00,,---,0.00,VWS V14.01,2013-06-08 11:07:00,
2013-06-08 07:08:00,64.8,57.4,29.00,SE,140,0.0,4.9,77,0.00,,---,0.00,VWS V14.01,2013-06-08 11:08:00,
2013-06-08 07:09:00,64.8,57.4,29.00,SE,140,0.0,0.0,77,0.00,,---,0.00,VWS V14.01,2013-06-08 11:09:00,
2013-06-08 07:10:00,64.9,57.6,29.00,SE,140,0.0,0.0,77,0.00,,---,0.00,VWS V14.01,2013-06-08 11:10:00,
2013-06-08 07:11:00,56.3,51.2,28.91,East,95,3.6,4.0,83,0.00,,---,0.00,VWS V14.01,2013-06-08 11:11:00,
2013-06-08 07:12:00,65.1,57.4,29.00,SE,136,4.0,4.9,76,0.00,,---,0.00,VWS V14.01,2013-06-08 11:12:00,
2013-06-08 07:13:00,65.1,57.0,29.00,SE,136,3.1,4.0,75,0.00,,---,0.00,VWS V14.01,2013-06-08 11:13:00,
2013-06-08 07:14:00,65.1,57.0,29.00,SE,135,4.5,4.5,75,0.00,,---,0.00,VWS V14.01,2013-06-08 11:14:00,
2013-06-08 07:15:00,65.1,56.6,29.00,SE,135,0.0,4.5,74,0.00,,---,0.00,VWS V14.01,2013-06-08 11:15:00,
2013-06-08 07:16:00,56.5,51.4,28.91,ESE,105,4.5,4.5,83,0.00,,---,0.00,VWS V14.01,2013-06-08 11:16:00,
2013-06-08 07:17:00,65.3,56.8,29.00,SE,144,4.0,5.4,74,0.00,,---,0.00,VWS V14.01,2013-06-08 11:17:00,
2013-06-08 07:18:00,65.3,56.4,29.00,SE,143,4.0,4.0,73,0.00,,---,0.00,VWS V14.01,2013-06-08 11:18:00,
2013-06-08 07:19:00,65.3,56.4,29.00,ESE,116,4.0,4.9,73,0.00,,---,0.00,VWS V14.01,2013-06-08 11:19:00,
2013-06-08 07:20:00,65.3,56.0,29.00,ESE,116,0.0,4.0,72,0.00,,---,0.00,VWS V14.01,2013-06-08 11:20:00,
2013-06-08 07:21:00,56.7,51.2,28.91,East,96,4.5,4.9,82,0.00,,---,0.00,VWS V14.01,2013-06-08 11:21:00,
2013-06-08 07:22:00,65.3,56.0,29.00,SSE,156,2.7,3.1,72,0.00,,---,0.00,VWS V14.01,2013-06-08 11:22:00,
2013-06-08 07:23:00,65.3,56.0,29.00,SSE,156,0.0,2.7,72,0.00,,---,0.00,VWS V14.01,2013-06-08 11:23:00,
2013-06-08 07:24:00,65.5,56.2,29.00,SSE,156,0.0,0.0,72,0.00,,---,0.00,VWS V14.01,2013-06-08 11:24:00,
2013-06-08 07:25:00,65.5,56.2,29.00,SSE,156,0.0,0.0,72,0.00,,---,0.00,VWS V14.01,2013-06-08 11:25:00,
2013-06-08 07:26:00,57.0,51.6,28.91,ESE,121,0.0,2.7,82,0.00,,---,0.00,VWS V14.01,2013-06-08 11:26:00,
2013-06-08 07:27:00,65.5,55.8,29.00,SSE,156,0.0,0.0,71,0.00,,---,0.00,VWS V14.01,2013-06-08 11:27:00,
2013-06-08 07:28:00,65.5,55.8,29.00,ESE,120,2.7,4.5,71,0.00,,---,0.00,VWS V14.01,2013-06-08 11:28:00,
2013-06-08 07:29:00,65.5,55.8,29.00,SE,129,0.0,3.1,71,0.00,,---,0.00,VWS V14.01,2013-06-08 11:29:00,
2013-06-08 07:30:00,65.5,55.8,29.00,SE,129,0.0,3.1,71,0.00,,---,0.00,VWS V14.01,2013-06-08 11:30:00,
2013-06-08 07:31:00,57.6,52.1,28.91,East,95,2.7,3.1,82,0.00,,---,0.00,VWS V14.01,2013-06-08 11:31:00,
2013-06-08 07:32:00,65.7,56.0,29.00,SE,143,0.0,3.1,71,0.00,,---,0.00,VWS V14.01,2013-06-08 11:32:00,
2013-06-08 07:33:00,65.7,56.0,29.00,ESE,109,0.0,4.5,71,0.00,,---,0.00,VWS V14.01,2013-06-08 11:33:00,
2013-06-08 07:34:00,65.8,56.2,29.00,ESE,109,0.0,0.0,71,0.00,,---,0.00,VWS V14.01,2013-06-08 11:34:00,
2013-06-08 07:35:00,65.8,56.2,29.00,ESE,109,0.0,0.0,71,0.00,,---,0.00,VWS V14.01,2013-06-08 11:35:00,
2013-06-08 07:36:00,57.9,52.1,28.91,ESE,102,0.0,3.6,81,0.00,,---,0.00,VWS V14.01,2013-06-08 11:36:00,
2013-06-08 07:37:00,66.0,56.4,29.00,SE,146,4.5,5.4,71,0.00,,---,0.00,VWS V14.01,2013-06-08 11:37:00,
2013-06-08 07:38:00,66.0,56.4,29.00,SE,144,4.0,5.4,71,0.00,,---,0.00,VWS V14.01,2013-06-08 11:38:00,
2013-06-08 07:39:00,66.0,56.4,29.00,East,97,3.1,4.0,71,0.00,,---,0.00,VWS V14.01,2013-06-08 11:39:00,
2013-06-08 07:40:00,66.2,56.5,29.00,East,97,0.0,3.1,71,0.00,,---,0.00,VWS V14.01,2013-06-08 11:40:00,
2013-06-08 07:41:00,58.5,52.0,28.91,SSE,149,4.9,4.9,79,0.00,,---,0.00,VWS V14.01,2013-06-08 11:41:00,
2013-06-08 07:42:00,66.2,56.1,29.00,East,97,0.0,0.0,70,0.00,,---,0.00,VWS V14.01,2013-06-08 11:42:00,
2013-06-08 07:43:00,66.4,56.3,29.00,ESE,103,0.0,0.0,70,0.00,,---,0.00,VWS V14.01,2013-06-08 11:43:00,
2013-06-08 07:44:00,66.4,56.3,29.00,SE,131,0.0,4.5,70,0.00,,---,0.00,VWS V14.01,2013-06-08 11:44:00,
2013-06-08 07:45:00,66.4,56.3,29.00,ESE,120,4.5,5.8,70,0.00,,---,0.00,VWS V14.01,2013-06-08 11:45:00,
2013-06-08 07:46:00,59.5,52.0,28.91,ESE,118,3.6,4.0,76,0.00,,---,0.00,VWS V14.01,2013-06-08 11:46:00,
2013-06-08 07:47:00,66.6,56.1,29.00,SE,128,4.5,4.5,69,0.00,,---,0.00,VWS V14.01,2013-06-08 11:47:00,
2013-06-08 07:48:00,66.6,56.1,29.00,SE,130,0.0,4.5,69,0.00,,---,0.00,VWS V14.01,2013-06-08 11:48:00,
2013-06-08 07:49:00,66.7,56.3,29.00,SE,130,0.0,2.7,69,0.00,,---,0.00,VWS V14.01,2013-06-08 11:49:00,
2013-06-08 07:50:00,66.7,56.3,29.00,ESE,120,3.6,4.5,69,0.00,,---,0.00,VWS V14.01,2013-06-08 11:50:00,
2013-06-08 07:51:00,60.4,51.4,28.91,SE,146,4.0,4.0,72,0.00,,---,0.00,VWS V14.01,2013-06-08 11:51:00,
2013-06-08 07:52:00,66.9,56.4,29.00,SE,129,0.0,3.1,69,0.00,,---,0.00,VWS V14.01,2013-06-08 11:52:00,
2013-06-08 07:53:00,66.9,56.4,29.00,SE,130,0.0,2.7,69,0.00,,---,0.00,VWS V14.01,2013-06-08 11:53:00,
2013-06-08 07:55:00,67.3,56.4,29.00,SSE,158,4.0,4.0,68,0.00,,---,0.00,VWS V14.01,2013-06-08 11:55:00,
2013-06-08 07:56:00,61.0,50.4,28.91,SE,141,0.0,0.0,68,0.00,,---,0.00,VWS V14.01,2013-06-08 11:56:00,
2013-06-08 07:57:00,67.6,56.7,29.00,SSE,149,3.6,3.6,68,0.00,,---,0.00,VWS V14.01,2013-06-08 11:57:00,
2013-06-08 07:58:00,67.8,56.5,29.00,SE,133,5.4,5.4,67,0.00,,---,0.00,VWS V14.01,2013-06-08 11:58:00,
2013-06-08 07:59:00,68.0,56.2,29.00,East,97,0.0,5.4,66,0.00,,---,0.00,VWS V14.01,2013-06-08 11:59:00,
2013-06-08 08:00:00,68.4,56.6,29.00,ESE,108,0.0,3.1,66,0.00,,---,0.00,VWS V14.01,2013-06-08 12:00:00,
2013-06-08 08:01:00,62.1,50.6,28.91,East,92,0.0,4.9,66,0.00,,---,0.00,VWS V14.01,2013-06-08 12:01:00,
2013-06-08 08:02:00,69.8,58.4,29.00,ESE,109,0.0,4.5,67,0.00,,---,0.00,VWS V14.01,2013-06-08 12:02:00,
2013-06-08 08:03:00,70.7,59.2,29.00,SE,130,4.9,4.9,67,0.00,,---,0.00,VWS V14.01,2013-06-08 12:03:00,
2013-06-08 08:04:00,71.2,58.9,29.00,SE,131,5.8,6.9,65,0.00,,---,0.00,VWS V14.01,2013-06-08 12:04:00,
2013-06-08 08:05:00,71.8,57.2,29.00,SE,131,4.5,5.8,60,0.00,,---,0.00,VWS V14.01,2013-06-08 12:05:00,
2013-06-08 08:06:00,65.7,53.6,28.91,SSE,153,0.0,3.6,65,0.00,,---,0.00,VWS V14.01,2013-06-08 12:06:00,
2013-06-08 08:07:00,72.3,54.8,29.00,SE,134,3.6,5.4,54,0.00,,---,0.00,VWS V14.01,2013-06-08 12:07:00,
2013-06-08 08:08:00,72.7,54.1,29.00,SE,137,0.0,4.0,52,0.00,,---,0.00,VWS V14.01,2013-06-08 12:08:00,
2013-06-08 08:09:00,72.7,53.5,29.00,SE,137,0.0,0.0,51,0.00,,---,0.00,VWS V14.01,2013-06-08 12:09:00,
2013-06-08 08:10:00,72.9,54.2,29.00,SE,146,0.0,0.0,52,0.00,,---,0.00,VWS V14.01,2013-06-08 12:10:00,
2013-06-08 08:11:00,64.2,43.6,28.91,East,91,4.5,5.8,47,0.00,,---,0.00,VWS V14.01,2013-06-08 12:11:00,
2013-06-08 08:12:00,73.4,54.2,29.00,SE,135,4.9,4.9,51,0.00,,---,0.00,VWS V14.01,2013-06-08 12:12:00,
2013-06-08 08:13:00,73.8,52.9,29.00,SSE,153,3.6,5.4,48,0.00,,---,0.00,VWS V14.01,2013-06-08 12:13:00,
2013-06-08 08:14:00,73.6,52.1,29.00,SE,137,0.0,3.6,47,0.00,,---,0.00,VWS V14.01,2013-06-08 12:14:00,
2013-06-08 08:15:00,73.2,51.2,29.00,SE,139,0.0,0.0,46,0.00,,---,0.00,VWS V14.01,2013-06-08 12:15:00,
2013-06-08 08:16:00,67.5,47.7,28.91,South,173,4.0,4.0,49,0.00,,---,0.00,VWS V14.01,2013-06-08 12:16:00,
2013-06-08 08:17:00,73.2,51.8,29.00,SE,139,0.0,0.0,47,0.00,,---,0.00,VWS V14.01,2013-06-08 12:17:00,
2013-06-08 08:18:00,73.2,51.8,29.00,SE,140,3.1,3.1,47,0.00,,---,0.00,VWS V14.01,2013-06-08 12:18:00,
2013-06-08 08:19:00,72.9,51.5,29.00,SSE,148,0.0,4.0,47,0.00,,---,0.00,VWS V14.01,2013-06-08 12:19:00,
2013-06-08 08:20:00,72.9,51.5,29.00,SSE,150,2.7,4.5,47,0.00,,---,0.00,VWS V14.01,2013-06-08 12:20:00,
2013-06-08 08:21:00,72.5,44.8,28.91,SE,146,0.0,3.1,37,0.00,,---,0.00,VWS V14.01,2013-06-08 12:21:00,
2013-06-08 08:22:00,72.9,51.5,29.00,SE,131,3.6,4.0,47,0.00,,---,0.00,VWS V14.01,2013-06-08 12:22:00,
2013-06-08 08:23:00,72.7,51.3,29.00,SSE,150,3.6,4.9,47,0.00,,---,0.00,VWS V14.01,2013-06-08 12:23:00,
2013-06-08 08:24:00,72.5,51.2,29.00,SSE,153,0.0,4.9,47,0.00,,---,0.00,VWS V14.01,2013-06-08 12:24:00,
2013-06-08 08:25:00,72.3,51.0,29.00,SE,138,4.0,4.5,47,0.00,,---,0.00,VWS V14.01,2013-06-08 12:25:00,
2013-06-08 08:26:00,69.6,38.5,28.91,ESE,117,3.1,4.9,32,0.00,,---,0.00,VWS V14.01,2013-06-08 12:26:00,
2013-06-08 08:27:00,71.8,51.1,29.00,SE,138,0.0,3.6,48,0.00,,---,0.00,VWS V14.01,2013-06-08 12:27:00,
2013-06-08 08:28:00,71.6,51.5,29.00,SE,136,4.0,4.9,49,0.00,,---,0.00,VWS V14.01,2013-06-08 12:28:00,
2013-06-08 08:29:00,71.4,51.3,29.00,SE,130,4.0,4.9,49,0.00,,---,0.00,VWS V14.01,2013-06-08 12:29:00,
2013-06-08 08:30:00,71.2,51.1,29.00,SE,130,0.0,4.0,49,0.00,,---,0.00,VWS V14.01,2013-06-08 12:30:00,
2013-06-08 08:31:00,66.2,38.5,28.94,South,178,0.0,2.7,36,0.00,,---,0.00,VWS V14.01,2013-06-08 12:31:00,
2013-06-08 08:32:00,71.1,51.5,29.00,ESE,106,3.1,3.1,50,0.00,,---,0.00,VWS V14.01,2013-06-08 12:32:00,
2013-06-08 08:33:00,71.1,52.0,29.00,ESE,115,2.7,4.0,51,0.00,,---,0.00,VWS V14.01,2013-06-08 12:33:00,
2013-06-08 08:34:00,70.9,51.9,29.00,ESE,115,0.0,3.1,51,0.00,,---,0.00,VWS V14.01,2013-06-08 12:34:00,
2013-06-08 08:35:00,70.7,52.2,29.00,ESE,115,0.0,0.0,52,0.00,,---,0.00,VWS V14.01,2013-06-08 12:35:00,
2013-06-08 08:36:00,65.3,42.2,28.94,SSE,151,0.0,4.5,43,0.00,,---,0.00,VWS V14.01,2013-06-08 12:36:00,
2013-06-08 08:37:00,70.7,52.8,29.00,ESE,115,0.0,0.0,53,0.00,,---,0.00,VWS V14.01,2013-06-08 12:37:00,
2013-06-08 08:38:00,70.7,53.3,29.00,ESE,115,0.0,0.0,54,0.00,,---,0.00,VWS V14.01,2013-06-08 12:38:00,
2013-06-08 08:39:00,70.7,53.3,29.00,ESE,115,0.0,0.0,54,0.00,,---,0.00,VWS V14.01,2013-06-08 12:39:00,
2013-06-08 08:40:00,70.9,53.4,29.00,ESE,115,0.0,0.0,54,0.00,,---,0.00,VWS V14.01,2013-06-08 12:40:00,
2013-06-08 08:41:00,65.1,43.3,28.94,SE,130,2.7,3.6,45,0.00,,---,0.00,VWS V14.01,2013-06-08 12:41:00,
2013-06-08 08:42:00,71.1,54.6,29.00,NW,319,0.0,0.0,56,0.00,,---,0.00,VWS V14.01,2013-06-08 12:42:00,
2013-06-08 08:43:00,71.2,54.8,29.00,NW,319,0.0,0.0,56,0.00,,---,0.00,VWS V14.01,2013-06-08 12:43:00,
2013-06-08 08:44:00,71.6,55.1,29.00,NW,319,0.0,0.0,56,0.00,,---,0.00,VWS V14.01,2013-06-08 12:44:00,
2013-06-08 08:45:00,71.8,55.3,29.00,NW,320,0.0,0.0,56,0.00,,---,0.00,VWS V14.01,2013-06-08 12:45:00,
2013-06-08 08:46:00,65.7,44.3,28.91,SSE,155,4.5,6.3,46,0.00,,---,0.00,VWS V14.01,2013-06-08 12:46:00,
2013-06-08 08:47:00,71.8,55.3,29.00,WSW,256,0.0,3.1,56,0.00,,---,0.00,VWS V14.01,2013-06-08 12:47:00,
2013-06-08 08:48:00,72.0,54.9,29.00,WSW,256,0.0,0.0,55,0.00,,---,0.00,VWS V14.01,2013-06-08 12:48:00,
2013-06-08 08:49:00,72.1,55.1,29.00,WSW,257,3.1,3.1,55,0.00,,---,0.00,VWS V14.01,2013-06-08 12:49:00,
2013-06-08 08:50:00,72.1,54.1,29.00,SSW,208,0.0,3.6,53,0.00,,---,0.00,VWS V14.01,2013-06-08 12:50:00,
2013-06-08 08:51:00,66.9,44.3,28.91,SSE,158,3.6,4.9,44,0.00,,---,0.00,VWS V14.01,2013-06-08 12:51:00,
2013-06-08 08:52:00,72.3,54.2,29.00,SSW,208,0.0,0.0,53,0.00,,---,0.00,VWS V14.01,2013-06-08 12:52:00,
2013-06-08 08:53:00,72.3,53.7,29.00,SE,134,4.0,4.0,52,0.00,,---,0.00,VWS V14.01,2013-06-08 12:53:00,
2013-06-08 08:54:00,72.3,53.7,29.00,SE,135,5.4,6.3,52,0.00,,---,0.00,VWS V14.01,2013-06-08 12:54:00,
2013-06-08 08:55:00,72.3,53.2,29.00,SE,140,0.0,5.8,51,0.00,,---,0.00,VWS V14.01,2013-06-08 12:55:00,
2013-06-08 08:56:00,68.9,40.2,28.91,SE,128,4.0,6.3,35,0.00,,---,0.00,VWS V14.01,2013-06-08 12:56:00,
2013-06-08 08:57:00,72.1,53.0,29.00,SE,140,0.0,2.7,51,0.00,,---,0.00,VWS V14.01,2013-06-08 12:57:00,
2013-06-08 08:58:00,72.1,53.0,29.00,SE,140,0.0,0.0,51,0.00,,---,0.00,VWS V14.01,2013-06-08 12:58:00,
2013-06-08 08:59:00,72.3,53.7,29.00,SE,131,3.1,3.6,52,0.00,,---,0.00,VWS V14.01,2013-06-08 12:59:00,
2013-06-08 09:00:00,72.5,53.9,29.00,SE,134,4.0,4.9,52,0.00,,---,0.00,VWS V14.01,2013-06-08 13:00:00,
2013-06-08 09:01:00,69.3,39.7,28.94,WSW,244,2.7,4.5,34,0.00,,---,0.00,VWS V14.01,2013-06-08 13:01:00,
2013-06-08 09:02:00,72.5,53.4,29.00,SSE,158,0.0,0.0,51,0.00,,---,0.00,VWS V14.01,2013-06-08 13:02:00,
2013-06-08 09:03:00,72.5,52.8,29.00,SSE,158,0.0,0.0,50,0.00,,---,0.00,VWS V14.01,2013-06-08 13:03:00,
2013-06-08 09:04:00,72.7,53.0,29.00,SSE,158,0.0,0.0,50,0.00,,---,0.00,VWS V14.01,2013-06-08 13:04:00,
2013-06-08 09:05:00,72.7,53.5,29.00,SSE,158,0.0,0.0,51,0.00,,---,0.00,VWS V14.01,2013-06-08 13:05:00,
2013-06-08 09:06:00,69.3,39.7,28.94,SE,129,4.9,5.8,34,0.00,,---,0.00,VWS V14.01,2013-06-08 13:06:00,
2013-06-08 09:07:00,72.9,53.2,29.00,SE,125,0.0,2.7,50,0.00,,---,0.00,VWS V14.01,2013-06-08 13:07:00,
2013-06-08 09:08:00,72.9,53.2,29.00,SSE,158,3.6,5.8,50,0.00,,---,0.00,VWS V14.01,2013-06-08 13:08:00,
2013-06-08 09:09:00,72.9,52.6,29.00,SE,139,2.7,4.9,49,0.00,,---,0.00,VWS V14.01,2013-06-08 13:09:00,
2013-06-08 09:10:00,72.9,52.6,29.00,SE,139,0.0,2.7,49,0.00,,---,0.00,VWS V14.01,2013-06-08 13:10:00,
2013-06-08 09:11:00,66.7,38.2,28.94,ESE,117,3.6,5.4,35,0.00,,---,0.00,VWS V14.01,2013-06-08 13:11:00,
2013-06-08 09:12:00,73.2,53.5,29.00,ESE,108,0.0,0.0,50,0.00,,---,0.00,VWS V14.01,2013-06-08 13:12:00,
2013-06-08 09:13:00,73.4,53.7,29.00,East,94,3.6,3.6,50,0.00,,---,0.00,VWS V14.01,2013-06-08 13:13:00,
2013-06-08 09:14:00,73.6,53.8,29.00,SE,138,4.5,4.5,50,0.00,,---,0.00,VWS V14.01,2013-06-08 13:14:00,
2013-06-08 09:15:00,73.8,53.4,29.00,SE,133,3.1,4.5,49,0.00,,---,0.00,VWS V14.01,2013-06-08 13:15:00,
2013-06-08 09:16:00,66.2,41.2,28.94,SSE,151,4.0,4.5,40,0.00,,---,0.00,VWS V14.01,2013-06-08 13:16:00,
2013-06-08 09:17:00,73.9,53.0,29.00,South,179,3.6,4.5,48,0.00,,---,0.00,VWS V14.01,2013-06-08 13:17:00,
2013-06-08 09:18:00,73.9,53.0,29.00,SE,135,0.0,4.0,48,0.00,,---,0.00,VWS V14.01,2013-06-08 13:18:00,
2013-06-08 09:19:00,74.1,53.2,29.00,SE,135,3.1,4.0,48,0.00,,---,0.00,VWS V14.01,2013-06-08 13:19:00,
2013-06-08 09:20:00,74.3,53.4,29.00,SE,138,4.9,4.9,48,0.00,,---,0.00,VWS V14.01,2013-06-08 13:20:00,
2013-06-08 09:21:00,66.6,42.2,28.94,ESE,114,4.0,6.9,41,0.00,,---,0.00,VWS V14.01,2013-06-08 13:21:00,
2013-06-08 09:22:00,74.5,52.4,29.00,SSE,157,4.9,5.8,46,0.00,,---,0.00,VWS V14.01,2013-06-08 13:22:00,
2013-06-08 09:23:00,74.3,51.6,29.00,SSE,153,0.0,4.9,45,0.00,,---,0.00,VWS V14.01,2013-06-08 13:23:00,
2013-06-08 09:24:00,74.3,52.2,29.00,SSE,160,4.9,5.4,46,0.00,,---,0.00,VWS V14.01,2013-06-08 13:24:00,
2013-06-08 09:25:00,74.1,52.0,29.00,SSE,161,0.0,4.9,46,0.00,,---,0.00,VWS V14.01,2013-06-08 13:25:00,
2013-06-08 09:26:00,67.3,40.8,28.94,East,86,5.8,7.8,38,0.00,,---,0.00,VWS V14.01,2013-06-08 13:26:00,
2013-06-08 09:27:00,73.9,51.9,29.00,SE,134,6.3,6.3,46,0.00,,---,0.00,VWS V14.01,2013-06-08 13:27:00,
2013-06-08 09:28:00,73.9,51.9,29.00,SSE,154,0.0,6.3,46,0.00,,---,0.00,VWS V14.01,2013-06-08 13:28:00,
2013-06-08 09:29:00,73.9,52.5,29.00,SE,145,0.0,0.0,47,0.00,,---,0.00,VWS V14.01,2013-06-08 13:29:00,
2013-06-08 09:30:00,73.9,52.5,29.00,SE,145,0.0,0.0,47,0.00,,---,0.00,VWS V14.01,2013-06-08 13:30:00,
2013-06-08 09:31:00,68.0,40.8,28.94,ESE,111,3.1,6.3,37,0.00,,---,0.00,VWS V14.01,2013-06-08 13:31:00,
2013-06-08 09:32:00,73.9,51.9,29.00,SE,136,5.8,6.7,46,0.00,,---,0.00,VWS V14.01,2013-06-08 13:32:00,
2013-06-08 09:33:00,73.8,51.7,29.00,SE,127,3.1,5.8,46,0.00,,---,0.00,VWS V14.01,2013-06-08 13:33:00,
2013-06-08 09:34:00,73.8,51.7,29.00,East,93,4.0,5.4,46,0.00,,---,0.00,VWS V14.01,2013-06-08 13:34:00,
2013-06-08 09:35:00,73.8,52.3,29.00,ESE,111,2.7,5.4,47,0.00,,---,0.00,VWS V14.01,2013-06-08 13:35:00,
2013-06-08 09:36:00,68.0,39.3,28.94,SSE,158,0.0,3.6,35,0.00,,---,0.00,VWS V14.01,2013-06-08 13:36:00,
2013-06-08 09:37:00,73.8,52.3,29.00,SE,134,0.0,3.1,47,0.00,,---,0.00,VWS V14.01,2013-06-08 13:37:00,
2013-06-08 09:38:00,73.8,52.3,29.00,SSW,193,0.0,0.0,47,0.00,,---,0.00,VWS V14.01,2013-06-08 13:38:00,
2013-06-08 09:39:00,73.9,52.5,29.00,SE,143,0.0,2.7,47,0.00,,---,0.00,VWS V14.01,2013-06-08 13:39:00,
2013-06-08 09:40:00,73.9,52.5,29.00,SE,143,0.0,0.0,47,0.00,,---,0.00,VWS V14.01,2013-06-08 13:40:00,
2013-06-08 09:41:00,68.5,41.3,28.94,SSE,164,4.0,6.3,37,0.00,,---,0.00,VWS V14.01,2013-06-08 13:41:00,
2013-06-08 09:42:00,74.1,52.6,29.00,ESE,117,3.6,5.4,47,0.00,,---,0.00,VWS V14.01,2013-06-08 13:42:00,
2013-06-08 09:43:00,74.1,53.2,29.00,SSE,149,3.6,5.4,48,0.00,,---,0.00,VWS V14.01,2013-06-08 13:43:00,
2013-06-08 09:44:00,74.3,52.8,29.00,SE,131,4.0,4.0,47,0.00,,---,0.00,VWS V14.01,2013-06-08 13:44:00,
2013-06-08 09:45:00,74.5,53.0,29.00,SE,140,3.6,5.4,47,0.00,,---,0.00,VWS V14.01,2013-06-08 13:45:00,
2013-06-08 09:46:00,69.4,42.1,28.94,ESE,106,6.9,6.9,37,0.00,,---,0.00,VWS V14.01,2013-06-08 13:46:00,
2013-06-08 09:47:00,74.8,52.7,29.00,ESE,123,2.7,4.9,46,0.00,,---,0.00,VWS V14.01,2013-06-08 13:47:00,
2013-06-08 09:48:00,75.0,52.9,29.00,SE,144,0.0,3.6,46,0.00,,---,0.00,VWS V14.01,2013-06-08 13:48:00,
2013-06-08 09:49:00,75.2,53.0,29.00,ESE,117,4.9,4.9,46,0.00,,---,0.00,VWS V14.01,2013-06-08 13:49:00,
2013-06-08 09:50:00,75.4,52.6,29.00,ESE,113,3.6,5.4,45,0.00,,---,0.00,VWS V14.01,2013-06-08 13:50:00,
2013-06-08 09:51:00,69.6,39.3,28.94,SE,146,6.7,6.7,33,0.00,,---,0.00,VWS V14.01,2013-06-08 13:51:00,
2013-06-08 09:52:00,75.7,52.9,29.00,SE,145,4.5,4.9,45,0.00,,---,0.00,VWS V14.01,2013-06-08 13:52:00,
2013-06-08 09:53:00,75.7,52.9,29.00,East,99,4.5,4.9,45,0.00,,---,0.00,VWS V14.01,2013-06-08 13:53:00,
2013-06-08 09:54:00,75.6,52.1,29.00,SE,130,3.6,4.5,44,0.00,,---,0.00,VWS V14.01,2013-06-08 13:54:00,
2013-06-08 09:55:00,75.4,51.3,29.00,ENE,69,3.6,4.0,43,0.00,,---,0.00,VWS V14.01,2013-06-08 13:55:00,
2013-06-08 09:56:00,68.9,38.6,28.94,East,101,4.0,5.4,33,0.00,,---,0.00,VWS V14.01,2013-06-08 13:56:00,
2013-06-08 09:57:00,75.4,52.0,29.00,SE,138,3.1,4.9,44,0.00,,---,0.00,VWS V14.01,2013-06-08 13:57:00,
2013-06-08 09:58:00,75.2,51.8,29.00,SE,138,0.0,3.1,44,0.00,,---,0.00,VWS V14.01,2013-06-08 13:58:00,
2013-06-08 09:59:00,75.2,51.8,29.00,SE,136,0.0,2.7,44,0.00,,---,0.00,VWS V14.01,2013-06-08 13:59:00,
2013-06-08 10:00:00,75.2,51.8,29.00,SE,139,0.0,4.5,44,0.00,,---,0.00,VWS V14.01,2013-06-08 14:00:00,
2013-06-08 10:01:00,75.0,51.7,29.00,SE,146,4.9,4.9,44,0.00,,---,0.00,VWS V14.01,2013-06-08 14:01:00,
2013-06-08 10:02:00,69.8,38.6,28.94,SE,131,0.0,5.8,32,0.00,,---,0.00,VWS V14.01,2013-06-08 14:02:00,
2013-06-08 10:03:00,74.8,50.9,29.00,SSE,151,3.6,3.6,43,0.00,,---,0.00,VWS V14.01,2013-06-08 14:03:00,
2013-06-08 10:04:00,74.8,50.9,29.00,SE,135,3.1,4.5,43,0.00,,---,0.00,VWS V14.01,2013-06-08 14:04:00,
2013-06-08 10:05:00,74.8,51.5,29.00,WSW,250,0.0,3.1,44,0.00,,---,0.00,VWS V14.01,2013-06-08 14:05:00,
2013-06-08 10:06:00,74.8,51.5,29.00,WSW,250,0.0,0.0,44,0.00,,---,0.00,VWS V14.01,2013-06-08 14:06:00,
2013-06-08 10:07:00,70.3,39.1,28.94,SE,138,4.9,6.9,32,0.00,,---,0.00,VWS V14.01,2013-06-08 14:07:00,
2013-06-08 10:08:00,75.2,52.4,29.00,ESE,123,0.0,3.1,45,0.00,,---,0.00,VWS V14.01,2013-06-08 14:08:00,
2013-06-08 10:09:00,75.4,52.6,29.00,SE,131,3.1,4.9,45,0.00,,---,0.00,VWS V14.01,2013-06-08 14:09:00,
2013-06-08 10:10:00,75.4,52.6,29.00,ESE,104,2.7,4.0,45,0.00,,---,0.00,VWS V14.01,2013-06-08 14:10:00,
2013-06-08 10:11:00,75.4,52.6,29.00,SE,128,0.0,3.1,45,0.00,,---,0.00,VWS V14.01,2013-06-08 14:11:00,
2013-06-08 10:12:00,70.0,37.2,28.94,ESE,115,3.6,6.9,30,0.00,,---,0.00,VWS V14.01,2013-06-08 14:12:00,
2013-06-08 10:13:00,75.6,52.8,28.97,SE,139,4.5,4.5,45,0.00,,---,0.00,VWS V14.01,2013-06-08 14:13:00,
2013-06-08 10:14:00,75.7,52.3,28.97,ESE,115,3.6,4.9,44,0.00,,---,0.00,VWS V14.01,2013-06-08 14:14:00,
2013-06-08 10:15:00,75.7,52.3,28.97,SE,145,3.1,4.5,44,0.00,,---,0.00,VWS V14.01,2013-06-08 14:15:00,
2013-06-08 10:16:00,75.9,52.5,28.97,SE,131,3.6,4.0,44,0.00,,---,0.00,VWS V14.01,2013-06-08 14:16:00,
2013-06-08 10:17:00,70.5,37.6,28.94,East,101,6.3,6.3,30,0.00,,---,0.00,VWS V14.01,2013-06-08 14:17:00,
2013-06-08 10:18:00,75.9,51.8,28.97,SE,138,3.1,4.5,43,0.00,,---,0.00,VWS V14.01,2013-06-08 14:18:00,
2013-06-08 10:19:00,75.9,51.2,28.97,ESE,108,0.0,3.1,42,0.00,,---,0.00,VWS V14.01,2013-06-08 14:19:00,
2013-06-08 10:20:00,75.9,51.8,28.97,ESE,107,3.6,3.6,43,0.00,,---,0.00,VWS V14.01,2013-06-08 14:20:00,
2013-06-08 10:21:00,76.1,51.4,28.97,East,101,3.1,4.9,42,0.00,,---,0.00,VWS V14.01,2013-06-08 14:21:00,
2013-06-08 10:22:00,76.3,52.2,28.97,SE,140,4.9,4.9,43,0.00,,---,0.00,VWS V14.01,2013-06-08 14:22:00,
2013-06-08 10:23:00,71.2,35.6,28.94,ESE,117,0.0,5.4,27,0.00,,---,0.00,VWS V14.01,2013-06-08 14:23:00,
2013-06-08 10:24:00,76.6,51.8,28.97,SE,141,0.0,2.7,42,0.00,,---,0.00,VWS V14.01,2013-06-08 14:24:00,
2013-06-08 10:25:00,76.8,52.0,28.97,SSE,159,3.6,4.0,42,0.00,,---,0.00,VWS V14.01,2013-06-08 14:25:00,
2013-06-08 10:26:00,77.2,52.3,28.97,SSE,162,0.0,3.6,42,0.00,,---,0.00,VWS V14.01,2013-06-08 14:26:00,
2013-06-08 10:27:00,77.4,51.8,28.97,SSE,152,3.1,3.6,41,0.00,,---,0.00,VWS V14.01,2013-06-08 14:27:00,
2013-06-08 10:28:00,72.7,34.9,28.94,East,87,5.4,5.4,25,0.00,,---,0.00,VWS V14.01,2013-06-08 14:28:00,
2013-06-08 10:29:00,78.3,52.0,28.97,East,100,4.9,6.3,40,0.00,,---,0.00,VWS V14.01,2013-06-08 14:29:00,
2013-06-08 10:30:00,78.6,52.3,28.97,ESE,108,3.1,5.4,40,0.00,,---,0.00,VWS V14.01,2013-06-08 14:30:00,
2013-06-08 10:31:00,78.8,52.5,28.97,ESE,105,0.0,3.1,40,0.00,,---,0.00,VWS V14.01,2013-06-08 14:31:00,
2013-06-08 10:32:00,79.2,52.8,28.97,ESE,105,0.0,0.0,40,0.00,,---,0.00,VWS V14.01,2013-06-08 14:32:00,
2013-06-08 10:33:00,75.0,35.8,28.94,SE,124,2.7,4.0,24,0.00,,---,0.00,VWS V14.01,2013-06-08 14:33:00,
2013-06-08 10:34:00,79.7,51.9,28.97,ESE,105,0.0,0.0,38,0.00,,---,0.00,VWS V14.01,2013-06-08 14:34:00,
2013-06-08 10:35:00,79.9,49.0,28.97,South,190,0.0,0.0,34,0.00,,---,0.00,VWS V14.01,2013-06-08 14:35:00,
2013-06-08 10:36:00,80.2,48.5,28.97,SW,223,2.7,2.7,33,0.00,,---,0.00,VWS V14.01,2013-06-08 14:36:00,
2013-06-08 10:37:00,80.2,47.7,28.97,WSW,241,3.6,4.5,32,0.00,,---,0.00,VWS V14.01,2013-06-08 14:37:00,
2013-06-08 10:38:00,75.4,33.9,28.94,WSW,254,0.0,3.1,22,0.00,,---,0.00,VWS V14.01,2013-06-08 14:38:00,
2013-06-08 10:39:00,80.8,48.2,28.97,SE,126,3.1,4.5,32,0.00,,---,0.00,VWS V14.01,2013-06-08 14:39:00,
2013-06-08 10:40:00,80.8,48.2,28.97,SE,138,0.0,4.0,32,0.00,,---,0.00,VWS V14.01,2013-06-08 14:40:00,
2013-06-08 10:41:00,80.6,48.0,28.97,SSE,147,4.5,4.5,32,0.00,,---,0.00,VWS V14.01,2013-06-08 14:41:00,
2013-06-08 10:42:00,80.2,46.9,28.97,SE,144,3.6,4.5,31,0.00,,---,0.00,VWS V14.01,2013-06-08 14:42:00,
2013-06-08 10:43:00,74.7,33.3,28.94,SSE,154,3.1,4.0,22,0.00,,---,0.00,VWS V14.01,2013-06-08 14:43:00,
2013-06-08 10:44:00,80.2,47.7,28.97,WSW,239,2.7,3.6,32,0.00,,---,0.00,VWS V14.01,2013-06-08 14:44:00,
2013-06-08 10:45:00,80.2,47.7,28.97,SW,226,4.5,4.5,32,0.00,,---,0.00,VWS V14.01,2013-06-08 14:45:00,
2013-06-08 10:46:00,80.2,47.7,28.97,SW,229,3.1,4.5,32,0.00,,---,0.00,VWS V14.01,2013-06-08 14:46:00,
2013-06-08 10:47:00,80.4,48.7,28.97,WSW,246,0.0,4.5,33,0.00,,---,0.00,VWS V14.01,2013-06-08 14:47:00,
2013-06-08 10:48:00,75.4,33.9,28.94,ESE,112,0.0,6.9,22,0.00,,---,0.00,VWS V14.01,2013-06-08 14:48:00,
2013-06-08 10:49:00,80.8,49.0,28.97,South,180,4.0,4.0,33,0.00,,---,0.00,VWS V14.01,2013-06-08 14:49:00,
2013-06-08 10:50:00,81.1,49.3,28.97,WSW,258,3.1,4.5,33,0.00,,---,0.00,VWS V14.01,2013-06-08 14:50:00,
2013-06-08 10:51:00,80.8,47.4,28.97,NNW,329,0.0,4.0,31,0.00,,---,0.00,VWS V14.01,2013-06-08 14:51:00,
2013-06-08 10:52:00,81.1,48.5,28.97,SE,127,4.9,4.9,32,0.00,,---,0.00,VWS V14.01,2013-06-08 14:52:00,
2013-06-08 10:53:00,75.2,32.6,28.94,SSE,157,3.6,6.9,21,0.00,,---,0.00,VWS V14.01,2013-06-08 14:53:00,
2013-06-08 10:54:00,81.1,47.7,28.97,ESE,120,0.0,2.7,31,0.00,,---,0.00,VWS V14.01,2013-06-08 14:54:00,
2013-06-08 10:55:00,81.3,47.8,28.97,SE,135,4.9,5.8,31,0.00,,---,0.00,VWS V14.01,2013-06-08 14:55:00,
2013-06-08 10:56:00,81.1,46.8,28.97,SE,143,3.6,6.3,30,0.00,,---,0.00,VWS V14.01,2013-06-08 14:56:00,
2013-06-08 10:57:00,81.0,46.6,28.97,SE,143,0.0,4.0,30,0.00,,---,0.00,VWS V14.01,2013-06-08 14:57:00,
2013-06-08 10:58:00,74.3,33.0,28.94,ENE,71,0.0,3.1,22,0.00,,---,0.00,VWS V14.01,2013-06-08 14:58:00,
2013-06-08 10:59:00,81.0,46.6,28.97,ESE,121,3.1,4.0,30,0.00,,---,0.00,VWS V14.01,2013-06-08 14:59:00,
2013-06-08 11:00:00,81.0,46.6,28.97,East,94,3.6,4.5,30,0.00,,---,0.00,VWS V14.01,2013-06-08 15:00:00,
2013-06-08 11:01:00,81.3,47.8,28.97,SSE,153,0.0,4.0,31,0.00,,---,0.00,VWS V14.01,2013-06-08 15:01:00,
2013-06-08 11:02:00,81.5,47.1,28.97,SSE,150,3.6,3.6,30,0.00,,---,0.00,VWS V14.01,2013-06-08 15:02:00,
2013-06-08 11:03:00,74.7,33.3,28.94,SE,128,3.6,4.9,22,0.00,,---,0.00,VWS V14.01,2013-06-08 15:03:00,
2013-06-08 11:04:00,81.7,46.4,28.97,SE,134,0.0,5.4,29,0.00,,---,0.00,VWS V14.01,2013-06-08 15:04:00,
2013-06-08 11:05:00,82.0,46.7,28.97,SE,124,0.0,0.0,29,0.00,,---,0.00,VWS V14.01,2013-06-08 15:05:00,
2013-06-08 11:06:00,82.4,47.9,28.97,SE,141,3.1,5.4,30,0.00,,---,0.00,VWS V14.01,2013-06-08 15:06:00,
2013-06-08 11:07:00,82.6,46.2,28.97,South,170,0.0,4.9,28,0.00,,---,0.00,VWS V14.01,2013-06-08 15:07:00,
2013-06-08 11:08:00,74.8,32.3,28.94,South,174,2.7,5.4,21,0.00,,---,0.00,VWS V14.01,2013-06-08 15:08:00,
2013-06-08 11:09:00,82.9,45.6,28.97,WNW,298,0.0,3.1,27,0.00,,---,0.00,VWS V14.01,2013-06-08 15:09:00,
2013-06-08 11:10:00,82.9,44.6,28.97,West,279,5.8,6.3,26,0.00,,---,0.00,VWS V14.01,2013-06-08 15:10:00,
2013-06-08 11:11:00,82.8,45.4,28.97,SW,226,2.7,5.8,27,0.00,,---,0.00,VWS V14.01,2013-06-08 15:11:00,
2013-06-08 11:12:00,82.2,44.0,28.97,WNW,300,4.5,6.7,26,0.00,,---,0.00,VWS V14.01,2013-06-08 15:12:00,
2013-06-08 11:13:00,75.6,34.1,28.94,SE,130,4.5,4.5,22,0.00,,---,0.00,VWS V14.01,2013-06-08 15:13:00,
2013-06-08 11:14:00,81.5,46.2,28.97,WNW,295,0.0,6.7,29,0.00,,---,0.00,VWS V14.01,2013-06-08 15:14:00,
2013-06-08 11:15:00,81.7,46.4,28.97,SE,133,0.0,4.0,29,0.00,,---,0.00,VWS V14.01,2013-06-08 15:15:00,
2013-06-08 11:16:00,82.2,46.8,28.97,ESE,109,3.6,4.9,29,0.00,,---,0.00,VWS V14.01,2013-06-08 15:16:00,
2013-06-08 11:17:00,82.6,47.1,28.97,SE,144,6.3,6.3,29,0.00,,---,0.00,VWS V14.01,2013-06-08 15:17:00,
2013-06-08 11:18:00,76.5,33.7,28.94,SE,142,5.8,6.9,21,0.00,,---,0.00,VWS V14.01,2013-06-08 15:18:00,
2013-06-08 11:19:00,82.8,44.4,28.97,SE,138,5.4,5.4,26,0.00,,---,0.00,VWS V14.01,2013-06-08 15:19:00,
2013-06-08 11:20:00,82.8,44.4,28.97,SSE,162,2.7,6.7,26,0.00,,---,0.00,VWS V14.01,2013-06-08 15:20:00,
2013-06-08 11:21:00,82.9,45.6,28.97,SE,127,3.1,4.0,27,0.00,,---,0.00,VWS V14.01,2013-06-08 15:21:00,
2013-06-08 11:22:00,83.1,44.7,28.97,SE,142,4.9,5.4,26,0.00,,---,0.00,VWS V14.01,2013-06-08 15:22:00,
2013-06-08 11:23:00,76.5,33.7,28.94,SSW,211,0.0,4.5,21,0.00,,---,0.00,VWS V14.01,2013-06-08 15:23:00,
2013-06-08 11:24:00,83.3,42.8,28.97,WSW,242,2.7,4.0,24,0.00,,---,0.00,VWS V14.01,2013-06-08 15:24:00,
2013-06-08 11:25:00,83.5,44.0,28.97,WSW,241,0.0,2.7,25,0.00,,---,0.00,VWS V14.01,2013-06-08 15:25:00,
2013-06-08 11:26:00,83.8,44.3,28.97,ENE,71,3.6,3.6,25,0.00,,---,0.00,VWS V14.01,2013-06-08 15:26:00,
2013-06-08 11:27:00,84.0,46.5,28.97,SE,124,0.0,3.6,27,0.00,,---,0.00,VWS V14.01,2013-06-08 15:27:00,
2013-06-08 11:28:00,77.2,33.0,28.94,SE,137,6.9,7.8,20,0.00,,---,0.00,VWS V14.01,2013-06-08 15:28:00,
2013-06-08 11:29:00,84.0,42.3,28.97,WNW,286,5.4,8.3,23,0.00,,---,0.00,VWS V14.01,2013-06-08 15:29:00,
2013-06-08 11:30:00,83.1,41.5,28.97,WSW,255,2.7,9.6,23,0.00,,---,0.00,VWS V14.01,2013-06-08 15:30:00,
2013-06-08 11:31:00,83.7,43.1,28.97,SSE,153,0.0,3.6,24,0.00,,---,0.00,VWS V14.01,2013-06-08 15:31:00,
2013-06-08 11:32:00,83.5,41.8,28.97,West,274,3.1,3.6,23,0.00,,---,0.00,VWS V14.01,2013-06-08 15:32:00,
2013-06-08 11:33:00,77.7,33.5,28.94,SSE,161,2.7,5.4,20,0.00,,---,0.00,VWS V14.01,2013-06-08 15:33:00,
2013-06-08 11:34:00,83.1,41.5,28.97,WNW,288,4.9,5.8,23,0.00,,---,0.00,VWS V14.01,2013-06-08 15:34:00,
2013-06-08 11:35:00,82.8,41.2,28.97,South,178,7.4,7.4,23,0.00,,---,0.00,VWS V14.01,2013-06-08 15:35:00,
2013-06-08 11:36:00,82.8,42.3,28.97,WNW,302,4.5,7.4,24,0.00,,---,0.00,VWS V14.01,2013-06-08 15:36:00,
2013-06-08 11:37:00,82.8,42.3,28.97,SW,226,0.0,5.8,24,0.00,,---,0.00,VWS V14.01,2013-06-08 15:37:00,
2013-06-08 11:38:00,77.7,33.5,28.94,East,98,4.0,5.8,20,0.00,,---,0.00,VWS V14.01,2013-06-08 15:38:00,
2013-06-08 11:39:00,83.8,41.0,28.97,ESE,112,0.0,3.6,22,0.00,,---,0.00,VWS V14.01,2013-06-08 15:39:00,
2013-06-08 11:40:00,83.8,41.0,28.97,SW,218,3.1,3.6,22,0.00,,---,0.00,VWS V14.01,2013-06-08 15:40:00,
2013-06-08 11:41:00,84.0,39.9,28.97,SSE,158,0.0,3.1,21,0.00,,---,0.00,VWS V14.01,2013-06-08 15:41:00,
2013-06-08 11:42:00,84.4,40.2,28.97,SSE,158,0.0,2.7,21,0.00,,---,0.00,VWS V14.01,2013-06-08 15:42:00,
2013-06-08 11:43:00,77.9,31.0,28.94,SSE,166,2.7,6.3,18,0.00,,---,0.00,VWS V14.01,2013-06-08 15:43:00,
2013-06-08 11:44:00,85.1,39.6,28.97,SW,220,3.1,3.6,20,0.00,,---,0.00,VWS V14.01,2013-06-08 15:44:00,
2013-06-08 11:45:00,85.1,39.6,28.97,SW,215,2.7,5.4,20,0.00,,---,0.00,VWS V14.01,2013-06-08 15:45:00,
2013-06-08 11:46:00,85.6,40.0,28.97,SW,235,0.0,3.1,20,0.00,,---,0.00,VWS V14.01,2013-06-08 15:46:00,
2013-06-08 11:47:00,85.6,38.7,28.97,SW,227,3.6,4.0,19,0.00,,---,0.00,VWS V14.01,2013-06-08 15:47:00,
2013-06-08 11:48:00,77.9,29.6,28.94,WSW,250,2.7,4.5,17,0.00,,---,0.00,VWS V14.01,2013-06-08 15:48:00,
2013-06-08 11:49:00,86.2,39.1,28.97,West,277,2.7,4.9,19,0.00,,---,0.00,VWS V14.01,2013-06-08 15:49:00,
2013-06-08 11:50:00,86.4,39.3,28.97,East,89,0.0,3.1,19,0.00,,---,0.00,VWS V14.01,2013-06-08 15:50:00,
2013-06-08 11:51:00,86.9,39.7,28.97,SE,138,4.0,4.9,19,0.00,,---,0.00,VWS V14.01,2013-06-08 15:51:00,
2013-06-08 11:52:00,87.1,38.5,28.97,NE,47,2.7,8.7,18,0.00,,---,0.00,VWS V14.01,2013-06-08 15:52:00,
2013-06-08 11:53:00,77.5,30.7,28.94,ESE,118,5.4,5.4,18,0.00,,---,0.00,VWS V14.01,2013-06-08 15:53:00,
2013-06-08 11:54:00,87.1,39.9,28.97,South,180,0.0,3.6,19,0.00,,---,0.00,VWS V14.01,2013-06-08 15:54:00,
2013-06-08 11:55:00,87.1,38.5,28.97,South,181,0.0,0.0,18,0.00,,---,0.00,VWS V14.01,2013-06-08 15:55:00,
2013-06-08 11:56:00,86.9,38.3,28.97,ESE,119,0.0,3.6,18,0.00,,---,0.00,VWS V14.01,2013-06-08 15:56:00,
2013-06-08 11:57:00,86.0,37.6,28.97,SE,145,4.0,6.3,18,0.00,,---,0.00,VWS V14.01,2013-06-08 15:57:00,
2013-06-08 11:58:00,78.1,29.8,28.94,ESE,105,3.6,4.0,17,0.00,,---,0.00,VWS V14.01,2013-06-08 15:58:00,
2013-06-08 11:59:00,85.6,38.7,28.97,West,268,3.1,4.5,19,0.00,,---,0.00,VWS V14.01,2013-06-08 15:59:00,
2013-06-08 12:00:00,85.3,38.4,28.97,South,186,3.6,5.4,19,0.00,,---,0.00,VWS V14.01,2013-06-08 16:00:00,
2013-06-08 12:01:00,85.6,38.7,28.97,South,182,0.0,3.6,19,0.00,,---,0.00,VWS V14.01,2013-06-08 16:01:00,
2013-06-08 12:02:00,85.8,38.8,28.97,South,182,0.0,0.0,19,0.00,,---,0.00,VWS V14.01,2013-06-08 16:02:00,
2013-06-08 12:03:00,79.3,30.8,28.94,East,97,8.7,8.7,17,0.00,,---,0.00,VWS V14.01,2013-06-08 16:03:00,
2013-06-08 12:04:00,86.9,39.7,28.97,WSW,255,3.6,4.5,19,0.00,,---,0.00,VWS V14.01,2013-06-08 16:04:00,
2013-06-08 12:05:00,87.3,38.6,28.97,WSW,246,0.0,3.6,18,0.00,,---,0.00,VWS V14.01,2013-06-08 16:05:00,
2013-06-08 12:06:00,87.4,38.8,28.97,SSE,147,5.8,8.7,18,0.00,,---,0.00,VWS V14.01,2013-06-08 16:06:00,
2013-06-08 12:07:00,87.4,38.8,28.97,SE,138,2.7,6.3,18,0.00,,---,0.00,VWS V14.01,2013-06-08 16:07:00,
2013-06-08 12:08:00,79.2,27.6,28.94,East,101,3.1,6.7,15,0.00,,---,0.00,VWS V14.01,2013-06-08 16:08:00,
2013-06-08 12:09:00,87.3,34.0,28.97,SW,220,6.3,6.3,15,0.00,,---,0.00,VWS V14.01,2013-06-08 16:09:00,
2013-06-08 12:10:00,87.3,34.0,28.97,SE,126,4.5,6.3,15,0.00,,---,0.00,VWS V14.01,2013-06-08 16:10:00,
2013-06-08 12:11:00,87.1,33.9,28.97,South,176,0.0,8.3,15,0.00,,---,0.00,VWS V14.01,2013-06-08 16:11:00,
2013-06-08 12:12:00,87.1,33.9,28.97,ESE,113,0.0,4.0,15,0.00,,---,0.00,VWS V14.01,2013-06-08 16:12:00,
2013-06-08 12:13:00,80.1,31.4,28.94,SSE,166,0.0,4.0,17,0.00,,---,0.00,VWS V14.01,2013-06-08 16:13:00,
2013-06-08 12:14:00,87.1,33.9,28.97,SW,220,3.6,4.0,15,0.00,,---,0.00,VWS V14.01,2013-06-08 16:14:00,
2013-06-08 12:15:00,87.1,33.9,28.97,SW,224,0.0,3.6,15,0.00,,---,0.00,VWS V14.01,2013-06-08 16:15:00,
2013-06-08 12:16:00,86.9,33.7,28.97,SSE,160,2.7,3.6,15,0.00,,---,0.00,VWS V14.01,2013-06-08 16:16:00,
2013-06-08 12:17:00,86.7,35.2,28.97,WSW,243,4.9,4.9,16,0.00,,---,0.00,VWS V14.01,2013-06-08 16:17:00,
2013-06-08 12:18:00,79.0,27.4,28.94,ESE,107,6.3,7.8,15,0.00,,---,0.00,VWS V14.01,2013-06-08 16:18:00,
2013-06-08 12:19:00,86.2,34.8,28.97,WSW,251,3.1,5.8,16,0.00,,---,0.00,VWS V14.01,2013-06-08 16:19:00,
2013-06-08 12:20:00,85.6,34.3,28.97,WSW,240,0.0,5.4,16,0.00,,---,0.00,VWS V14.01,2013-06-08 16:20:00,
2013-06-08 12:21:00,85.5,34.2,28.97,SW,234,0.0,0.0,16,0.00,,---,0.00,VWS V14.01,2013-06-08 16:21:00,
2013-06-08 12:22:00,85.1,33.9,28.97,NNE,15,0.0,0.0,16,0.00,,---,0.00,VWS V14.01,2013-06-08 16:22:00,
2013-06-08 12:23:00,79.7,26.3,28.94,SE,132,4.0,4.0,14,0.00,,---,0.00,VWS V14.01,2013-06-08 16:23:00,
2013-06-08 12:24:00,84.7,36.6,28.97,ESE,110,3.6,4.5,18,0.00,,---,0.00,VWS V14.01,2013-06-08 16:24:00,
2013-06-08 12:25:00,84.4,33.3,28.97,ESE,110,0.0,3.6,16,0.00,,---,0.00,VWS V14.01,2013-06-08 16:25:00,
2013-06-08 12:26:00,84.2,33.2,28.97,SW,229,2.7,3.1,16,0.00,,---,0.00,VWS V14.01,2013-06-08 16:26:00,
2013-06-08 12:27:00,83.8,32.9,28.97,SE,132,0.0,4.0,16,0.00,,---,0.00,VWS V14.01,2013-06-08 16:27:00,
2013-06-08 12:28:00,80.6,27.0,28.94,WSW,239,4.0,6.7,14,0.00,,---,0.00,VWS V14.01,2013-06-08 16:28:00,
2013-06-08 12:29:00,83.1,32.3,28.97,South,174,0.0,4.9,16,0.00,,---,0.00,VWS V14.01,2013-06-08 16:29:00,
2013-06-08 12:30:00,82.8,32.0,28.97,SSE,160,3.6,6.3,16,0.00,,---,0.00,VWS V14.01,2013-06-08 16:30:00,
2013-06-08 12:31:00,82.6,36.2,28.97,ESE,123,0.0,3.6,19,0.00,,---,0.00,VWS V14.01,2013-06-08 16:31:00,
2013-06-08 12:32:00,82.4,36.0,28.97,SW,225,3.1,3.1,19,0.00,,---,0.00,VWS V14.01,2013-06-08 16:32:00,
2013-06-08 12:33:00,81.3,27.6,28.94,ESE,103,0.0,5.8,14,0.00,,---,0.00,VWS V14.01,2013-06-08 16:33:00,
2013-06-08 12:34:00,82.0,35.8,28.97,SSW,209,2.7,5.4,19,0.00,,---,0.00,VWS V14.01,2013-06-08 16:34:00,
2013-06-08 12:35:00,82.0,35.8,28.97,WSW,253,2.7,4.0,19,0.00,,---,0.00,VWS V14.01,2013-06-08 16:35:00,
2013-06-08 12:36:00,81.9,35.6,28.97,SE,129,4.5,4.5,19,0.00,,---,0.00,VWS V14.01,2013-06-08 16:36:00,
2013-06-08 12:37:00,81.9,35.6,28.97,SW,232,0.0,4.5,19,0.00,,---,0.00,VWS V14.01,2013-06-08 16:37:00,
2013-06-08 12:38:00,82.2,28.3,28.94,SSW,194,3.6,4.0,14,0.00,,---,0.00,VWS V14.01,2013-06-08 16:38:00,
2013-06-08 12:39:00,82.0,35.8,28.97,WSW,243,0.0,5.8,19,0.00,,---,0.00,VWS V14.01,2013-06-08 16:39:00,
2013-06-08 12:40:00,82.4,36.0,28.97,SW,214,3.1,4.9,19,0.00,,---,0.00,VWS V14.01,2013-06-08 16:40:00,
2013-06-08 12:41:00,82.8,36.3,28.97,SW,236,2.7,6.9,19,0.00,,---,0.00,VWS V14.01,2013-06-08 16:41:00,
2013-06-08 12:42:00,83.5,36.9,28.97,West,267,2.7,4.0,19,0.00,,---,0.00,VWS V14.01,2013-06-08 16:42:00,
2013-06-08 12:43:00,84.6,28.4,28.94,ENE,63,0.0,5.8,13,0.00,,---,0.00,VWS V14.01,2013-06-08 16:43:00,
2013-06-08 12:44:00,84.0,36.0,28.97,SSW,193,0.0,3.6,18,0.00,,---,0.00,VWS V14.01,2013-06-08 16:44:00,
2013-06-08 12:45:00,84.4,36.3,28.97,WSW,243,2.7,4.0,18,0.00,,---,0.00,VWS V14.01,2013-06-08 16:45:00,
2013-06-08 12:46:00,84.6,36.4,28.97,NNW,340,4.5,6.3,18,0.00,,---,0.00,VWS V14.01,2013-06-08 16:46:00,
2013-06-08 12:47:00,84.7,36.6,28.97,SSW,204,4.9,4.9,18,0.00,,---,0.00,VWS V14.01,2013-06-08 16:47:00,
2013-06-08 12:48:00,83.1,29.0,28.94,SSE,148,0.0,3.1,14,0.00,,---,0.00,VWS V14.01,2013-06-08 16:48:00,
2013-06-08 12:49:00,85.1,36.9,28.97,SE,144,0.0,3.1,18,0.00,,---,0.00,VWS V14.01,2013-06-08 16:49:00,
2013-06-08 12:50:00,85.3,37.0,28.97,WNW,290,0.0,0.0,18,0.00,,---,0.00,VWS V14.01,2013-06-08 16:50:00,
2013-06-08 12:51:00,85.6,37.3,28.97,SE,133,0.0,3.6,18,0.00,,---,0.00,VWS V14.01,2013-06-08 16:51:00,
2013-06-08 12:52:00,86.2,39.1,28.97,SW,227,0.0,2.7,19,0.00,,---,0.00,VWS V14.01,2013-06-08 16:52:00,
2013-06-08 12:53:00,81.3,27.6,28.94,SW,222,4.0,4.9,14,0.00,,---,0.00,VWS V14.01,2013-06-08 16:53:00,
2013-06-08 12:54:00,86.0,37.6,28.97,SE,137,4.9,9.2,18,0.00,,---,0.00,VWS V14.01,2013-06-08 16:54:00,
2013-06-08 12:55:00,86.5,38.0,28.97,West,276,0.0,4.9,18,0.00,,---,0.00,VWS V14.01,2013-06-08 16:55:00,
2013-06-08 12:56:00,86.7,38.2,28.97,South,181,0.0,6.3,18,0.00,,---,0.00,VWS V14.01,2013-06-08 16:56:00,
2013-06-08 12:57:00,87.3,34.0,28.97,South,190,0.0,4.9,15,0.00,,---,0.00,VWS V14.01,2013-06-08 16:57:00,
2013-06-08 12:58:00,81.9,28.0,28.94,SSE,149,4.5,6.7,14,0.00,,---,0.00,VWS V14.01,2013-06-08 16:58:00,
2013-06-08 12:59:00,87.1,33.9,28.97,West,275,6.7,6.7,15,0.00,,---,0.00,VWS V14.01,2013-06-08 16:59:00,
2013-06-08 13:00:00,87.1,33.9,28.97,SE,132,3.1,6.7,15,0.00,,---,0.00,VWS V14.01,2013-06-08 17:00:00,
2013-06-08 13:01:00,87.3,34.0,28.97,SE,134,0.0,4.5,15,0.00,,---,0.00,VWS V14.01,2013-06-08 17:01:00,
2013-06-08 13:02:00,87.3,34.0,28.97,SSE,151,0.0,4.0,15,0.00,,---,0.00,VWS V14.01,2013-06-08 17:02:00,
2013-06-08 13:03:00,82.4,28.5,28.94,SE,146,0.0,7.8,14,0.00,,---,0.00,VWS V14.01,2013-06-08 17:03:00,
2013-06-08 13:04:00,87.1,33.9,28.97,SSE,152,4.5,4.5,15,0.00,,---,0.00,VWS V14.01,2013-06-08 17:04:00,
2013-06-08 13:05:00,87.4,34.2,28.97,NW,310,0.0,4.5,15,0.00,,---,0.00,VWS V14.01,2013-06-08 17:05:00,
2013-06-08 13:06:00,87.6,34.3,28.97,South,180,3.1,3.6,15,0.00,,---,0.00,VWS V14.01,2013-06-08 17:06:00,
2013-06-08 13:07:00,88.2,34.7,28.97,WSW,250,5.4,6.7,15,0.00,,---,0.00,VWS V14.01,2013-06-08 17:07:00,
2013-06-08 13:08:00,83.1,29.0,28.94,West,271,3.6,6.3,14,0.00,,---,0.00,VWS V14.01,2013-06-08 17:08:00,
2013-06-08 13:09:00,88.7,35.2,28.97,West,281,3.6,3.6,15,0.00,,---,0.00,VWS V14.01,2013-06-08 17:09:00,
2013-06-08 13:10:00,89.1,35.5,28.97,ESE,117,0.0,6.3,15,0.00,,---,0.00,VWS V14.01,2013-06-08 17:10:00,
2013-06-08 13:11:00,89.2,35.6,28.97,SW,228,0.0,3.6,15,0.00,,---,0.00,VWS V14.01,2013-06-08 17:11:00,
2013-06-08 13:12:00,89.1,29.9,28.94,WSW,252,2.7,7.4,12,0.00,,---,0.00,VWS V14.01,2013-06-08 17:12:00,
2013-06-08 13:13:00,83.7,27.7,28.94,SSW,197,3.6,4.0,13,0.00,,---,0.00,VWS V14.01,2013-06-08 17:13:00,
2013-06-08 13:14:00,89.6,30.3,28.94,SSW,193,5.8,6.9,12,0.00,,---,0.00,VWS V14.01,2013-06-08 17:14:00,
2013-06-08 13:15:00,89.4,30.2,28.94,SSW,193,3.6,5.8,12,0.00,,---,0.00,VWS V14.01,2013-06-08 17:15:00,
2013-06-08 13:16:00,89.4,30.2,28.94,SW,223,3.6,4.0,12,0.00,,---,0.00,VWS V14.01,2013-06-08 17:16:00,
2013-06-08 13:17:00,89.2,30.0,28.94,SSE,158,4.0,5.8,12,0.00,,---,0.00,VWS V14.01,2013-06-08 17:17:00,
2013-06-08 13:18:00,83.7,27.7,28.94,SSE,149,2.7,4.9,13,0.00,,---,0.00,VWS V14.01,2013-06-08 17:18:00,
2013-06-08 13:19:00,89.2,30.0,28.94,North,351,0.0,2.7,12,0.00,,---,0.00,VWS V14.01,2013-06-08 17:19:00,
2013-06-08 13:20:00,89.6,30.3,28.94,WNW,290,0.0,4.0,12,0.00,,---,0.00,VWS V14.01,2013-06-08 17:20:00,
2013-06-08 13:21:00,89.6,30.3,28.94,WSW,253,0.0,4.5,12,0.00,,---,0.00,VWS V14.01,2013-06-08 17:21:00,
2013-06-08 13:22:00,89.8,30.5,28.94,ESE,119,0.0,3.1,12,0.00,,---,0.00,VWS V14.01,2013-06-08 17:22:00,
2013-06-08 13:23:00,84.4,28.2,28.94,SE,136,4.9,5.8,13,0.00,,---,0.00,VWS V14.01,2013-06-08 17:23:00,
2013-06-08 13:24:00,89.8,30.5,28.94,South,170,3.6,4.5,12,0.00,,---,0.00,VWS V14.01,2013-06-08 17:24:00,
2013-06-08 13:25:00,89.2,30.0,28.94,SSE,151,0.0,6.3,12,0.00,,---,0.00,VWS V14.01,2013-06-08 17:25:00,
2013-06-08 13:26:00,88.5,31.5,28.94,South,178,3.1,9.2,13,0.00,,---,0.00,VWS V14.01,2013-06-08 17:26:00,
2013-06-08 13:27:00,88.5,31.5,28.94,WSW,258,3.1,8.3,13,0.00,,---,0.00,VWS V14.01,2013-06-08 17:27:00,
2013-06-08 13:28:00,83.8,27.8,28.94,WSW,258,3.6,5.4,13,0.00,,---,0.00,VWS V14.01,2013-06-08 17:28:00,
2013-06-08 13:29:00,88.7,31.6,28.94,SE,139,4.9,4.9,13,0.00,,---,0.00,VWS V14.01,2013-06-08 17:29:00,
2013-06-08 13:30:00,89.1,29.9,28.94,SE,142,3.1,5.8,12,0.00,,---,0.00,VWS V14.01,2013-06-08 17:30:00,
2013-06-08 13:31:00,88.9,29.8,28.94,WNW,283,3.1,4.9,12,0.00,,---,0.00,VWS V14.01,2013-06-08 17:31:00,
2013-06-08 13:32:00,88.7,31.6,28.94,SW,233,6.3,6.7,13,0.00,,---,0.00,VWS V14.01,2013-06-08 17:32:00,
2013-06-08 13:33:00,84.4,28.2,28.94,NNE,33,4.0,5.4,13,0.00,,---,0.00,VWS V14.01,2013-06-08 17:33:00,
2013-06-08 13:34:00,88.2,31.2,28.94,West,279,3.1,6.3,13,0.00,,---,0.00,VWS V14.01,2013-06-08 17:34:00,
2013-06-08 13:35:00,88.0,31.0,28.94,SSE,160,4.9,6.9,13,0.00,,---,0.00,VWS V14.01,2013-06-08 17:35:00,
2013-06-08 13:36:00,88.0,31.0,28.94,SSE,160,0.0,7.8,13,0.00,,---,0.00,VWS V14.01,2013-06-08 17:36:00,
2013-06-08 13:37:00,87.6,30.8,28.94,East,83,3.1,3.6,13,0.00,,---,0.00,VWS V14.01,2013-06-08 17:37:00,
2013-06-08 13:38:00,84.6,28.4,28.94,ESE,118,6.7,6.9,13,0.00,,---,0.00,VWS V14.01,2013-06-08 17:38:00,
2013-06-08 13:39:00,87.6,30.8,28.94,SE,138,5.8,8.3,13,0.00,,---,0.00,VWS V14.01,2013-06-08 17:39:00,
2013-06-08 13:40:00,87.3,30.5,28.94,SE,145,5.8,6.9,13,0.00,,---,0.00,VWS V14.01,2013-06-08 17:40:00,
2013-06-08 13:41:00,86.9,30.2,28.94,SW,234,3.1,7.4,13,0.00,,---,0.00,VWS V14.01,2013-06-08 17:41:00,
2013-06-08 13:42:00,86.7,30.0,28.94,SSE,152,3.6,7.4,13,0.00,,---,0.00,VWS V14.01,2013-06-08 17:42:00,
2013-06-08 13:43:00,81.9,28.0,28.94,ENE,58,0.0,0.0,14,0.00,,---,0.00,VWS V14.01,2013-06-08 17:43:00,
2013-06-08 13:44:00,86.5,29.9,28.94,SE,135,0.0,6.3,13,0.00,,---,0.00,VWS V14.01,2013-06-08 17:44:00,
2013-06-08 13:45:00,86.4,29.8,28.94,SE,137,4.5,7.4,13,0.00,,---,0.00,VWS V14.01,2013-06-08 17:45:00,
2013-06-08 13:46:00,86.2,29.6,28.94,ESE,117,6.3,6.7,13,0.00,,---,0.00,VWS V14.01,2013-06-08 17:46:00,
2013-06-08 13:47:00,85.8,29.4,28.94,SSE,158,2.7,6.3,13,0.00,,---,0.00,VWS V14.01,2013-06-08 17:47:00,
2013-06-08 13:48:00,82.2,28.3,28.94,ESE,110,6.9,7.8,14,0.00,,---,0.00,VWS V14.01,2013-06-08 17:48:00,
2013-06-08 13:49:00,85.6,29.2,28.94,SSE,158,2.7,5.8,13,0.00,,---,0.00,VWS V14.01,2013-06-08 17:49:00,
2013-06-08 13:50:00,85.5,34.2,28.94,SE,126,4.0,6.9,16,0.00,,---,0.00,VWS V14.01,2013-06-08 17:50:00,
2013-06-08 13:51:00,85.5,34.2,28.94,South,183,0.0,4.9,16,0.00,,---,0.00,VWS V14.01,2013-06-08 17:51:00,
2013-06-08 13:52:00,85.6,34.3,28.94,SSE,160,3.1,3.1,16,0.00,,---,0.00,VWS V14.01,2013-06-08 17:52:00,
2013-06-08 13:53:00,82.2,28.3,28.94,SE,139,4.0,4.9,14,0.00,,---,0.00,VWS V14.01,2013-06-08 17:53:00,
2013-06-08 13:55:00,86.2,34.8,28.94,ENE,76,0.0,3.6,16,0.00,,---,0.00,VWS V14.01,2013-06-08 17:55:00,
2013-06-08 13:56:00,86.2,34.8,28.94,West,273,2.7,4.9,16,0.00,,---,0.00,VWS V14.01,2013-06-08 17:56:00,
2013-06-08 13:57:00,86.4,34.9,28.94,ESE,114,4.0,4.9,16,0.00,,---,0.00,VWS V14.01,2013-06-08 17:57:00,
2013-06-08 13:58:00,81.7,27.9,28.94,SE,143,6.3,6.3,14,0.00,,---,0.00,VWS V14.01,2013-06-08 17:58:00,
2013-06-08 13:59:00,86.5,35.1,28.94,SE,145,0.0,4.5,16,0.00,,---,0.00,VWS V14.01,2013-06-08 17:59:00,
2013-06-08 14:00:00,86.9,33.7,28.94,South,171,0.0,4.0,15,0.00,,---,0.00,VWS V14.01,2013-06-08 18:00:00,
2013-06-08 14:01:00,87.1,33.9,28.94,SW,235,3.1,4.9,15,0.00,,---,0.00,VWS V14.01,2013-06-08 18:01:00,
2013-06-08 14:02:00,87.4,34.2,28.94,SE,133,3.1,5.8,15,0.00,,---,0.00,VWS V14.01,2013-06-08 18:02:00,
2013-06-08 14:03:00,79.9,26.5,28.94,East,95,2.7,3.1,14,0.00,,---,0.00,VWS V14.01,2013-06-08 18:03:00,
2013-06-08 14:04:00,87.4,34.2,28.94,WSW,242,4.9,6.9,15,0.00,,---,0.00,VWS V14.01,2013-06-08 18:04:00,
2013-06-08 14:05:00,87.6,34.3,28.94,South,179,4.0,4.9,15,0.00,,---,0.00,VWS V14.01,2013-06-08 18:05:00,
2013-06-08 14:06:00,87.6,34.3,28.94,WSW,248,4.5,4.5,15,0.00,,---,0.00,VWS V14.01,2013-06-08 18:06:00,
2013-06-08 14:07:00,87.6,34.3,28.94,WSW,239,0.0,4.5,15,0.00,,---,0.00,VWS V14.01,2013-06-08 18:07:00,
2013-06-08 14:08:00,81.5,32.5,28.94,South,169,5.4,6.9,17,0.00,,---,0.00,VWS V14.01,2013-06-08 18:08:00,
2013-06-08 14:09:00,87.8,34.5,28.94,WSW,237,0.0,3.1,15,0.00,,---,0.00,VWS V14.01,2013-06-08 18:09:00,
2013-06-08 14:10:00,87.8,34.5,28.94,South,185,4.5,6.9,15,0.00,,---,0.00,VWS V14.01,2013-06-08 18:10:00,
2013-06-08 14:11:00,88.2,34.7,28.94,NW,312,2.7,4.5,15,0.00,,---,0.00,VWS V14.01,2013-06-08 18:11:00,
2013-06-08 14:12:00,88.2,34.7,28.94,East,98,0.0,3.1,15,0.00,,---,0.00,VWS V14.01,2013-06-08 18:12:00,
2013-06-08 14:13:00,82.9,28.9,28.94,WSW,238,2.7,4.9,14,0.00,,---,0.00,VWS V14.01,2013-06-08 18:13:00,
2013-06-08 14:14:00,88.2,34.7,28.94,West,272,4.9,6.3,15,0.00,,---,0.00,VWS V14.01,2013-06-08 18:14:00,
2013-06-08 14:15:00,88.2,34.7,28.94,SSE,163,5.4,5.8,15,0.00,,---,0.00,VWS V14.01,2013-06-08 18:15:00,
2013-06-08 14:16:00,88.3,34.9,28.94,SSW,192,4.0,8.7,15,0.00,,---,0.00,VWS V14.01,2013-06-08 18:16:00,
2013-06-08 14:17:00,88.0,31.0,28.94,WNW,302,7.4,9.2,13,0.00,,---,0.00,VWS V14.01,2013-06-08 18:17:00,
2013-06-08 14:18:00,82.0,28.2,28.94,West,268,6.9,7.8,14,0.00,,---,0.00,VWS V14.01,2013-06-08 18:18:00,
2013-06-08 14:19:00,88.0,31.0,28.94,SSW,200,5.8,8.3,13,0.00,,---,0.00,VWS V14.01,2013-06-08 18:19:00,
2013-06-08 14:20:00,88.0,31.0,28.94,ESE,108,0.0,5.8,13,0.00,,---,0.00,VWS V14.01,2013-06-08 18:20:00,
2013-06-08 14:21:00,88.2,31.2,28.94,SW,220,0.0,4.5,13,0.00,,---,0.00,VWS V14.01,2013-06-08 18:21:00,
2013-06-08 14:22:00,88.5,31.5,28.94,ESE,110,0.0,3.6,13,0.00,,---,0.00,VWS V14.01,2013-06-08 18:22:00,
2013-06-08 14:23:00,82.0,31.5,28.94,WNW,290,0.0,3.1,16,0.00,,---,0.00,VWS V14.01,2013-06-08 18:23:00,
2013-06-08 14:24:00,89.1,35.5,28.94,East,95,0.0,2.7,15,0.00,,---,0.00,VWS V14.01,2013-06-08 18:24:00,
2013-06-08 14:25:00,89.4,30.2,28.94,SE,142,6.7,8.3,12,0.00,,---,0.00,VWS V14.01,2013-06-08 18:25:00,
2013-06-08 14:26:00,89.2,30.0,28.94,South,175,4.0,8.7,12,0.00,,---,0.00,VWS V14.01,2013-06-08 18:26:00,
2013-06-08 14:27:00,89.4,30.2,28.94,SE,143,0.0,4.0,12,0.00,,---,0.00,VWS V14.01,2013-06-08 18:27:00,
2013-06-08 14:28:00,83.8,32.9,28.94,ESE,113,2.7,5.8,16,0.00,,---,0.00,VWS V14.01,2013-06-08 18:28:00,
2013-06-08 14:29:00,89.2,30.0,28.94,SE,144,4.5,8.3,12,0.00,,---,0.00,VWS V14.01,2013-06-08 18:29:00,
2013-06-08 14:30:00,89.2,30.0,28.94,SSE,156,4.5,4.9,12,0.00,,---,0.00,VWS V14.01,2013-06-08 18:30:00,
2013-06-08 14:31:00,89.1,29.9,28.94,ESE,116,4.5,6.9,12,0.00,,---,0.00,VWS V14.01,2013-06-08 18:31:00,
2013-06-08 14:32:00,88.7,31.6,28.94,SE,143,5.8,10.5,13,0.00,,---,0.00,VWS V14.01,2013-06-08 18:32:00,
2013-06-08 14:33:00,82.9,28.9,28.94,ESE,115,3.1,5.8,14,0.00,,---,0.00,VWS V14.01,2013-06-08 18:33:00,
2013-06-08 14:34:00,88.2,31.2,28.94,ESE,122,10.1,10.5,13,0.00,,---,0.00,VWS V14.01,2013-06-08 18:34:00,
2013-06-08 14:35:00,87.6,30.8,28.94,SE,124,5.4,10.1,13,0.00,,---,0.00,VWS V14.01,2013-06-08 18:35:00,
2013-06-08 14:36:00,87.3,30.5,28.94,SSE,153,4.0,5.8,13,0.00,,---,0.00,VWS V14.01,2013-06-08 18:36:00,
2013-06-08 14:37:00,87.4,30.6,28.94,WNW,284,0.0,4.0,13,0.00,,---,0.00,VWS V14.01,2013-06-08 18:37:00,
2013-06-08 14:38:00,82.8,28.8,28.94,North,8,0.0,4.0,14,0.00,,---,0.00,VWS V14.01,2013-06-08 18:38:00,
2013-06-08 14:39:00,88.2,31.2,28.94,SSE,164,7.8,7.8,13,0.00,,---,0.00,VWS V14.01,2013-06-08 18:39:00,
2013-06-08 14:40:00,88.0,31.0,28.94,SE,139,9.2,13.4,13,0.00,,---,0.00,VWS V14.01,2013-06-08 18:40:00,
2013-06-08 14:41:00,87.4,30.6,28.94,ESE,107,6.3,14.3,13,0.00,,---,0.00,VWS V14.01,2013-06-08 18:41:00,
2013-06-08 14:42:00,87.3,30.5,28.91,SSE,150,7.8,8.3,13,0.00,,---,0.00,VWS V14.01,2013-06-08 18:42:00,
2013-06-08 14:43:00,82.0,28.2,28.94,ESE,109,0.0,4.9,14,0.00,,---,0.00,VWS V14.01,2013-06-08 18:43:00,
2013-06-08 14:44:00,88.0,31.0,28.91,South,179,0.0,5.4,13,0.00,,---,0.00,VWS V14.01,2013-06-08 18:44:00,
2013-06-08 14:45:00,88.3,34.9,28.91,SSE,149,6.9,6.9,15,0.00,,---,0.00,VWS V14.01,2013-06-08 18:45:00,
2013-06-08 14:46:00,88.9,35.3,28.91,SSE,153,3.6,6.9,15,0.00,,---,0.00,VWS V14.01,2013-06-08 18:46:00,
2013-06-08 14:47:00,89.2,35.6,28.91,WSW,254,7.8,7.8,15,0.00,,---,0.00,VWS V14.01,2013-06-08 18:47:00,
2013-06-08 14:48:00,83.1,29.0,28.94,NW,307,4.9,7.8,14,0.00,,---,0.00,VWS V14.01,2013-06-08 18:48:00,
2013-06-08 14:49:00,89.6,35.9,28.91,ENE,66,0.0,3.1,15,0.00,,---,0.00,VWS V14.01,2013-06-08 18:49:00,
2013-06-08 14:50:00,89.8,36.0,28.91,SE,133,4.9,4.9,15,0.00,,---,0.00,VWS V14.01,2013-06-08 18:50:00,
2013-06-08 14:51:00,90.0,30.6,28.91,SE,140,8.3,8.7,12,0.00,,---,0.00,VWS V14.01,2013-06-08 18:51:00,
2013-06-08 14:52:00,89.6,30.3,28.91,SE,134,2.7,8.3,12,0.00,,---,0.00,VWS V14.01,2013-06-08 18:52:00,
2013-06-08 14:53:00,85.3,28.9,28.94,SE,127,7.4,8.3,13,0.00,,---,0.00,VWS V14.01,2013-06-08 18:53:00,
2013-06-08 14:54:00,89.4,30.2,28.91,East,96,0.0,6.3,12,0.00,,---,0.00,VWS V14.01,2013-06-08 18:54:00,
2013-06-08 14:55:00,89.6,30.3,28.91,West,259,4.5,4.5,12,0.00,,---,0.00,VWS V14.01,2013-06-08 18:55:00,
2013-06-08 14:56:00,89.8,30.5,28.91,SW,214,5.4,10.1,12,0.00,,---,0.00,VWS V14.01,2013-06-08 18:56:00,
2013-06-08 14:57:00,89.8,30.5,28.91,SW,227,3.6,5.4,12,0.00,,---,0.00,VWS V14.01,2013-06-08 18:57:00,
2013-06-08 14:58:00,86.2,29.6,28.94,WSW,245,4.5,5.8,13,0.00,,---,0.00,VWS V14.01,2013-06-08 18:58:00,
2013-06-08 14:59:00,90.3,30.9,28.91,SW,236,0.0,4.9,12,0.00,,---,0.00,VWS V14.01,2013-06-08 18:59:00,
2013-06-08 15:00:00,90.5,31.0,28.91,SW,218,4.9,6.3,12,0.00,,---,0.00,VWS V14.01,2013-06-08 19:00:00,
2013-06-08 15:01:00,90.9,31.3,28.91,SSE,153,0.0,5.8,12,0.00,,---,0.00,VWS V14.01,2013-06-08 19:01:00,
2013-06-08 15:02:00,91.2,31.6,28.91,SE,146,4.9,6.3,12,0.00,,---,0.00,VWS V14.01,2013-06-08 19:02:00,
2013-06-08 15:03:00,84.9,28.6,28.94,SE,133,5.4,7.4,13,0.00,,---,0.00,VWS V14.01,2013-06-08 19:03:00,
2013-06-08 15:04:00,91.4,31.7,28.91,SSW,209,3.1,3.1,12,0.00,,---,0.00,VWS V14.01,2013-06-08 19:04:00,
2013-06-08 15:05:00,91.4,31.7,28.91,WSW,258,2.7,5.4,12,0.00,,---,0.00,VWS V14.01,2013-06-08 19:05:00,
2013-06-08 15:06:00,91.6,31.9,28.91,West,261,4.5,4.9,12,0.00,,---,0.00,VWS V14.01,2013-06-08 19:06:00,
2013-06-08 15:07:00,91.8,32.0,28.91,SE,125,3.1,5.4,12,0.00,,---,0.00,VWS V14.01,2013-06-08 19:07:00,
2013-06-08 15:08:00,83.1,29.0,28.94,SSW,201,0.0,3.1,14,0.00,,---,0.00,VWS V14.01,2013-06-08 19:08:00,
2013-06-08 15:09:00,91.8,32.0,28.91,WSW,240,6.9,6.9,12,0.00,,---,0.00,VWS V14.01,2013-06-08 19:09:00,
2013-06-08 15:10:00,91.6,31.9,28.91,WSW,250,7.8,7.8,12,0.00,,---,0.00,VWS V14.01,2013-06-08 19:10:00,
2013-06-08 15:11:00,91.4,31.7,28.91,East,89,0.0,7.8,12,0.00,,---,0.00,VWS V14.01,2013-06-08 19:11:00,
2013-06-08 15:12:00,91.4,31.7,28.91,SSE,153,0.0,4.5,12,0.00,,---,0.00,VWS V14.01,2013-06-08 19:12:00,
2013-06-08 15:13:00,83.8,27.8,28.94,SW,233,0.0,4.0,13,0.00,,---,0.00,VWS V14.01,2013-06-08 19:13:00,
2013-06-08 15:14:00,90.9,31.3,28.91,SE,143,4.9,6.3,12,0.00,,---,0.00,VWS V14.01,2013-06-08 19:14:00,
2013-06-08 15:15:00,90.3,30.9,28.91,SE,143,2.7,5.8,12,0.00,,---,0.00,VWS V14.01,2013-06-08 19:15:00,
2013-06-08 15:16:00,89.6,30.3,28.91,SE,140,8.3,9.2,12,0.00,,---,0.00,VWS V14.01,2013-06-08 19:16:00,
2013-06-08 15:17:00,88.7,29.6,28.91,SE,130,6.3,8.3,12,0.00,,---,0.00,VWS V14.01,2013-06-08 19:17:00,
2013-06-08 15:18:00,85.3,28.9,28.91,SW,235,3.6,5.4,13,0.00,,---,0.00,VWS V14.01,2013-06-08 19:18:00,
2013-06-08 15:19:00,88.0,31.0,28.91,South,172,3.6,5.8,13,0.00,,---,0.00,VWS V14.01,2013-06-08 19:19:00,
2013-06-08 15:20:00,88.2,31.2,28.91,SW,232,0.0,3.6,13,0.00,,---,0.00,VWS V14.01,2013-06-08 19:20:00,
2013-06-08 15:21:00,88.2,31.2,28.91,ESE,112,0.0,0.0,13,0.00,,---,0.00,VWS V14.01,2013-06-08 19:21:00,
2013-06-08 15:22:00,88.3,31.3,28.91,ESE,110,0.0,4.0,13,0.00,,---,0.00,VWS V14.01,2013-06-08 19:22:00,
2013-06-08 15:23:00,85.6,29.2,28.91,SE,143,2.7,4.9,13,0.00,,---,0.00,VWS V14.01,2013-06-08 19:23:00,
2013-06-08 15:24:00,88.0,31.0,28.91,SSE,148,0.0,6.9,13,0.00,,---,0.00,VWS V14.01,2013-06-08 19:24:00,
2013-06-08 15:25:00,88.2,31.2,28.91,SSE,165,6.3,6.3,13,0.00,,---,0.00,VWS V14.01,2013-06-08 19:25:00,
2013-06-08 15:26:00,88.2,31.2,28.91,East,99,0.0,6.3,13,0.00,,---,0.00,VWS V14.01,2013-06-08 19:26:00,
2013-06-08 15:27:00,87.8,30.9,28.91,SSE,165,7.4,8.3,13,0.00,,---,0.00,VWS V14.01,2013-06-08 19:27:00,
2013-06-08 15:28:00,86.9,30.2,28.91,ESE,117,0.0,4.0,13,0.00,,---,0.00,VWS V14.01,2013-06-08 19:28:00,
2013-06-08 15:29:00,86.9,30.2,28.91,SE,135,6.7,7.8,13,0.00,,---,0.00,VWS V14.01,2013-06-08 19:29:00,
2013-06-08 15:30:00,86.5,29.9,28.91,SSE,149,5.8,6.9,13,0.00,,---,0.00,VWS V14.01,2013-06-08 19:30:00,
2013-06-08 15:31:00,86.7,30.0,28.91,SSE,153,0.0,5.8,13,0.00,,---,0.00,VWS V14.01,2013-06-08 19:31:00,
2013-06-08 15:32:00,87.1,30.3,28.91,SE,143,2.7,5.4,13,0.00,,---,0.00,VWS V14.01,2013-06-08 19:32:00,
2013-06-08 15:33:00,83.3,29.2,28.91,NW,316,3.1,4.5,14,0.00,,---,0.00,VWS V14.01,2013-06-08 19:33:00,
2013-06-08 15:34:00,87.6,30.8,28.91,SSE,161,2.7,4.5,13,0.00,,---,0.00,VWS V14.01,2013-06-08 19:34:00,
2013-06-08 15:35:00,87.8,30.9,28.91,SSE,154,0.0,3.1,13,0.00,,---,0.00,VWS V14.01,2013-06-08 19:35:00,
2013-06-08 15:36:00,88.2,31.2,28.91,SSW,196,0.0,6.9,13,0.00,,---,0.00,VWS V14.01,2013-06-08 19:36:00,
2013-06-08 15:37:00,88.3,31.3,28.91,West,260,0.0,4.0,13,0.00,,---,0.00,VWS V14.01,2013-06-08 19:37:00,
2013-06-08 15:38:00,85.1,33.9,28.91,SSE,152,4.5,4.5,16,0.00,,---,0.00,VWS V14.01,2013-06-08 19:38:00,
2013-06-08 15:39:00,89.1,29.9,28.91,SW,216,3.1,4.5,12,0.00,,---,0.00,VWS V14.01,2013-06-08 19:39:00,
2013-06-08 15:40:00,89.2,30.0,28.91,SE,137,2.7,3.6,12,0.00,,---,0.00,VWS V14.01,2013-06-08 19:40:00,
2013-06-08 15:41:00,89.4,30.2,28.91,ESE,120,0.0,3.6,12,0.00,,---,0.00,VWS V14.01,2013-06-08 19:41:00,
2013-06-08 15:42:00,89.6,30.3,28.88,West,278,3.1,6.7,12,0.00,,---,0.00,VWS V14.01,2013-06-08 19:42:00,
2013-06-08 15:43:00,86.2,29.6,28.91,West,260,0.0,3.6,13,0.00,,---,0.00,VWS V14.01,2013-06-08 19:43:00,
2013-06-08 15:44:00,89.6,30.3,28.88,SSW,195,4.5,8.3,12,0.00,,---,0.00,VWS V14.01,2013-06-08 19:44:00,
2013-06-08 15:45:00,89.6,30.3,28.88,SSW,211,0.0,4.5,12,0.00,,---,0.00,VWS V14.01,2013-06-08 19:45:00,
2013-06-08 15:46:00,89.2,30.0,28.88,SE,132,9.2,9.6,12,0.00,,---,0.00,VWS V14.01,2013-06-08 19:46:00,
2013-06-08 15:47:00,88.0,31.0,28.88,SE,135,6.7,12.1,13,0.00,,---,0.00,VWS V14.01,2013-06-08 19:47:00,
2013-06-08 15:48:00,84.9,28.6,28.94,East,79,0.0,4.0,13,0.00,,---,0.00,VWS V14.01,2013-06-08 19:48:00,
2013-06-08 15:49:00,87.6,30.8,28.88,North,356,0.0,3.6,13,0.00,,---,0.00,VWS V14.01,2013-06-08 19:49:00,
2013-06-08 15:50:00,87.4,30.6,28.88,SE,146,4.0,4.5,13,0.00,,---,0.00,VWS V14.01,2013-06-08 19:50:00,
2013-06-08 15:51:00,87.4,30.6,28.88,SE,129,0.0,5.8,13,0.00,,---,0.00,VWS V14.01,2013-06-08 19:51:00,
2013-06-08 15:52:00,87.6,30.8,28.88,WSW,243,4.0,4.0,13,0.00,,---,0.00,VWS V14.01,2013-06-08 19:52:00,
2013-06-08 15:53:00,84.6,28.4,28.94,SSW,204,0.0,2.7,13,0.00,,---,0.00,VWS V14.01,2013-06-08 19:53:00,
2013-06-08 15:54:00,88.2,31.2,28.88,South,176,2.7,5.4,13,0.00,,---,0.00,VWS V14.01,2013-06-08 19:54:00,
2013-06-08 15:55:00,88.3,31.3,28.88,ESE,115,5.4,7.8,13,0.00,,---,0.00,VWS V14.01,2013-06-08 19:55:00,
2013-06-08 15:56:00,88.5,31.5,28.88,SSE,149,6.3,8.7,13,0.00,,---,0.00,VWS V14.01,2013-06-08 19:56:00,
2013-06-08 15:57:00,88.5,31.5,28.88,SE,131,2.7,6.3,13,0.00,,---,0.00,VWS V14.01,2013-06-08 19:57:00,
2013-06-08 15:58:00,84.2,28.1,28.94,WSW,242,0.0,0.0,13,0.00,,---,0.00,VWS V14.01,2013-06-08 19:58:00,
2013-06-08 15:59:00,88.9,29.8,28.88,SE,139,10.1,11.2,12,0.00,,---,0.00,VWS V14.01,2013-06-08 19:59:00,
2013-06-08 16:00:00,88.7,31.6,28.88,SE,134,5.4,10.1,13,0.00,,---,0.00,VWS V14.01,2013-06-08 20:00:00,
2013-06-08 16:01:00,88.3,31.3,28.88,ESE,123,6.7,7.4,13,0.00,,---,0.00,VWS V14.01,2013-06-08 20:01:00,
2013-06-08 16:02:00,87.6,30.8,28.88,East,90,6.9,11.2,13,0.00,,---,0.00,VWS V14.01,2013-06-08 20:02:00,
2013-06-08 16:03:00,84.4,28.2,28.91,WSW,250,0.0,2.7,13,0.00,,---,0.00,VWS V14.01,2013-06-08 20:03:00,
2013-06-08 16:04:00,86.5,29.9,28.88,South,176,6.3,8.3,13,0.00,,---,0.00,VWS V14.01,2013-06-08 20:04:00,
2013-06-08 16:05:00,86.7,30.0,28.88,ESE,107,4.9,6.3,13,0.00,,---,0.00,VWS V14.01,2013-06-08 20:05:00,
2013-06-08 16:06:00,86.7,30.0,28.88,ESE,104,6.3,6.7,13,0.00,,---,0.00,VWS V14.01,2013-06-08 20:06:00,
2013-06-08 16:07:00,86.9,30.2,28.88,NW,304,2.7,6.3,13,0.00,,---,0.00,VWS V14.01,2013-06-08 20:07:00,
2013-06-08 16:08:00,83.8,27.8,28.91,WSW,258,0.0,4.9,13,0.00,,---,0.00,VWS V14.01,2013-06-08 20:08:00,
2013-06-08 16:09:00,87.4,30.6,28.88,SE,125,5.8,5.8,13,0.00,,---,0.00,VWS V14.01,2013-06-08 20:09:00,
2013-06-08 16:10:00,88.0,31.0,28.88,ESE,113,6.7,11.0,13,0.00,,---,0.00,VWS V14.01,2013-06-08 20:10:00,
2013-06-08 16:11:00,88.0,31.0,28.88,ESE,122,6.3,6.7,13,0.00,,---,0.00,VWS V14.01,2013-06-08 20:11:00,
2013-06-08 16:12:00,87.8,30.9,28.88,SSW,209,3.1,9.2,13,0.00,,---,0.00,VWS V14.01,2013-06-08 20:12:00,
2013-06-08 16:13:00,84.0,27.9,28.91,NW,323,0.0,4.0,13,0.00,,---,0.00,VWS V14.01,2013-06-08 20:13:00,
2013-06-08 16:14:00,87.6,30.8,28.88,SE,125,6.9,8.3,13,0.00,,---,0.00,VWS V14.01,2013-06-08 20:14:00,
2013-06-08 16:15:00,87.6,30.8,28.88,ENE,77,0.0,6.9,13,0.00,,---,0.00,VWS V14.01,2013-06-08 20:15:00,
2013-06-08 16:16:00,88.0,31.0,28.88,ESE,120,0.0,2.7,13,0.00,,---,0.00,VWS V14.01,2013-06-08 20:16:00,
2013-06-08 16:17:00,88.3,31.3,28.88,SSE,147,0.0,0.0,13,0.00,,---,0.00,VWS V14.01,2013-06-08 20:17:00,
2013-06-08 16:18:00,84.6,28.4,28.91,SE,131,4.5,7.4,13,0.00,,---,0.00,VWS V14.01,2013-06-08 20:18:00,
2013-06-08 16:19:00,88.9,29.8,28.88,NW,319,2.7,5.4,12,0.00,,---,0.00,VWS V14.01,2013-06-08 20:19:00,
2013-06-08 16:20:00,89.1,29.9,28.88,SSW,206,3.1,3.6,12,0.00,,---,0.00,VWS V14.01,2013-06-08 20:20:00,
2013-06-08 16:21:00,89.4,30.2,28.88,SE,137,3.6,5.4,12,0.00,,---,0.00,VWS V14.01,2013-06-08 20:21:00,
2013-06-08 16:22:00,89.4,30.2,28.88,WSW,246,4.0,7.8,12,0.00,,---,0.00,VWS V14.01,2013-06-08 20:22:00,
2013-06-08 16:23:00,84.6,28.4,28.91,ESE,119,5.8,5.8,13,0.00,,---,0.00,VWS V14.01,2013-06-08 20:23:00,
2013-06-08 16:24:00,89.2,30.0,28.88,SE,136,11.0,12.5,12,0.00,,---,0.00,VWS V14.01,2013-06-08 20:24:00,
2013-06-08 16:25:00,88.5,31.5,28.88,SSW,197,3.6,11.0,13,0.00,,---,0.00,VWS V14.01,2013-06-08 20:25:00,
2013-06-08 16:26:00,88.5,31.5,28.88,SW,225,6.9,7.4,13,0.00,,---,0.00,VWS V14.01,2013-06-08 20:26:00,
2013-06-08 16:27:00,88.5,31.5,28.88,SSE,156,3.6,6.9,13,0.00,,---,0.00,VWS V14.01,2013-06-08 20:27:00,
2013-06-08 16:28:00,84.9,28.6,28.91,SSE,157,0.0,2.7,13,0.00,,---,0.00,VWS V14.01,2013-06-08 20:28:00,
2013-06-08 16:29:00,88.5,31.5,28.88,West,259,4.5,4.9,13,0.00,,---,0.00,VWS V14.01,2013-06-08 20:29:00,
2013-06-08 16:30:00,88.5,31.5,28.88,SSE,162,3.1,4.5,13,0.00,,---,0.00,VWS V14.01,2013-06-08 20:30:00,
2013-06-08 16:31:00,88.7,31.6,28.88,SW,219,0.0,4.9,13,0.00,,---,0.00,VWS V14.01,2013-06-08 20:31:00,
2013-06-08 16:32:00,88.7,29.6,28.88,WSW,255,4.0,8.3,12,0.00,,---,0.00,VWS V14.01,2013-06-08 20:32:00,
2013-06-08 16:33:00,84.6,28.4,28.91,South,191,0.0,3.1,13,0.00,,---,0.00,VWS V14.01,2013-06-08 20:33:00,
2013-06-08 16:34:00,88.7,31.6,28.88,SSE,147,0.0,5.8,13,0.00,,---,0.00,VWS V14.01,2013-06-08 20:34:00,
2013-06-08 16:35:00,88.9,29.8,28.88,ENE,57,3.1,5.8,12,0.00,,---,0.00,VWS V14.01,2013-06-08 20:35:00,
2013-06-08 16:36:00,89.1,29.9,28.88,SSW,213,3.1,4.0,12,0.00,,---,0.00,VWS V14.01,2013-06-08 20:36:00,
2013-06-08 16:37:00,89.2,30.0,28.88,South,169,4.5,10.5,12,0.00,,---,0.00,VWS V14.01,2013-06-08 20:37:00,
2013-06-08 16:38:00,85.1,28.8,28.91,NW,312,4.9,4.9,13,0.00,,---,0.00,VWS V14.01,2013-06-08 20:38:00,
2013-06-08 16:39:00,89.2,30.0,28.88,WSW,238,2.7,5.4,12,0.00,,---,0.00,VWS V14.01,2013-06-08 20:39:00,
2013-06-08 16:40:00,89.2,30.0,28.88,ESE,118,3.1,4.9,12,0.00,,---,0.00,VWS V14.01,2013-06-08 20:40:00,
2013-06-08 16:41:00,89.2,30.0,28.88,ENE,72,2.7,6.9,12,0.00,,---,0.00,VWS V14.01,2013-06-08 20:41:00,
2013-06-08 16:42:00,89.1,29.9,28.88,South,174,3.6,4.9,12,0.00,,---,0.00,VWS V14.01,2013-06-08 20:42:00,
2013-06-08 16:43:00,85.3,28.9,28.91,West,272,0.0,3.6,13,0.00,,---,0.00,VWS V14.01,2013-06-08 20:43:00,
2013-06-08 16:44:00,88.7,29.6,28.88,South,171,3.1,3.6,12,0.00,,---,0.00,VWS V14.01,2013-06-08 20:44:00,
2013-06-08 16:45:00,88.9,29.8,28.88,SE,142,0.0,6.3,12,0.00,,---,0.00,VWS V14.01,2013-06-08 20:45:00,
2013-06-08 16:46:00,89.1,29.9,28.88,SSE,151,3.6,4.0,12,0.00,,---,0.00,VWS V14.01,2013-06-08 20:46:00,
2013-06-08 16:47:00,89.2,30.0,28.88,SE,146,3.1,6.9,12,0.00,,---,0.00,VWS V14.01,2013-06-08 20:47:00,
2013-06-08 16:48:00,83.5,27.5,28.91,WNW,286,3.1,5.8,13,0.00,,---,0.00,VWS V14.01,2013-06-08 20:48:00,
2013-06-08 16:49:00,89.4,30.2,28.88,SSE,161,3.6,3.6,12,0.00,,---,0.00,VWS V14.01,2013-06-08 20:49:00,
2013-06-08 16:50:00,89.1,29.9,28.88,SSE,147,3.6,7.8,12,0.00,,---,0.00,VWS V14.01,2013-06-08 20:50:00,
2013-06-08 16:51:00,88.9,29.8,28.88,SE,127,4.0,8.7,12,0.00,,---,0.00,VWS V14.01,2013-06-08 20:51:00,
2013-06-08 16:52:00,88.5,31.5,28.88,SSE,159,6.3,6.3,13,0.00,,---,0.00,VWS V14.01,2013-06-08 20:52:00,
2013-06-08 16:53:00,83.3,29.2,28.91,ESE,104,0.0,7.4,14,0.00,,---,0.00,VWS V14.01,2013-06-08 20:53:00,
2013-06-08 16:54:00,87.8,30.9,28.88,SSE,155,4.0,9.2,13,0.00,,---,0.00,VWS V14.01,2013-06-08 20:54:00,
2013-06-08 16:55:00,87.3,30.5,28.88,SE,125,4.0,9.2,13,0.00,,---,0.00,VWS V14.01,2013-06-08 20:55:00,
2013-06-08 16:56:00,87.1,30.3,28.88,SSE,168,8.7,8.7,13,0.00,,---,0.00,VWS V14.01,2013-06-08 20:56:00,
2013-06-08 16:57:00,86.5,29.9,28.88,SSE,162,4.5,8.7,13,0.00,,---,0.00,VWS V14.01,2013-06-08 20:57:00,
2013-06-08 16:58:00,83.1,32.3,28.91,SE,142,0.0,7.4,16,0.00,,---,0.00,VWS V14.01,2013-06-08 20:58:00,
2013-06-08 16:59:00,86.4,29.8,28.88,SSE,165,0.0,5.4,13,0.00,,---,0.00,VWS V14.01,2013-06-08 20:59:00,
2013-06-08 17:00:00,86.5,29.9,28.88,South,181,3.1,4.5,13,0.00,,---,0.00,VWS V14.01,2013-06-08 21:00:00,
2013-06-08 17:01:00,86.5,29.9,28.88,South,178,0.0,3.1,13,0.00,,---,0.00,VWS V14.01,2013-06-08 21:01:00,
2013-06-08 17:02:00,86.4,29.8,28.88,SSE,159,0.0,5.4,13,0.00,,---,0.00,VWS V14.01,2013-06-08 21:02:00,
2013-06-08 17:03:00,81.9,31.3,28.91,East,99,4.0,5.8,16,0.00,,---,0.00,VWS V14.01,2013-06-08 21:03:00,
2013-06-08 17:04:00,86.4,34.9,28.88,SE,143,4.9,4.9,16,0.00,,---,0.00,VWS V14.01,2013-06-08 21:04:00,
2013-06-08 17:05:00,86.0,34.6,28.88,WSW,241,8.7,8.7,16,0.00,,---,0.00,VWS V14.01,2013-06-08 21:05:00,
2013-06-08 17:06:00,86.0,34.6,28.88,SW,222,3.6,8.7,16,0.00,,---,0.00,VWS V14.01,2013-06-08 21:06:00,
2013-06-08 17:07:00,86.0,34.6,28.88,SE,140,4.5,4.9,16,0.00,,---,0.00,VWS V14.01,2013-06-08 21:07:00,
2013-06-08 17:08:00,82.2,31.6,28.91,SSE,149,0.0,4.5,16,0.00,,---,0.00,VWS V14.01,2013-06-08 21:08:00,
2013-06-08 17:09:00,86.0,34.6,28.88,SE,144,5.8,9.2,16,0.00,,---,0.00,VWS V14.01,2013-06-08 21:09:00,
2013-06-08 17:10:00,85.6,34.3,28.88,SSE,151,4.0,11.0,16,0.00,,---,0.00,VWS V14.01,2013-06-08 21:10:00,
2013-06-08 17:11:00,85.3,34.1,28.88,SSE,147,0.0,4.0,16,0.00,,---,0.00,VWS V14.01,2013-06-08 21:11:00,
2013-06-08 17:12:00,85.3,34.1,28.88,ESE,120,0.0,4.0,16,0.00,,---,0.00,VWS V14.01,2013-06-08 21:12:00,
2013-06-08 17:13:00,82.8,32.0,28.91,SE,132,5.4,5.8,16,0.00,,---,0.00,VWS V14.01,2013-06-08 21:13:00,
2013-06-08 17:14:00,85.5,34.2,28.88,SE,139,2.7,3.1,16,0.00,,---,0.00,VWS V14.01,2013-06-08 21:14:00,
2013-06-08 17:15:00,85.3,34.1,28.88,South,174,0.0,5.8,16,0.00,,---,0.00,VWS V14.01,2013-06-08 21:15:00,
2013-06-08 17:16:00,85.5,34.2,28.88,SE,136,0.0,4.0,16,0.00,,---,0.00,VWS V14.01,2013-06-08 21:16:00,
2013-06-08 17:17:00,85.5,34.2,28.88,South,181,2.7,7.8,16,0.00,,---,0.00,VWS V14.01,2013-06-08 21:17:00,
2013-06-08 17:18:00,83.1,32.3,28.91,West,276,5.8,5.8,16,0.00,,---,0.00,VWS V14.01,2013-06-08 21:18:00,
2013-06-08 17:19:00,85.5,34.2,28.88,SSW,210,0.0,0.0,16,0.00,,---,0.00,VWS V14.01,2013-06-08 21:19:00,
2013-06-08 17:20:00,85.5,34.2,28.88,SSE,154,4.0,7.4,16,0.00,,---,0.00,VWS V14.01,2013-06-08 21:20:00,
2013-06-08 17:21:00,85.5,34.2,28.88,WSW,255,3.1,4.5,16,0.00,,---,0.00,VWS V14.01,2013-06-08 21:21:00,
2013-06-08 17:22:00,85.5,34.2,28.88,SSE,154,4.5,5.8,16,0.00,,---,0.00,VWS V14.01,2013-06-08 21:22:00,
2013-06-08 17:23:00,83.1,32.3,28.91,WSW,253,5.4,6.7,16,0.00,,---,0.00,VWS V14.01,2013-06-08 21:23:00,
2013-06-08 17:24:00,85.3,34.1,28.88,SE,141,4.0,5.4,16,0.00,,---,0.00,VWS V14.01,2013-06-08 21:24:00,
2013-06-08 17:25:00,85.3,34.1,28.88,South,188,4.0,5.4,16,0.00,,---,0.00,VWS V14.01,2013-06-08 21:25:00,
2013-06-08 17:26:00,85.1,33.9,28.88,SW,217,2.7,5.4,16,0.00,,---,0.00,VWS V14.01,2013-06-08 21:26:00,
2013-06-08 17:27:00,84.9,33.8,28.88,SSW,200,0.0,4.0,16,0.00,,---,0.00,VWS V14.01,2013-06-08 21:27:00,
2013-06-08 17:28:00,82.4,31.8,28.91,South,173,0.0,0.0,16,0.00,,---,0.00,VWS V14.01,2013-06-08 21:28:00,
2013-06-08 17:29:00,84.9,33.8,28.88,SE,134,0.0,4.9,16,0.00,,---,0.00,VWS V14.01,2013-06-08 21:29:00,
2013-06-08 17:30:00,84.7,33.6,28.88,SSE,159,0.0,6.3,16,0.00,,---,0.00,VWS V14.01,2013-06-08 21:30:00,
2013-06-08 17:31:00,84.7,36.6,28.88,SSE,157,0.0,2.7,18,0.00,,---,0.00,VWS V14.01,2013-06-08 21:31:00,
2013-06-08 17:32:00,84.7,36.6,28.88,SE,143,0.0,0.0,18,0.00,,---,0.00,VWS V14.01,2013-06-08 21:32:00,
2013-06-08 17:33:00,82.4,31.8,28.91,ENE,59,0.0,4.5,16,0.00,,---,0.00,VWS V14.01,2013-06-08 21:33:00,
2013-06-08 17:34:00,84.2,36.2,28.88,SE,134,0.0,5.8,18,0.00,,---,0.00,VWS V14.01,2013-06-08 21:34:00,
2013-06-08 17:35:00,84.0,36.0,28.88,SE,144,0.0,4.0,18,0.00,,---,0.00,VWS V14.01,2013-06-08 21:35:00,
2013-06-08 17:36:00,83.8,35.8,28.88,SE,138,4.9,7.4,18,0.00,,---,0.00,VWS V14.01,2013-06-08 21:36:00,
2013-06-08 17:37:00,83.7,35.7,28.88,SSE,152,5.4,5.4,18,0.00,,---,0.00,VWS V14.01,2013-06-08 21:37:00,
2013-06-08 17:38:00,83.8,32.9,28.91,WSW,240,2.7,3.6,16,0.00,,---,0.00,VWS V14.01,2013-06-08 21:38:00,
2013-06-08 17:39:00,83.3,36.8,28.88,SE,134,3.6,4.9,19,0.00,,---,0.00,VWS V14.01,2013-06-08 21:39:00,
2013-06-08 17:40:00,82.9,36.5,28.88,SSE,153,6.3,7.4,19,0.00,,---,0.00,VWS V14.01,2013-06-08 21:40:00,
2013-06-08 17:41:00,82.6,36.2,28.88,SE,131,6.3,6.9,19,0.00,,---,0.00,VWS V14.01,2013-06-08 21:41:00,
2013-06-08 17:42:00,82.4,36.0,28.88,South,180,5.4,6.3,19,0.00,,---,0.00,VWS V14.01,2013-06-08 21:42:00,
2013-06-08 17:43:00,83.7,32.8,28.91,SW,236,0.0,2.7,16,0.00,,---,0.00,VWS V14.01,2013-06-08 21:43:00,
2013-06-08 17:44:00,82.0,35.8,28.88,SW,216,0.0,3.1,19,0.00,,---,0.00,VWS V14.01,2013-06-08 21:44:00,
2013-06-08 17:45:00,82.0,35.8,28.88,SE,126,4.9,6.3,19,0.00,,---,0.00,VWS V14.01,2013-06-08 21:45:00,
2013-06-08 17:46:00,81.9,35.6,28.88,SE,141,0.0,6.7,19,0.00,,---,0.00,VWS V14.01,2013-06-08 21:46:00,
2013-06-08 17:47:00,81.7,35.5,28.88,South,191,4.0,4.0,19,0.00,,---,0.00,VWS V14.01,2013-06-08 21:47:00,
2013-06-08 17:48:00,82.9,32.2,28.91,WSW,237,0.0,4.0,16,0.00,,---,0.00,VWS V14.01,2013-06-08 21:48:00,
2013-06-08 17:49:00,81.5,36.6,28.88,SSE,165,4.0,4.5,20,0.00,,---,0.00,VWS V14.01,2013-06-08 21:49:00,
2013-06-08 17:50:00,81.5,36.6,28.88,SSE,147,4.0,5.4,20,0.00,,---,0.00,VWS V14.01,2013-06-08 21:50:00,
2013-06-08 17:51:00,81.5,36.6,28.88,WSW,246,0.0,4.0,20,0.00,,---,0.00,VWS V14.01,2013-06-08 21:51:00,
2013-06-08 17:52:00,81.3,36.5,28.88,SE,142,0.0,0.0,20,0.00,,---,0.00,VWS V14.01,2013-06-08 21:52:00,
2013-06-08 17:53:00,83.7,32.8,28.91,SSW,203,0.0,0.0,16,0.00,,---,0.00,VWS V14.01,2013-06-08 21:53:00,
2013-06-08 17:54:00,81.3,36.5,28.88,WSW,250,4.5,4.5,20,0.00,,---,0.00,VWS V14.01,2013-06-08 21:54:00,
2013-06-08 17:55:00,81.3,36.5,28.88,SSE,162,5.4,5.4,20,0.00,,---,0.00,VWS V14.01,2013-06-08 21:55:00,
2013-06-08 17:56:00,81.3,36.5,28.88,WSW,256,0.0,5.4,20,0.00,,---,0.00,VWS V14.01,2013-06-08 21:56:00,
2013-06-08 17:57:00,81.3,36.5,28.88,WSW,253,0.0,2.7,20,0.00,,---,0.00,VWS V14.01,2013-06-08 21:57:00,
2013-06-08 17:58:00,83.1,32.3,28.91,West,264,0.0,0.0,16,0.00,,---,0.00,VWS V14.01,2013-06-08 21:58:00,
2013-06-08 17:59:00,81.3,36.5,28.88,WSW,238,2.7,4.5,20,0.00,,---,0.00,VWS V14.01,2013-06-08 21:59:00,
2013-06-08 18:00:00,81.3,36.5,28.88,South,170,0.0,4.5,20,0.00,,---,0.00,VWS V14.01,2013-06-08 22:00:00,
2013-06-08 18:01:00,81.3,36.5,28.88,SSE,165,4.9,4.9,20,0.00,,---,0.00,VWS V14.01,2013-06-08 22:01:00,
2013-06-08 18:02:00,81.3,36.5,28.88,SSW,199,4.5,5.8,20,0.00,,---,0.00,VWS V14.01,2013-06-08 22:02:00,
2013-06-08 18:03:00,82.2,31.6,28.94,SW,235,0.0,0.0,16,0.00,,---,0.00,VWS V14.01,2013-06-08 22:03:00,
2013-06-08 18:04:00,81.1,36.3,28.88,SSE,158,0.0,0.0,20,0.00,,---,0.00,VWS V14.01,2013-06-08 22:04:00,
2013-06-08 18:05:00,81.1,36.3,28.88,SSE,147,4.0,6.7,20,0.00,,---,0.00,VWS V14.01,2013-06-08 22:05:00,
2013-06-08 18:06:00,81.0,36.2,28.88,WNW,302,3.1,4.0,20,0.00,,---,0.00,VWS V14.01,2013-06-08 22:06:00,
2013-06-08 18:07:00,81.0,37.4,28.88,SW,228,0.0,4.5,21,0.00,,---,0.00,VWS V14.01,2013-06-08 22:07:00,
2013-06-08 18:08:00,81.5,31.0,28.94,WSW,238,0.0,0.0,16,0.00,,---,0.00,VWS V14.01,2013-06-08 22:08:00,
2013-06-08 18:09:00,80.8,36.0,28.88,SSW,211,0.0,6.9,20,0.00,,---,0.00,VWS V14.01,2013-06-08 22:09:00,
2013-06-08 18:10:00,80.8,37.2,28.88,SSW,211,0.0,0.0,21,0.00,,---,0.00,VWS V14.01,2013-06-08 22:10:00,
2013-06-08 18:11:00,80.8,37.2,28.88,East,99,3.6,3.6,21,0.00,,---,0.00,VWS V14.01,2013-06-08 22:11:00,
2013-06-08 18:12:00,80.8,37.2,28.88,WSW,255,4.0,4.0,21,0.00,,---,0.00,VWS V14.01,2013-06-08 22:12:00,
2013-06-08 18:13:00,81.0,34.9,28.94,SE,128,3.6,3.6,19,0.00,,---,0.00,VWS V14.01,2013-06-08 22:13:00,
2013-06-08 18:14:00,80.6,37.1,28.88,North,2,2.7,6.3,21,0.00,,---,0.00,VWS V14.01,2013-06-08 22:14:00,
2013-06-08 18:15:00,80.4,37.0,28.88,ESE,108,0.0,2.7,21,0.00,,---,0.00,VWS V14.01,2013-06-08 22:15:00,
2013-06-08 18:16:00,80.4,37.0,28.88,South,173,0.0,0.0,21,0.00,,---,0.00,VWS V14.01,2013-06-08 22:16:00,
2013-06-08 18:17:00,80.4,38.1,28.88,South,177,0.0,0.0,22,0.00,,---,0.00,VWS V14.01,2013-06-08 22:17:00,
2013-06-08 18:18:00,80.2,34.3,28.91,ESE,117,0.0,0.0,19,0.00,,---,0.00,VWS V14.01,2013-06-08 22:18:00,
2013-06-08 18:19:00,80.1,39.0,28.88,ESE,115,3.6,4.9,23,0.00,,---,0.00,VWS V14.01,2013-06-08 22:19:00,
2013-06-08 18:20:00,80.1,41.1,28.88,WSW,252,0.0,4.0,25,0.00,,---,0.00,VWS V14.01,2013-06-08 22:20:00,
2013-06-08 18:21:00,79.9,43.0,28.88,SW,215,0.0,0.0,27,0.00,,---,0.00,VWS V14.01,2013-06-08 22:21:00,
2013-06-08 18:22:00,79.7,44.7,28.88,South,187,0.0,3.1,29,0.00,,---,0.00,VWS V14.01,2013-06-08 22:22:00,
2013-06-08 18:23:00,80.8,34.7,28.91,SSW,210,0.0,0.0,19,0.00,,---,0.00,VWS V14.01,2013-06-08 22:23:00,
2013-06-08 18:24:00,79.3,44.3,28.88,SW,218,0.0,6.7,29,0.00,,---,0.00,VWS V14.01,2013-06-08 22:24:00,
2013-06-08 18:25:00,79.0,44.9,28.88,SSW,192,6.7,10.1,30,0.00,,---,0.00,VWS V14.01,2013-06-08 22:25:00,
2013-06-08 18:26:00,78.6,44.6,28.88,SE,142,3.1,6.7,30,0.00,,---,0.00,VWS V14.01,2013-06-08 22:26:00,
2013-06-08 18:27:00,78.4,45.3,28.88,NE,52,0.0,4.5,31,0.00,,---,0.00,VWS V14.01,2013-06-08 22:27:00,
2013-06-08 18:28:00,81.3,35.2,28.91,SSW,208,0.0,0.0,19,0.00,,---,0.00,VWS V14.01,2013-06-08 22:28:00,
2013-06-08 18:29:00,77.9,46.5,28.88,SE,144,6.7,6.7,33,0.00,,---,0.00,VWS V14.01,2013-06-08 22:29:00,
2013-06-08 18:30:00,77.5,47.0,28.88,SE,142,4.0,6.7,34,0.00,,---,0.00,VWS V14.01,2013-06-08 22:30:00,
2013-06-08 18:31:00,77.4,47.6,28.88,SSW,199,0.0,4.0,35,0.00,,---,0.00,VWS V14.01,2013-06-08 22:31:00,
2013-06-08 18:32:00,77.0,48.0,28.88,SW,220,4.9,4.9,36,0.00,,---,0.00,VWS V14.01,2013-06-08 22:32:00,
2013-06-08 18:33:00,82.0,31.5,28.91,ESE,106,3.6,3.6,16,0.00,,---,0.00,VWS V14.01,2013-06-08 22:33:00,
2013-06-08 18:34:00,76.8,48.6,28.88,WSW,253,0.0,3.1,37,0.00,,---,0.00,VWS V14.01,2013-06-08 22:34:00,
2013-06-08 18:35:00,76.6,48.4,28.88,WSW,253,0.0,0.0,37,0.00,,---,0.00,VWS V14.01,2013-06-08 22:35:00,
2013-06-08 18:36:00,76.5,49.0,28.88,ESE,110,0.0,2.7,38,0.00,,---,0.00,VWS V14.01,2013-06-08 22:36:00,
2013-06-08 18:37:00,76.5,50.4,28.88,WSW,250,0.0,3.6,40,0.00,,---,0.00,VWS V14.01,2013-06-08 22:37:00,
2013-06-08 18:38:00,82.0,31.5,28.91,NW,304,3.1,4.0,16,0.00,,---,0.00,VWS V14.01,2013-06-08 22:38:00,
2013-06-08 18:39:00,76.3,50.9,28.88,SE,135,0.0,3.6,41,0.00,,---,0.00,VWS V14.01,2013-06-08 22:39:00,
2013-06-08 18:40:00,76.1,50.7,28.88,SSE,165,2.7,4.5,41,0.00,,---,0.00,VWS V14.01,2013-06-08 22:40:00,
2013-06-08 18:41:00,76.1,50.7,28.88,SSE,165,0.0,2.7,41,0.00,,---,0.00,VWS V14.01,2013-06-08 22:41:00,
2013-06-08 18:42:00,75.9,50.5,28.88,SSE,165,0.0,0.0,41,0.00,,---,0.00,VWS V14.01,2013-06-08 22:42:00,
2013-06-08 18:43:00,82.8,32.0,28.91,SW,236,0.0,2.7,16,0.00,,---,0.00,VWS V14.01,2013-06-08 22:43:00,
2013-06-08 18:44:00,75.9,51.2,28.88,SE,145,6.7,6.7,42,0.00,,---,0.00,VWS V14.01,2013-06-08 22:44:00,
2013-06-08 18:45:00,75.7,51.0,28.88,SSE,155,3.6,6.7,42,0.00,,---,0.00,VWS V14.01,2013-06-08 22:45:00,
2013-06-08 18:46:00,75.7,51.0,28.88,ESE,120,4.0,6.7,42,0.00,,---,0.00,VWS V14.01,2013-06-08 22:46:00,
2013-06-08 18:47:00,75.7,51.7,28.88,SE,143,4.0,5.8,43,0.00,,---,0.00,VWS V14.01,2013-06-08 22:47:00,
2013-06-08 18:48:00,82.8,32.0,28.91,SW,231,0.0,0.0,16,0.00,,---,0.00,VWS V14.01,2013-06-08 22:48:00,
2013-06-08 18:49:00,75.7,51.0,28.88,East,94,0.0,3.6,42,0.00,,---,0.00,VWS V14.01,2013-06-08 22:49:00,
2013-06-08 18:50:00,75.7,51.0,28.88,SE,128,4.9,6.7,42,0.00,,---,0.00,VWS V14.01,2013-06-08 22:50:00,
2013-06-08 18:51:00,75.6,50.9,28.88,SSE,150,0.0,6.3,42,0.00,,---,0.00,VWS V14.01,2013-06-08 22:51:00,
2013-06-08 18:52:00,75.6,51.5,28.88,WNW,298,0.0,3.1,43,0.00,,---,0.00,VWS V14.01,2013-06-08 22:52:00,
2013-06-08 18:53:00,82.0,31.5,28.91,SW,231,0.0,0.0,16,0.00,,---,0.00,VWS V14.01,2013-06-08 22:53:00,
2013-06-08 18:54:00,75.6,50.9,28.88,SSW,193,4.5,11.0,42,0.00,,---,0.00,VWS V14.01,2013-06-08 22:54:00,
2013-06-08 18:55:00,75.4,51.3,28.88,South,175,3.6,6.7,43,0.00,,---,0.00,VWS V14.01,2013-06-08 22:55:00,
2013-06-08 18:56:00,75.4,50.7,28.88,SSE,151,4.9,6.3,42,0.00,,---,0.00,VWS V14.01,2013-06-08 22:56:00,
2013-06-08 18:57:00,75.2,50.6,28.88,SSE,150,2.7,4.9,42,0.00,,---,0.00,VWS V14.01,2013-06-08 22:57:00,
2013-06-08 18:58:00,83.8,32.9,28.91,SE,144,0.0,0.0,16,0.00,,---,0.00,VWS V14.01,2013-06-08 22:58:00,
2013-06-08 18:59:00,75.0,51.0,28.88,SSE,166,3.1,5.4,43,0.00,,---,0.00,VWS V14.01,2013-06-08 22:59:00,
2013-06-08 19:00:00,74.8,50.9,28.88,SE,144,5.8,9.2,43,0.00,,---,0.00,VWS V14.01,2013-06-08 23:00:00,
2013-06-08 19:01:00,74.8,50.9,28.88,SE,133,0.0,5.8,43,0.00,,---,0.00,VWS V14.01,2013-06-08 23:01:00,
2013-06-08 19:02:00,74.8,51.5,28.88,ENE,76,0.0,3.1,44,0.00,,---,0.00,VWS V14.01,2013-06-08 23:02:00,
2013-06-08 19:03:00,86.9,30.2,28.91,SSE,166,0.0,0.0,13,0.00,,---,0.00,VWS V14.01,2013-06-08 23:03:00,
2013-06-08 19:04:00,74.7,52.5,28.88,SE,130,5.8,6.3,46,0.00,,---,0.00,VWS V14.01,2013-06-08 23:04:00,
2013-06-08 19:05:00,74.7,52.5,28.88,SSE,151,4.0,5.8,46,0.00,,---,0.00,VWS V14.01,2013-06-08 23:05:00,
2013-06-08 19:06:00,74.5,51.8,28.88,West,275,5.8,5.8,45,0.00,,---,0.00,VWS V14.01,2013-06-08 23:06:00,
2013-06-08 19:07:00,74.5,52.4,28.88,SE,128,3.6,12.5,46,0.00,,---,0.00,VWS V14.01,2013-06-08 23:07:00,
2013-06-08 19:08:00,88.0,31.0,28.91,WSW,242,3.1,5.4,13,0.00,,---,0.00,VWS V14.01,2013-06-08 23:08:00,
2013-06-08 19:09:00,74.3,52.8,28.88,SE,146,0.0,6.7,47,0.00,,---,0.00,VWS V14.01,2013-06-08 23:09:00,
2013-06-08 19:10:00,74.3,53.4,28.88,SSE,147,4.0,4.0,48,0.00,,---,0.00,VWS V14.01,2013-06-08 23:10:00,
2013-06-08 19:11:00,74.3,53.4,28.88,SW,225,0.0,4.9,48,0.00,,---,0.00,VWS V14.01,2013-06-08 23:11:00,
2013-06-08 19:12:00,74.3,54.5,28.88,SW,214,3.6,4.9,50,0.00,,---,0.00,VWS V14.01,2013-06-08 23:12:00,
2013-06-08 19:13:00,86.2,29.6,28.91,WSW,256,0.0,0.0,13,0.00,,---,0.00,VWS V14.01,2013-06-08 23:13:00,
2013-06-08 19:14:00,73.9,53.6,28.88,WSW,257,3.1,5.4,49,0.00,,---,0.00,VWS V14.01,2013-06-08 23:14:00,
2013-06-08 19:15:00,73.9,53.6,28.88,SSW,207,0.0,4.5,49,0.00,,---,0.00,VWS V14.01,2013-06-08 23:15:00,
2013-06-08 19:16:00,73.9,53.6,28.88,SSW,196,0.0,3.1,49,0.00,,---,0.00,VWS V14.01,2013-06-08 23:16:00,
2013-06-08 19:17:00,73.9,54.2,28.88,SW,223,2.7,4.0,50,0.00,,---,0.00,VWS V14.01,2013-06-08 23:17:00,
2013-06-08 19:18:00,73.8,54.0,28.88,SSW,195,3.1,4.9,50,0.00,,---,0.00,VWS V14.01,2013-06-08 23:18:00,
2013-06-08 19:19:00,84.0,27.9,28.94,SSW,204,0.0,0.0,13,0.00,,---,0.00,VWS V14.01,2013-06-08 23:19:00,
2013-06-08 19:20:00,73.8,54.0,28.88,SE,146,4.0,4.0,50,0.00,,---,0.00,VWS V14.01,2013-06-08 23:20:00,
2013-06-08 19:21:00,73.6,53.8,28.88,SSE,153,3.6,9.6,50,0.00,,---,0.00,VWS V14.01,2013-06-08 23:21:00,
2013-06-08 19:22:00,73.6,53.8,28.88,SE,127,0.0,4.5,50,0.00,,---,0.00,VWS V14.01,2013-06-08 23:22:00,
2013-06-08 19:23:00,73.6,54.4,28.88,SE,127,0.0,0.0,51,0.00,,---,0.00,VWS V14.01,2013-06-08 23:23:00,
2013-06-08 19:24:00,82.6,28.6,28.94,SE,143,0.0,5.4,14,0.04,,---,0.04,VWS V14.01,2013-06-08 23:24:00,
2013-06-08 19:25:00,73.6,54.4,28.88,SSE,156,0.0,3.1,51,0.00,,---,0.00,VWS V14.01,2013-06-08 23:25:00,
2013-06-08 19:26:00,73.4,54.2,28.88,ESE,118,5.8,5.8,51,0.00,,---,0.00,VWS V14.01,2013-06-08 23:26:00,
2013-06-08 19:27:00,73.4,54.7,28.88,SSE,147,7.4,8.3,52,0.00,,---,0.00,VWS V14.01,2013-06-08 23:27:00,
2013-06-08 19:28:00,73.4,54.7,28.88,SSE,151,5.8,7.4,52,0.00,,---,0.00,VWS V14.01,2013-06-08 23:28:00,
2013-06-08 19:29:00,83.5,32.6,28.94,WSW,249,0.0,2.7,16,0.04,,---,0.04,VWS V14.01,2013-06-08 23:29:00,
2013-06-08 19:30:00,73.2,55.1,28.88,East,99,0.0,2.7,53,0.00,,---,0.00,VWS V14.01,2013-06-08 23:30:00,
2013-06-08 19:31:00,73.2,55.6,28.88,ESE,109,3.1,5.4,54,0.00,,---,0.00,VWS V14.01,2013-06-08 23:31:00,
2013-06-08 19:32:00,73.2,56.1,28.88,South,174,2.7,4.5,55,0.00,,---,0.00,VWS V14.01,2013-06-08 23:32:00,
2013-06-08 19:33:00,73.0,55.9,28.88,SE,140,3.6,6.3,55,0.00,,---,0.00,VWS V14.01,2013-06-08 23:33:00,
2013-06-08 19:34:00,84.0,33.0,28.94,SW,227,0.0,0.0,16,0.04,,---,0.04,VWS V14.01,2013-06-08 23:34:00,
2013-06-08 19:35:00,72.9,56.3,28.88,West,265,3.6,4.9,56,0.00,,---,0.00,VWS V14.01,2013-06-08 23:35:00,
2013-06-08 19:36:00,72.9,56.3,28.88,East,95,3.6,3.6,56,0.00,,---,0.00,VWS V14.01,2013-06-08 23:36:00,
2013-06-08 19:37:00,72.7,56.1,28.88,SE,140,3.6,9.2,56,0.00,,---,0.00,VWS V14.01,2013-06-08 23:37:00,
2013-06-08 19:38:00,72.7,56.1,28.88,ESE,108,6.3,6.9,56,0.00,,---,0.00,VWS V14.01,2013-06-08 23:38:00,
2013-06-08 19:39:00,84.2,28.1,28.94,SE,131,3.6,3.6,13,0.04,,---,0.04,VWS V14.01,2013-06-08 23:39:00,
2013-06-08 19:40:00,72.5,55.9,28.88,SSE,157,5.8,5.8,56,0.00,,---,0.00,VWS V14.01,2013-06-08 23:40:00,
2013-06-08 19:41:00,72.5,56.4,28.88,SSE,163,5.4,6.3,57,0.00,,---,0.00,VWS V14.01,2013-06-08 23:41:00,
2013-06-08 19:42:00,72.5,56.4,28.88,SSE,167,3.1,5.4,57,0.00,,---,0.00,VWS V14.01,2013-06-08 23:42:00,
2013-06-08 19:43:00,72.5,56.4,28.88,SSW,213,0.0,4.0,57,0.00,,---,0.00,VWS V14.01,2013-06-08 23:43:00,
2013-06-08 19:44:00,83.8,27.8,28.94,WSW,254,0.0,3.1,13,0.04,,---,0.04,VWS V14.01,2013-06-08 23:44:00,
2013-06-08 19:45:00,72.3,56.7,28.88,SSW,213,0.0,0.0,58,0.00,,---,0.00,VWS V14.01,2013-06-08 23:45:00,
2013-06-08 19:46:00,72.3,56.7,28.88,SSE,162,4.0,5.4,58,0.00,,---,0.00,VWS V14.01,2013-06-08 23:46:00,
2013-06-08 19:47:00,72.3,56.7,28.88,SE,133,0.0,4.5,58,0.00,,---,0.00,VWS V14.01,2013-06-08 23:47:00,
2013-06-08 19:48:00,72.3,56.7,28.88,SE,131,3.1,3.6,58,0.00,,---,0.00,VWS V14.01,2013-06-08 23:48:00,
2013-06-08 19:49:00,81.3,27.6,28.94,SE,133,0.0,4.0,14,0.04,,---,0.04,VWS V14.01,2013-06-08 23:49:00,
2013-06-08 19:50:00,72.3,56.7,28.88,SE,144,0.0,0.0,58,0.00,,---,0.00,VWS V14.01,2013-06-08 23:50:00,
2013-06-08 19:51:00,72.3,56.7,28.88,SSE,151,0.0,0.0,58,0.00,,---,0.00,VWS V14.01,2013-06-08 23:51:00,
2013-06-08 19:52:00,72.3,57.2,28.88,SSE,150,0.0,4.9,59,0.00,,---,0.00,VWS V14.01,2013-06-08 23:52:00,
2013-06-08 19:53:00,72.1,57.0,28.88,SSE,158,0.0,5.8,59,0.00,,---,0.00,VWS V14.01,2013-06-08 23:53:00,
2013-06-08 19:54:00,72.1,57.0,28.88,South,175,2.7,4.9,59,0.00,,---,0.00,VWS V14.01,2013-06-08 23:54:00,
2013-06-08 19:55:00,79.7,35.1,28.94,SW,221,2.7,3.6,20,0.04,,---,0.04,VWS V14.01,2013-06-08 23:55:00,
2013-06-08 19:56:00,72.1,57.0,28.88,SW,232,0.0,3.6,59,0.00,,---,0.00,VWS V14.01,2013-06-08 23:56:00,
2013-06-08 19:57:00,72.1,57.0,28.88,SSE,160,0.0,4.9,59,0.00,,---,0.00,VWS V14.01,2013-06-08 23:57:00,
2013-06-08 19:58:00,72.1,57.0,28.88,ESE,122,8.7,8.7,59,0.00,,---,0.00,VWS V14.01,2013-06-08 23:58:00,
2013-06-08 19:59:00,72.0,56.4,28.88,SE,131,0.0,8.7,58,0.00,,---,0.00,VWS V14.01,2013-06-08 23:59:00,
2013-06-08 20:00:00,78.3,33.9,28.94,SSE,149,0.0,0.0,20,0.04,,---,0.04,VWS V14.01,2013-06-09 00:00:00,
2013-06-08 20:01:00,72.0,56.9,28.88,SE,131,0.0,3.1,59,0.00,,---,0.00,VWS V14.01,2013-06-09 00:01:00,
2013-06-08 20:02:00,72.0,56.9,28.88,SE,132,0.0,0.0,59,0.00,,---,0.00,VWS V14.01,2013-06-09 00:02:00,
2013-06-08 20:03:00,72.0,56.9,28.88,SE,132,0.0,0.0,59,0.00,,---,0.00,VWS V14.01,2013-06-09 00:03:00,
2013-06-08 20:04:00,72.0,56.9,28.88,SE,132,4.0,4.5,59,0.00,,---,0.00,VWS V14.01,2013-06-09 00:04:00,
2013-06-08 20:05:00,77.7,34.7,28.94,SSE,149,0.0,0.0,21,0.04,,---,0.04,VWS V14.01,2013-06-09 00:05:00,
2013-06-08 20:06:00,72.0,56.9,28.88,SE,138,3.6,5.8,59,0.00,,---,0.00,VWS V14.01,2013-06-09 00:06:00,
2013-06-08 20:07:00,72.0,56.9,28.88,SE,138,0.0,3.6,59,0.00,,---,0.00,VWS V14.01,2013-06-09 00:07:00,
2013-06-08 20:08:00,71.8,56.7,28.88,SW,227,3.6,4.9,59,0.00,,---,0.00,VWS V14.01,2013-06-09 00:08:00,
2013-06-08 20:09:00,71.8,56.7,28.88,SSE,163,2.7,3.6,59,0.00,,---,0.00,VWS V14.01,2013-06-09 00:09:00,
2013-06-08 20:10:00,76.6,33.8,28.94,SE,144,0.0,4.9,21,0.04,,---,0.04,VWS V14.01,2013-06-09 00:10:00,
2013-06-08 20:11:00,71.8,56.7,28.88,SSE,163,0.0,5.4,59,0.00,,---,0.00,VWS V14.01,2013-06-09 00:11:00,
2013-06-08 20:12:00,71.8,56.7,28.85,SSE,163,0.0,0.0,59,0.00,,---,0.00,VWS V14.01,2013-06-09 00:12:00,
2013-06-08 20:13:00,71.8,56.7,28.85,SSE,160,0.0,0.0,59,0.00,,---,0.00,VWS V14.01,2013-06-09 00:13:00,
2013-06-08 20:14:00,71.8,56.7,28.85,SSE,160,0.0,3.1,59,0.00,,---,0.00,VWS V14.01,2013-06-09 00:14:00,
2013-06-08 20:15:00,76.1,35.7,28.94,SE,136,0.0,3.1,23,0.04,,---,0.04,VWS V14.01,2013-06-09 00:15:00,
2013-06-08 20:16:00,71.8,57.2,28.85,SSE,151,2.7,3.1,60,0.00,,---,0.00,VWS V14.01,2013-06-09 00:16:00,
2013-06-08 20:17:00,71.8,57.2,28.85,SSE,155,0.0,4.0,60,0.00,,---,0.00,VWS V14.01,2013-06-09 00:17:00,
2013-06-08 20:18:00,71.8,57.2,28.85,SE,145,3.6,4.5,60,0.00,,---,0.00,VWS V14.01,2013-06-09 00:18:00,
2013-06-08 20:19:00,71.8,57.2,28.85,SE,131,6.9,6.9,60,0.00,,---,0.00,VWS V14.01,2013-06-09 00:19:00,
2013-06-08 20:20:00,75.7,37.5,28.94,SE,132,5.4,5.4,25,0.04,,---,0.04,VWS V14.01,2013-06-09 00:20:00,
2013-06-08 20:21:00,71.8,57.6,28.85,SE,145,5.4,5.4,61,0.00,,---,0.00,VWS V14.01,2013-06-09 00:21:00,
2013-06-08 20:22:00,71.8,57.6,28.85,ESE,116,0.0,5.8,61,0.00,,---,0.00,VWS V14.01,2013-06-09 00:22:00,
2013-06-08 20:23:00,71.8,57.6,28.85,SE,132,5.4,6.3,61,0.00,,---,0.00,VWS V14.01,2013-06-09 00:23:00,
2013-06-08 20:24:00,71.8,57.6,28.85,SE,135,4.9,5.4,61,0.00,,---,0.00,VWS V14.01,2013-06-09 00:24:00,
2013-06-08 20:25:00,75.2,38.0,28.94,SE,132,6.9,6.9,26,0.00,,---,0.04,VWS V14.01,2013-06-09 00:25:00,
2013-06-08 20:26:00,71.6,57.9,28.85,SSW,210,3.6,6.9,62,0.00,,---,0.00,VWS V14.01,2013-06-09 00:26:00,
2013-06-08 20:27:00,71.6,57.9,28.85,SE,135,0.0,5.4,62,0.00,,---,0.00,VWS V14.01,2013-06-09 00:27:00,
2013-06-08 20:28:00,71.6,57.9,28.85,SE,135,0.0,0.0,62,0.00,,---,0.00,VWS V14.01,2013-06-09 00:28:00,
2013-06-08 20:29:00,71.6,57.9,28.85,SSE,161,5.8,9.6,62,0.00,,---,0.00,VWS V14.01,2013-06-09 00:29:00,
2013-06-08 20:30:00,75.0,38.8,28.94,SSE,165,0.0,4.5,27,0.00,,---,0.04,VWS V14.01,2013-06-09 00:30:00,
2013-06-08 20:31:00,71.6,57.9,28.85,South,178,5.4,7.8,62,0.00,,---,0.00,VWS V14.01,2013-06-09 00:31:00,
2013-06-08 20:32:00,71.6,58.3,28.85,SW,219,3.1,5.8,63,0.00,,---,0.00,VWS V14.01,2013-06-09 00:32:00,
2013-06-08 20:33:00,71.6,58.3,28.85,SSE,152,0.0,4.9,63,0.00,,---,0.00,VWS V14.01,2013-06-09 00:33:00,
2013-06-08 20:34:00,71.6,58.3,28.85,SSW,213,3.1,8.3,63,0.00,,---,0.00,VWS V14.01,2013-06-09 00:34:00,
2013-06-08 20:35:00,74.8,39.6,28.94,East,93,4.0,5.4,28,0.00,,---,0.04,VWS V14.01,2013-06-09 00:35:00,
2013-06-08 20:36:00,71.4,58.6,28.85,SE,129,5.8,7.8,64,0.00,,---,0.00,VWS V14.01,2013-06-09 00:36:00,
2013-06-08 20:37:00,71.4,58.6,28.85,SE,125,6.7,7.4,64,0.00,,---,0.00,VWS V14.01,2013-06-09 00:37:00,
2013-06-08 20:38:00,71.4,58.6,28.85,ESE,114,4.0,6.7,64,0.00,,---,0.00,VWS V14.01,2013-06-09 00:38:00,
2013-06-08 20:39:00,71.4,59.0,28.85,SSE,159,5.8,6.7,65,0.00,,---,0.00,VWS V14.01,2013-06-09 00:39:00,
2013-06-08 20:40:00,74.7,39.4,28.94,ESE,115,0.0,3.6,28,0.00,,---,0.04,VWS V14.01,2013-06-09 00:40:00,
2013-06-08 20:41:00,71.4,59.0,28.85,SE,125,6.3,9.2,65,0.00,,---,0.00,VWS V14.01,2013-06-09 00:41:00,
2013-06-08 20:42:00,71.4,59.0,28.88,SSE,150,4.9,6.3,65,0.00,,---,0.00,VWS V14.01,2013-06-09 00:42:00,
2013-06-08 20:43:00,71.4,59.0,28.88,SSE,151,5.4,10.1,65,0.00,,---,0.00,VWS V14.01,2013-06-09 00:43:00,
2013-06-08 20:44:00,71.2,58.9,28.88,SE,128,3.6,5.4,65,0.00,,---,0.00,VWS V14.01,2013-06-09 00:44:00,
2013-06-08 20:45:00,74.7,40.3,28.94,SE,125,0.0,0.0,29,0.00,,---,0.04,VWS V14.01,2013-06-09 00:45:00,
2013-06-08 20:46:00,71.2,58.9,28.88,SE,138,3.1,5.8,65,0.00,,---,0.00,VWS V14.01,2013-06-09 00:46:00,
2013-06-08 20:47:00,71.2,59.3,28.88,SE,138,0.0,4.5,66,0.00,,---,0.00,VWS V14.01,2013-06-09 00:47:00,
2013-06-08 20:48:00,71.2,59.3,28.88,ESE,119,2.7,4.5,66,0.00,,---,0.00,VWS V14.01,2013-06-09 00:48:00,
2013-06-08 20:49:00,71.2,59.3,28.88,NW,308,4.9,4.9,66,0.00,,---,0.00,VWS V14.01,2013-06-09 00:49:00,
2013-06-08 20:50:00,74.3,41.7,28.94,SE,145,0.0,0.0,31,0.00,,---,0.04,VWS V14.01,2013-06-09 00:50:00,
2013-06-08 20:51:00,71.2,59.3,28.88,SSE,156,2.7,5.8,66,0.00,,---,0.00,VWS V14.01,2013-06-09 00:51:00,
2013-06-08 20:52:00,71.2,59.3,28.88,SSE,148,6.3,7.8,66,0.00,,---,0.00,VWS V14.01,2013-06-09 00:52:00,
2013-06-08 20:53:00,71.1,59.6,28.88,SSE,153,2.7,6.7,67,0.00,,---,0.00,VWS V14.01,2013-06-09 00:53:00,
2013-06-08 20:54:00,71.1,59.6,28.88,SE,140,6.7,6.7,67,0.00,,---,0.00,VWS V14.01,2013-06-09 00:54:00,
2013-06-08 20:55:00,73.9,41.4,28.94,SE,145,0.0,0.0,31,0.00,,---,0.04,VWS V14.01,2013-06-09 00:55:00,
2013-06-08 20:56:00,70.9,59.8,28.88,SSE,162,2.7,4.9,68,0.00,,---,0.00,VWS V14.01,2013-06-09 00:56:00,
2013-06-08 20:57:00,70.9,59.8,28.88,East,88,6.3,6.7,68,0.00,,---,0.00,VWS V14.01,2013-06-09 00:57:00,
2013-06-08 20:58:00,70.7,59.6,28.88,ESE,118,4.5,6.3,68,0.00,,---,0.00,VWS V14.01,2013-06-09 00:58:00,
2013-06-08 20:59:00,70.7,60.0,28.88,SSE,151,5.4,5.4,69,0.00,,---,0.00,VWS V14.01,2013-06-09 00:59:00,
2013-06-08 21:00:00,73.4,41.0,28.94,SE,133,0.0,4.5,31,0.00,,---,0.04,VWS V14.01,2013-06-09 01:00:00,
2013-06-08 21:01:00,70.5,60.3,28.88,WSW,254,3.1,7.4,70,0.00,,---,0.00,VWS V14.01,2013-06-09 01:01:00,
2013-06-08 21:02:00,70.5,60.3,28.88,SE,137,3.6,3.6,70,0.00,,---,0.00,VWS V14.01,2013-06-09 01:02:00,
2013-06-08 21:03:00,70.5,60.3,28.88,SE,142,4.9,6.3,70,0.00,,---,0.00,VWS V14.01,2013-06-09 01:03:00,
2013-06-08 21:04:00,70.3,60.5,28.88,SE,125,2.7,4.9,71,0.00,,---,0.00,VWS V14.01,2013-06-09 01:04:00,
2013-06-08 21:05:00,73.0,41.5,28.94,SE,133,0.0,0.0,32,0.00,,---,0.04,VWS V14.01,2013-06-09 01:05:00,
2013-06-08 21:06:00,70.3,60.5,28.88,ESE,122,2.7,4.9,71,0.00,,---,0.00,VWS V14.01,2013-06-09 01:06:00,
2013-06-08 21:07:00,70.3,60.5,28.88,SE,143,5.4,5.4,71,0.00,,---,0.00,VWS V14.01,2013-06-09 01:07:00,
2013-06-08 21:08:00,70.2,60.3,28.88,SW,215,4.0,5.8,71,0.00,,---,0.00,VWS V14.01,2013-06-09 01:08:00,
2013-06-08 21:09:00,70.2,60.3,28.88,SW,215,0.0,4.0,71,0.00,,---,0.00,VWS V14.01,2013-06-09 01:09:00,
2013-06-08 21:10:00,72.5,41.0,28.94,SE,133,0.0,0.0,32,0.00,,---,0.04,VWS V14.01,2013-06-09 01:10:00,
2013-06-08 21:11:00,70.2,60.7,28.88,SE,131,0.0,3.1,72,0.00,,---,0.00,VWS V14.01,2013-06-09 01:11:00,
2013-06-08 21:12:00,70.2,60.7,28.85,SE,131,0.0,0.0,72,0.00,,---,0.00,VWS V14.01,2013-06-09 01:12:00,
2013-06-08 21:13:00,70.0,60.5,28.85,SE,131,0.0,0.0,72,0.00,,---,0.00,VWS V14.01,2013-06-09 01:13:00,
2013-06-08 21:14:00,70.2,61.1,28.85,SE,131,2.7,2.7,73,0.00,,---,0.00,VWS V14.01,2013-06-09 01:14:00,
2013-06-08 21:15:00,72.1,40.7,28.94,SE,133,0.0,0.0,32,0.00,,---,0.04,VWS V14.01,2013-06-09 01:15:00,
2013-06-08 21:16:00,70.0,61.3,28.85,SE,131,0.0,0.0,74,0.00,,---,0.00,VWS V14.01,2013-06-09 01:16:00,
2013-06-08 21:17:00,70.0,61.3,28.85,SE,131,0.0,0.0,74,0.00,,---,0.00,VWS V14.01,2013-06-09 01:17:00,
2013-06-08 21:18:00,70.0,61.3,28.85,SE,131,0.0,2.7,74,0.00,,---,0.00,VWS V14.01,2013-06-09 01:18:00,
2013-06-08 21:19:00,70.0,61.3,28.85,ESE,115,2.7,4.5,74,0.00,,---,0.00,VWS V14.01,2013-06-09 01:19:00,
2013-06-08 21:20:00,71.8,41.2,28.94,SE,133,0.0,0.0,33,0.00,,---,0.04,VWS V14.01,2013-06-09 01:20:00,
2013-06-08 21:21:00,69.8,61.5,28.85,SE,141,4.5,4.9,75,0.00,,---,0.00,VWS V14.01,2013-06-09 01:21:00,
2013-06-08 21:22:00,70.0,62.1,28.85,SSE,159,3.6,5.8,76,0.00,,---,0.00,VWS V14.01,2013-06-09 01:22:00,
2013-06-08 21:23:00,69.8,61.9,28.85,ESE,102,4.0,4.0,76,0.00,,---,0.00,VWS V14.01,2013-06-09 01:23:00,
2013-06-08 21:24:00,70.0,62.1,28.85,East,98,3.1,4.5,76,0.00,,---,0.00,VWS V14.01,2013-06-09 01:24:00,
2013-06-08 21:25:00,71.4,41.6,28.94,SE,133,0.0,0.0,34,0.00,,---,0.04,VWS V14.01,2013-06-09 01:25:00,
2013-06-08 21:26:00,69.8,62.3,28.85,East,98,5.4,5.4,77,0.00,,---,0.00,VWS V14.01,2013-06-09 01:26:00,
2013-06-08 21:27:00,69.8,62.3,28.85,East,100,4.9,5.4,77,0.00,,---,0.00,VWS V14.01,2013-06-09 01:27:00,
2013-06-08 21:28:00,69.8,62.6,28.85,East,100,4.5,5.8,78,0.00,,---,0.00,VWS V14.01,2013-06-09 01:28:00,
2013-06-08 21:29:00,69.8,62.6,28.85,East,79,4.0,4.5,78,0.00,,---,0.00,VWS V14.01,2013-06-09 01:29:00,
2013-06-08 21:30:00,71.1,42.0,28.94,SE,133,0.0,0.0,35,0.00,,---,0.04,VWS V14.01,2013-06-09 01:30:00,
2013-06-08 21:31:00,69.6,62.8,28.85,East,90,3.6,5.4,79,0.00,,---,0.00,VWS V14.01,2013-06-09 01:31:00,
2013-06-08 21:32:00,69.6,62.8,28.85,East,83,5.4,5.8,79,0.00,,---,0.00,VWS V14.01,2013-06-09 01:32:00,
2013-06-08 21:33:00,69.4,62.7,28.85,SE,127,4.0,5.8,79,0.00,,---,0.00,VWS V14.01,2013-06-09 01:33:00,
2013-06-08 21:34:00,69.4,62.7,28.85,ESE,120,4.5,6.9,79,0.00,,---,0.00,VWS V14.01,2013-06-09 01:34:00,
2013-06-08 21:35:00,70.9,43.3,28.94,SE,133,0.0,0.0,37,0.00,,---,0.04,VWS V14.01,2013-06-09 01:35:00,
2013-06-08 21:36:00,69.3,62.8,28.85,ESE,112,4.0,5.8,80,0.00,,---,0.00,VWS V14.01,2013-06-09 01:36:00,
2013-06-08 21:37:00,69.3,62.8,28.85,ESE,112,3.6,4.0,80,0.00,,---,0.00,VWS V14.01,2013-06-09 01:37:00,
2013-06-08 21:38:00,69.3,62.8,28.85,ESE,104,4.0,5.4,80,0.00,,---,0.00,VWS V14.01,2013-06-09 01:38:00,
2013-06-08 21:39:00,69.3,62.8,28.85,ESE,103,3.1,4.0,80,0.00,,---,0.00,VWS V14.01,2013-06-09 01:39:00,
2013-06-08 21:40:00,70.5,43.0,28.94,SE,133,0.0,0.0,37,0.00,,---,0.04,VWS V14.01,2013-06-09 01:40:00,
2013-06-08 21:41:00,69.3,63.2,28.85,ESE,104,2.7,4.0,81,0.00,,---,0.00,VWS V14.01,2013-06-09 01:41:00,
2013-06-08 21:42:00,69.3,63.2,28.85,East,86,3.1,4.0,81,0.00,,---,0.00,VWS V14.01,2013-06-09 01:42:00,
2013-06-08 21:43:00,69.3,63.2,28.85,East,87,3.1,4.0,81,0.00,,---,0.00,VWS V14.01,2013-06-09 01:43:00,
2013-06-08 21:44:00,69.3,63.2,28.85,ESE,108,4.0,4.5,81,0.00,,---,0.00,VWS V14.01,2013-06-09 01:44:00,
2013-06-08 21:45:00,70.3,43.5,28.94,SE,133,0.0,0.0,38,0.00,,---,0.04,VWS V14.01,2013-06-09 01:45:00,
2013-06-08 21:46:00,69.3,63.2,28.85,ESE,106,4.0,4.0,81,0.00,,---,0.00,VWS V14.01,2013-06-09 01:46:00,
2013-06-08 21:47:00,69.3,63.5,28.85,ENE,73,4.5,5.4,82,0.00,,---,0.00,VWS V14.01,2013-06-09 01:47:00,
2013-06-08 21:48:00,69.1,63.4,28.85,East,99,4.9,5.8,82,0.00,,---,0.00,VWS V14.01,2013-06-09 01:48:00,
2013-06-08 21:49:00,69.1,63.4,28.85,ESE,114,4.5,5.4,82,0.00,,---,0.00,VWS V14.01,2013-06-09 01:49:00,
2013-06-08 21:50:00,70.0,43.9,28.94,SE,133,0.0,0.0,39,0.00,,---,0.04,VWS V14.01,2013-06-09 01:50:00,
2013-06-08 21:51:00,69.1,63.4,28.85,ESE,103,3.6,5.4,82,0.00,,---,0.00,VWS V14.01,2013-06-09 01:51:00,
2013-06-08 21:52:00,69.1,63.7,28.85,ESE,103,3.6,4.9,83,0.00,,---,0.00,VWS V14.01,2013-06-09 01:52:00,
2013-06-08 21:53:00,69.1,63.7,28.85,ESE,116,6.7,6.7,83,0.00,,---,0.00,VWS V14.01,2013-06-09 01:53:00,
2013-06-08 21:54:00,69.1,63.7,28.85,ESE,110,2.7,6.7,83,0.00,,---,0.00,VWS V14.01,2013-06-09 01:54:00,
2013-06-08 21:55:00,70.0,45.2,28.94,SE,143,0.0,0.0,41,0.00,,---,0.04,VWS V14.01,2013-06-09 01:55:00,
2013-06-08 21:56:00,69.1,63.7,28.85,ESE,108,3.6,4.5,83,0.00,,---,0.00,VWS V14.01,2013-06-09 01:56:00,
2013-06-08 21:57:00,69.1,64.1,28.85,ESE,104,3.1,4.5,84,0.00,,---,0.00,VWS V14.01,2013-06-09 01:57:00,
2013-06-08 21:58:00,69.1,64.1,28.85,ESE,113,4.0,5.8,84,0.00,,---,0.00,VWS V14.01,2013-06-09 01:58:00,
2013-06-08 21:59:00,68.9,63.9,28.85,ESE,113,4.9,4.9,84,0.00,,---,0.00,VWS V14.01,2013-06-09 01:59:00,
2013-06-08 22:00:00,69.8,45.7,28.97,SE,143,0.0,0.0,42,0.00,,---,0.04,VWS V14.01,2013-06-09 02:00:00,
2013-06-08 22:01:00,68.9,63.9,28.85,East,87,4.0,5.4,84,0.00,,---,0.00,VWS V14.01,2013-06-09 02:01:00,
2013-06-08 22:02:00,68.9,64.2,28.85,ESE,104,4.0,5.8,85,0.00,,---,0.00,VWS V14.01,2013-06-09 02:02:00,
2013-06-08 22:03:00,68.9,64.2,28.85,East,90,4.0,4.9,85,0.00,,---,0.00,VWS V14.01,2013-06-09 02:03:00,
2013-06-08 22:04:00,68.9,64.2,28.85,ESE,104,4.9,5.8,85,0.00,,---,0.00,VWS V14.01,2013-06-09 02:04:00,
2013-06-08 22:05:00,69.6,45.5,28.97,SSE,167,0.0,0.0,42,0.00,,---,0.04,VWS V14.01,2013-06-09 02:05:00,
2013-06-08 22:06:00,68.7,64.0,28.85,SE,131,3.6,5.4,85,0.00,,---,0.00,VWS V14.01,2013-06-09 02:06:00,
2013-06-08 22:07:00,68.7,64.0,28.85,East,91,3.6,4.5,85,0.00,,---,0.00,VWS V14.01,2013-06-09 02:07:00,
2013-06-08 22:08:00,68.7,64.0,28.85,ESE,104,4.9,4.9,85,0.00,,---,0.00,VWS V14.01,2013-06-09 02:08:00,
2013-06-08 22:09:00,68.7,64.0,28.85,ESE,117,4.0,4.9,85,0.00,,---,0.00,VWS V14.01,2013-06-09 02:09:00,
2013-06-08 22:10:00,69.4,45.4,28.97,SW,220,0.0,0.0,42,0.00,,---,0.04,VWS V14.01,2013-06-09 02:10:00,
2013-06-08 22:11:00,68.7,64.0,28.85,ESE,104,4.5,4.5,85,0.00,,---,0.00,VWS V14.01,2013-06-09 02:11:00,
2013-06-08 22:12:00,68.7,64.0,28.85,SE,131,2.7,5.8,85,0.00,,---,0.00,VWS V14.01,2013-06-09 02:12:00,
2013-06-08 22:13:00,68.7,64.0,28.85,ESE,110,4.0,4.0,85,0.00,,---,0.00,VWS V14.01,2013-06-09 02:13:00,
2013-06-08 22:14:00,68.7,64.4,28.85,ESE,110,2.7,4.9,86,0.00,,---,0.00,VWS V14.01,2013-06-09 02:14:00,
2013-06-08 22:15:00,69.1,45.7,28.97,SW,220,0.0,0.0,43,0.00,,---,0.04,VWS V14.01,2013-06-09 02:15:00,
2013-06-08 22:16:00,68.7,64.4,28.85,ESE,111,0.0,4.0,86,0.00,,---,0.00,VWS V14.01,2013-06-09 02:16:00,
2013-06-08 22:17:00,68.7,64.4,28.85,ESE,111,0.0,0.0,86,0.00,,---,0.00,VWS V14.01,2013-06-09 02:17:00,
2013-06-08 22:18:00,68.7,64.4,28.85,ESE,111,4.0,4.0,86,0.00,,---,0.00,VWS V14.01,2013-06-09 02:18:00,
2013-06-08 22:19:00,68.7,64.4,28.85,ESE,105,4.5,4.5,86,0.00,,---,0.00,VWS V14.01,2013-06-09 02:19:00,
2013-06-08 22:20:00,68.9,46.1,28.97,SW,220,0.0,0.0,44,0.00,,---,0.04,VWS V14.01,2013-06-09 02:20:00,
2013-06-08 22:21:00,68.7,64.4,28.85,ESE,116,4.9,4.9,86,0.00,,---,0.00,VWS V14.01,2013-06-09 02:21:00,
2013-06-08 22:22:00,68.7,64.4,28.85,East,101,4.0,6.3,86,0.00,,---,0.00,VWS V14.01,2013-06-09 02:22:00,
2013-06-08 22:23:00,68.7,64.4,28.85,ESE,107,6.3,6.3,86,0.00,,---,0.00,VWS V14.01,2013-06-09 02:23:00,
2013-06-08 22:24:00,68.7,64.4,28.85,ESE,108,3.6,6.3,86,0.00,,---,0.00,VWS V14.01,2013-06-09 02:24:00,
2013-06-08 22:25:00,68.5,64.2,28.85,East,86,3.1,5.4,86,0.00,,---,0.00,VWS V14.01,2013-06-09 02:25:00,
2013-06-08 22:26:00,68.7,47.1,28.97,SW,220,0.0,0.0,46,0.00,,---,0.04,VWS V14.01,2013-06-09 02:26:00,
2013-06-08 22:27:00,68.5,64.2,28.85,ESE,105,3.6,5.4,86,0.00,,---,0.00,VWS V14.01,2013-06-09 02:27:00,
2013-06-08 22:28:00,68.5,64.2,28.85,ESE,105,3.1,4.9,86,0.00,,---,0.00,VWS V14.01,2013-06-09 02:28:00,
2013-06-08 22:29:00,68.5,64.2,28.85,East,98,4.5,4.5,86,0.00,,---,0.00,VWS V14.01,2013-06-09 02:29:00,
2013-06-08 22:30:00,68.5,64.2,28.85,East,96,4.0,4.9,86,0.00,,---,0.00,VWS V14.01,2013-06-09 02:30:00,
2013-06-08 22:31:00,68.5,47.5,28.97,SW,220,0.0,0.0,47,0.00,,---,0.04,VWS V14.01,2013-06-09 02:31:00,
2013-06-08 22:32:00,68.5,64.2,28.85,ESE,114,3.1,5.4,86,0.00,,---,0.00,VWS V14.01,2013-06-09 02:32:00,
2013-06-08 22:33:00,68.5,64.2,28.85,ENE,78,3.6,4.9,86,0.00,,---,0.00,VWS V14.01,2013-06-09 02:33:00,
2013-06-08 22:34:00,68.5,64.2,28.85,East,98,4.0,4.9,86,0.00,,---,0.00,VWS V14.01,2013-06-09 02:34:00,
2013-06-08 22:35:00,68.5,64.2,28.85,East,100,3.1,4.9,86,0.00,,---,0.00,VWS V14.01,2013-06-09 02:35:00,
2013-06-08 22:36:00,68.5,49.2,28.97,SE,145,3.1,4.0,50,0.00,,---,0.04,VWS V14.01,2013-06-09 02:36:00,
2013-06-08 22:37:00,68.5,64.2,28.85,ESE,120,6.7,6.7,86,0.00,,---,0.00,VWS V14.01,2013-06-09 02:37:00,
2013-06-08 22:38:00,68.4,64.0,28.85,ESE,107,4.9,6.7,86,0.00,,---,0.00,VWS V14.01,2013-06-09 02:38:00,
2013-06-08 22:39:00,68.4,64.0,28.85,ENE,77,3.1,4.9,86,0.00,,---,0.00,VWS V14.01,2013-06-09 02:39:00,
2013-06-08 22:40:00,68.4,64.0,28.85,SE,126,3.1,6.3,86,0.00,,---,0.00,VWS V14.01,2013-06-09 02:40:00,
2013-06-08 22:41:00,68.4,49.5,28.97,East,101,0.0,0.0,51,0.00,,---,0.04,VWS V14.01,2013-06-09 02:41:00,
2013-06-08 22:42:00,68.4,64.0,28.85,ESE,119,4.5,5.4,86,0.00,,---,0.00,VWS V14.01,2013-06-09 02:42:00,
2013-06-08 22:43:00,68.4,64.0,28.85,ESE,110,4.0,4.5,86,0.00,,---,0.00,VWS V14.01,2013-06-09 02:43:00,
2013-06-08 22:44:00,68.4,64.0,28.85,ESE,110,3.1,4.0,86,0.00,,---,0.00,VWS V14.01,2013-06-09 02:44:00,
2013-06-08 22:45:00,68.4,64.0,28.85,SE,128,3.6,4.9,86,0.00,,---,0.00,VWS V14.01,2013-06-09 02:45:00,
2013-06-08 22:46:00,68.2,48.8,28.97,East,101,0.0,0.0,50,0.00,,---,0.04,VWS V14.01,2013-06-09 02:46:00,
2013-06-08 22:47:00,68.4,64.0,28.85,ESE,117,4.5,4.5,86,0.00,,---,0.00,VWS V14.01,2013-06-09 02:47:00,
2013-06-08 22:48:00,68.4,64.0,28.85,ESE,117,3.1,4.5,86,0.00,,---,0.00,VWS V14.01,2013-06-09 02:48:00,
2013-06-08 22:49:00,68.4,64.0,28.85,ESE,103,2.7,4.0,86,0.00,,---,0.00,VWS V14.01,2013-06-09 02:49:00,
2013-06-08 22:50:00,68.4,64.0,28.85,ESE,121,4.5,5.8,86,0.00,,---,0.00,VWS V14.01,2013-06-09 02:50:00,
2013-06-08 22:51:00,68.0,49.2,28.97,East,99,0.0,0.0,51,0.00,,---,0.04,VWS V14.01,2013-06-09 02:51:00,
2013-06-08 22:52:00,68.5,64.5,28.85,East,101,4.5,5.8,87,0.00,,---,0.00,VWS V14.01,2013-06-09 02:52:00,
2013-06-08 22:53:00,68.4,64.3,28.85,SE,137,3.6,4.5,87,0.00,,---,0.00,VWS V14.01,2013-06-09 02:53:00,
2013-06-08 22:54:00,68.4,64.3,28.85,SE,125,3.1,4.0,87,0.00,,---,0.00,VWS V14.01,2013-06-09 02:54:00,
2013-06-08 22:55:00,68.4,64.3,28.85,SE,126,3.6,5.8,87,0.00,,---,0.00,VWS V14.01,2013-06-09 02:55:00,
2013-06-08 22:56:00,67.8,49.0,28.97,South,178,2.7,4.0,51,0.00,,---,0.04,VWS V14.01,2013-06-09 02:56:00,
2013-06-08 22:57:00,68.4,64.3,28.82,SE,126,3.1,4.0,87,0.00,,---,0.00,VWS V14.01,2013-06-09 02:57:00,
2013-06-08 22:58:00,68.4,64.3,28.82,ESE,116,3.6,5.4,87,0.00,,---,0.00,VWS V14.01,2013-06-09 02:58:00,
2013-06-08 22:59:00,68.4,64.3,28.82,ESE,120,4.0,5.8,87,0.00,,---,0.00,VWS V14.01,2013-06-09 02:59:00,
2013-06-08 23:00:00,68.4,64.3,28.82,ESE,103,3.6,5.8,87,0.00,,---,0.00,VWS V14.01,2013-06-09 03:00:00,
2013-06-08 23:01:00,67.8,51.1,28.97,South,173,0.0,3.6,55,0.00,,---,0.04,VWS V14.01,2013-06-09 03:01:00,
2013-06-08 23:02:00,68.4,64.3,28.82,East,96,4.9,5.8,87,0.00,,---,0.00,VWS V14.01,2013-06-09 03:02:00,
2013-06-08 23:03:00,68.4,64.3,28.82,ESE,121,4.9,5.4,87,0.00,,---,0.00,VWS V14.01,2013-06-09 03:03:00,
2013-06-08 23:04:00,68.4,64.0,28.82,ESE,114,4.0,4.9,86,0.00,,---,0.00,VWS V14.01,2013-06-09 03:04:00,
2013-06-08 23:05:00,68.4,64.0,28.82,ESE,108,6.3,6.3,86,0.00,,---,0.00,VWS V14.01,2013-06-09 03:05:00,
2013-06-08 23:06:00,67.8,51.6,28.97,South,173,0.0,0.0,56,0.00,,---,0.04,VWS V14.01,2013-06-09 03:06:00,
2013-06-08 23:07:00,68.2,63.8,28.82,ESE,102,3.6,6.3,86,0.00,,---,0.00,VWS V14.01,2013-06-09 03:07:00,
2013-06-08 23:08:00,68.2,63.8,28.82,ESE,108,3.1,4.5,86,0.00,,---,0.00,VWS V14.01,2013-06-09 03:08:00,
2013-06-08 23:09:00,68.2,63.8,28.82,East,100,4.5,5.8,86,0.00,,---,0.00,VWS V14.01,2013-06-09 03:09:00,
2013-06-08 23:10:00,68.2,63.8,28.82,East,94,3.6,5.8,86,0.00,,---,0.00,VWS V14.01,2013-06-09 03:10:00,
2013-06-08 23:11:00,68.2,63.8,28.82,East,96,3.6,4.0,86,0.00,,---,0.00,VWS V14.01,2013-06-09 03:11:00,
2013-06-08 23:12:00,67.6,51.9,28.97,SSE,148,2.7,4.5,57,0.00,,---,0.04,VWS V14.01,2013-06-09 03:12:00,
2013-06-08 23:13:00,68.2,63.8,28.82,East,100,2.7,6.3,86,0.00,,---,0.00,VWS V14.01,2013-06-09 03:13:00,
2013-06-08 23:14:00,68.2,63.8,28.82,East,100,0.0,3.6,86,0.00,,---,0.00,VWS V14.01,2013-06-09 03:14:00,
2013-06-08 23:15:00,68.2,63.8,28.82,East,100,0.0,0.0,86,0.00,,---,0.00,VWS V14.01,2013-06-09 03:15:00,
2013-06-08 23:16:00,68.2,63.8,28.82,ESE,107,3.1,4.0,86,0.00,,---,0.00,VWS V14.01,2013-06-09 03:16:00,
2013-06-08 23:17:00,67.5,51.7,28.97,SSE,148,0.0,0.0,57,0.00,,---,0.04,VWS V14.01,2013-06-09 03:17:00,
2013-06-08 23:18:00,68.2,63.8,28.82,ESE,112,4.9,5.8,86,0.00,,---,0.00,VWS V14.01,2013-06-09 03:18:00,
2013-06-08 23:19:00,68.2,63.8,28.82,ESE,118,4.9,6.7,86,0.00,,---,0.00,VWS V14.01,2013-06-09 03:19:00,
2013-06-08 23:20:00,68.2,63.5,28.82,East,101,4.0,4.9,85,0.00,,---,0.00,VWS V14.01,2013-06-09 03:20:00,
2013-06-08 23:21:00,68.2,63.5,28.82,SE,135,6.7,6.7,85,0.00,,---,0.00,VWS V14.01,2013-06-09 03:21:00,
2013-06-08 23:22:00,67.3,51.5,28.97,SSE,148,0.0,0.0,57,0.00,,---,0.04,VWS V14.01,2013-06-09 03:22:00,
2013-06-08 23:23:00,68.2,63.5,28.82,ESE,111,4.9,5.8,85,0.00,,---,0.00,VWS V14.01,2013-06-09 03:23:00,
2013-06-08 23:24:00,68.2,63.5,28.82,ESE,115,4.5,5.8,85,0.00,,---,0.00,VWS V14.01,2013-06-09 03:24:00,
2013-06-08 23:25:00,68.2,63.5,28.82,East,97,3.1,5.4,85,0.00,,---,0.00,VWS V14.01,2013-06-09 03:25:00,
2013-06-08 23:26:00,68.2,63.5,28.82,ESE,103,4.9,5.4,85,0.00,,---,0.00,VWS V14.01,2013-06-09 03:26:00,
2013-06-08 23:27:00,68.2,63.2,28.82,ESE,105,4.5,6.9,84,0.00,,---,0.00,VWS V14.01,2013-06-09 03:27:00,
2013-06-08 23:28:00,68.2,63.2,28.82,ESE,118,4.9,5.4,84,0.00,,---,0.00,VWS V14.01,2013-06-09 03:28:00,
2013-06-08 23:29:00,68.2,63.2,28.82,ESE,119,3.1,4.9,84,0.00,,---,0.00,VWS V14.01,2013-06-09 03:29:00,
2013-06-08 23:30:00,68.2,63.2,28.82,East,94,3.1,4.0,84,0.00,,---,0.00,VWS V14.01,2013-06-09 03:30:00,
2013-06-08 23:31:00,68.2,63.2,28.82,ESE,111,3.1,4.5,84,0.00,,---,0.00,VWS V14.01,2013-06-09 03:31:00,
2013-06-08 23:32:00,67.3,53.4,28.97,SE,144,0.0,0.0,61,0.00,,---,0.04,VWS V14.01,2013-06-09 03:32:00,
2013-06-08 23:33:00,68.2,63.2,28.82,ESE,119,4.9,6.3,84,0.00,,---,0.00,VWS V14.01,2013-06-09 03:33:00,
2013-06-08 23:34:00,68.2,63.2,28.82,East,87,5.4,5.4,84,0.00,,---,0.00,VWS V14.01,2013-06-09 03:34:00,
2013-06-08 23:35:00,68.2,63.2,28.82,East,79,3.6,6.3,84,0.00,,---,0.00,VWS V14.01,2013-06-09 03:35:00,
2013-06-08 23:36:00,68.2,63.2,28.82,ESE,102,2.7,4.5,84,0.00,,---,0.00,VWS V14.01,2013-06-09 03:36:00,
2013-06-08 23:37:00,68.4,63.3,28.82,ESE,117,3.6,4.0,84,0.00,,---,0.00,VWS V14.01,2013-06-09 03:37:00,
2013-06-08 23:38:00,66.9,53.0,28.97,SE,144,0.0,0.0,61,0.00,,---,0.04,VWS V14.01,2013-06-09 03:38:00,
2013-06-08 23:39:00,68.4,63.3,28.82,SSE,149,4.5,4.5,84,0.00,,---,0.00,VWS V14.01,2013-06-09 03:39:00,
2013-06-08 23:40:00,68.4,63.3,28.82,ESE,116,4.5,4.9,84,0.00,,---,0.00,VWS V14.01,2013-06-09 03:40:00,
2013-06-08 23:41:00,68.4,63.3,28.82,SSE,148,2.7,4.9,84,0.00,,---,0.00,VWS V14.01,2013-06-09 03:41:00,
2013-06-08 23:42:00,68.4,63.3,28.82,SSE,149,6.7,6.7,84,0.00,,---,0.00,VWS V14.01,2013-06-09 03:42:00,
2013-06-08 23:43:00,66.9,53.5,28.97,SSE,152,0.0,0.0,62,0.00,,---,0.04,VWS V14.01,2013-06-09 03:43:00,
2013-06-08 23:44:00,68.4,63.3,28.82,ESE,109,6.3,6.3,84,0.00,,---,0.00,VWS V14.01,2013-06-09 03:44:00,
2013-06-08 23:45:00,68.4,63.3,28.82,ENE,72,0.0,6.3,84,0.00,,---,0.00,VWS V14.01,2013-06-09 03:45:00,
2013-06-08 23:46:00,68.5,63.5,28.82,ESE,119,3.6,5.8,84,0.00,,---,0.00,VWS V14.01,2013-06-09 03:46:00,
2013-06-08 23:47:00,68.5,63.5,28.82,SSE,150,3.1,6.9,84,0.00,,---,0.00,VWS V14.01,2013-06-09 03:47:00,
2013-06-08 23:48:00,68.5,63.5,28.82,SSE,147,0.0,3.1,84,0.00,,---,0.00,VWS V14.01,2013-06-09 03:48:00,
2013-06-08 23:49:00,68.5,63.5,28.82,ESE,116,3.6,4.5,84,0.00,,---,0.00,VWS V14.01,2013-06-09 03:49:00,
2013-06-08 23:50:00,66.7,53.8,28.97,SE,129,0.0,0.0,63,0.00,,---,0.04,VWS V14.01,2013-06-09 03:50:00,
2013-06-08 23:51:00,68.5,63.5,28.82,ESE,121,5.4,7.4,84,0.00,,---,0.00,VWS V14.01,2013-06-09 03:51:00,
2013-06-08 23:52:00,68.5,63.5,28.82,SSE,161,4.5,9.2,84,0.00,,---,0.00,VWS V14.01,2013-06-09 03:52:00,
2013-06-08 23:53:00,68.5,63.5,28.82,ESE,118,7.4,7.8,84,0.00,,---,0.00,VWS V14.01,2013-06-09 03:53:00,
2013-06-08 23:54:00,68.7,63.7,28.82,SSE,150,5.4,7.4,84,0.00,,---,0.00,VWS V14.01,2013-06-09 03:54:00,
2013-06-08 23:55:00,68.7,63.3,28.82,SE,129,3.6,5.4,83,0.00,,---,0.00,VWS V14.01,2013-06-09 03:55:00,
2013-06-08 23:56:00,66.6,53.6,28.97,SE,130,0.0,0.0,63,0.00,,---,0.04,VWS V14.01,2013-06-09 03:56:00,
2013-06-08 23:57:00,68.7,63.3,28.82,SSE,149,4.5,4.9,83,0.00,,---,0.00,VWS V14.01,2013-06-09 03:57:00,
2013-06-08 23:58:00,68.7,63.3,28.82,East,100,4.9,9.2,83,0.00,,---,0.00,VWS V14.01,2013-06-09 03:58:00,
2013-06-08 23:59:00,68.7,63.3,28.82,SE,130,4.5,4.9,83,0.00,,---,0.00,VWS V14.01,2013-06-09 03:59:00,